<?xml version="1.0" encoding="UTF-8" standalone="no" ?>
<gpx xmlns="http://www.topografix.com/GPX/1/1" xmlns:xsi="http://www.w3.org/2001/XMLSchema-instance" xsi:schemaLocation="http://www.topografix.com/GPX/1/1 http://www.topografix.com/GPX/1/1/gpx.xsd" version="1.1" creator="VisuGPX - https://www.visugpx.com">
  <metadata>
    <name>2022-04-10 le-puech-depuis-le-col-de-portet-d-aspet</name>
    <desc><![CDATA[Belle petite rando, pas trop physique pour démarrer la saison sans pression.]]></desc>
  </metadata>
  <trk>
    <name><![CDATA[2022-04-10 20:40:53]]></name>
    <extensions>
      <line xmlns="http://www.topografix.com/GPX/gpx_style/0/2">
        <color>0000FF</color>
        <width>4</width>
      </line>
    </extensions>
    <trkseg>
      <trkpt lat="42.94476" lon="0.85454">
        <ele>1063.84</ele>
        <time>2022-04-10T08:18:02Z</time>
      </trkpt>
      <trkpt lat="42.94483" lon="0.85452">
        <ele>1064.32</ele>
        <time>2022-04-10T08:18:21Z</time>
      </trkpt>
      <trkpt lat="42.94494" lon="0.85439">
        <ele>1064.32</ele>
        <time>2022-04-10T08:18:41Z</time>
      </trkpt>
      <trkpt lat="42.9449" lon="0.85425">
        <ele>1065.28</ele>
        <time>2022-04-10T08:18:55Z</time>
      </trkpt>
      <trkpt lat="42.94483" lon="0.85413">
        <ele>1065.76</ele>
        <time>2022-04-10T08:19:08Z</time>
      </trkpt>
      <trkpt lat="42.94478" lon="0.85409">
        <ele>1067.2</ele>
        <time>2022-04-10T08:19:19Z</time>
      </trkpt>
      <trkpt lat="42.94473" lon="0.8541">
        <ele>1067.2</ele>
        <time>2022-04-10T08:19:31Z</time>
      </trkpt>
      <trkpt lat="42.94472" lon="0.85411">
        <ele>1067.2</ele>
        <time>2022-04-10T08:19:32Z</time>
      </trkpt>
      <trkpt lat="42.94462" lon="0.85425">
        <ele>1068.16</ele>
        <time>2022-04-10T08:19:46Z</time>
      </trkpt>
      <trkpt lat="42.94457" lon="0.85434">
        <ele>1069.12</ele>
        <time>2022-04-10T08:19:57Z</time>
      </trkpt>
      <trkpt lat="42.94451" lon="0.85443">
        <ele>1070.08</ele>
        <time>2022-04-10T08:20:06Z</time>
      </trkpt>
      <trkpt lat="42.94445" lon="0.85448">
        <ele>1070.57</ele>
        <time>2022-04-10T08:20:13Z</time>
      </trkpt>
      <trkpt lat="42.94441" lon="0.85456">
        <ele>1071.53</ele>
        <time>2022-04-10T08:20:21Z</time>
      </trkpt>
      <trkpt lat="42.94429" lon="0.85466">
        <ele>1072.49</ele>
        <time>2022-04-10T08:20:37Z</time>
      </trkpt>
      <trkpt lat="42.94418" lon="0.85477">
        <ele>1073.93</ele>
        <time>2022-04-10T08:20:53Z</time>
      </trkpt>
      <trkpt lat="42.94406" lon="0.85486">
        <ele>1075.37</ele>
        <time>2022-04-10T08:21:08Z</time>
      </trkpt>
      <trkpt lat="42.94392" lon="0.85492">
        <ele>1075.85</ele>
        <time>2022-04-10T08:21:17Z</time>
      </trkpt>
      <trkpt lat="42.94383" lon="0.85492">
        <ele>1075.85</ele>
        <time>2022-04-10T08:21:27Z</time>
      </trkpt>
      <trkpt lat="42.94378" lon="0.85491">
        <ele>1075.85</ele>
        <time>2022-04-10T08:21:32Z</time>
      </trkpt>
      <trkpt lat="42.94375" lon="0.8549">
        <ele>1072.97</ele>
        <time>2022-04-10T08:21:34Z</time>
      </trkpt>
      <trkpt lat="42.94374" lon="0.8549">
        <ele>1076.33</ele>
        <time>2022-04-10T08:21:35Z</time>
      </trkpt>
      <trkpt lat="42.94362" lon="0.85478">
        <ele>1074.41</ele>
        <time>2022-04-10T08:21:48Z</time>
      </trkpt>
      <trkpt lat="42.9435" lon="0.85463">
        <ele>1073.45</ele>
        <time>2022-04-10T08:22:02Z</time>
      </trkpt>
      <trkpt lat="42.94337" lon="0.85458">
        <ele>1072.01</ele>
        <time>2022-04-10T08:22:16Z</time>
      </trkpt>
      <trkpt lat="42.94323" lon="0.85451">
        <ele>1072.01</ele>
        <time>2022-04-10T08:22:29Z</time>
      </trkpt>
      <trkpt lat="42.94314" lon="0.85446">
        <ele>1073.45</ele>
        <time>2022-04-10T08:22:41Z</time>
      </trkpt>
      <trkpt lat="42.94305" lon="0.85445">
        <ele>1075.37</ele>
        <time>2022-04-10T08:22:53Z</time>
      </trkpt>
      <trkpt lat="42.94289" lon="0.8544">
        <ele>1076.81</ele>
        <time>2022-04-10T08:23:06Z</time>
      </trkpt>
      <trkpt lat="42.94281" lon="0.85434">
        <ele>1078.74</ele>
        <time>2022-04-10T08:23:17Z</time>
      </trkpt>
      <trkpt lat="42.9427" lon="0.85426">
        <ele>1080.18</ele>
        <time>2022-04-10T08:23:29Z</time>
      </trkpt>
      <trkpt lat="42.94261" lon="0.85418">
        <ele>1081.62</ele>
        <time>2022-04-10T08:23:40Z</time>
      </trkpt>
      <trkpt lat="42.94255" lon="0.85408">
        <ele>1083.06</ele>
        <time>2022-04-10T08:23:50Z</time>
      </trkpt>
      <trkpt lat="42.9425" lon="0.85395">
        <ele>1084.5</ele>
        <time>2022-04-10T08:24:04Z</time>
      </trkpt>
      <trkpt lat="42.94246" lon="0.85377">
        <ele>1084.5</ele>
        <time>2022-04-10T08:24:16Z</time>
      </trkpt>
      <trkpt lat="42.94244" lon="0.85367">
        <ele>1083.54</ele>
        <time>2022-04-10T08:24:26Z</time>
      </trkpt>
      <trkpt lat="42.94242" lon="0.85348">
        <ele>1082.1</ele>
        <time>2022-04-10T08:24:38Z</time>
      </trkpt>
      <trkpt lat="42.94241" lon="0.85346">
        <ele>1082.1</ele>
        <time>2022-04-10T08:24:39Z</time>
      </trkpt>
      <trkpt lat="42.94236" lon="0.8533">
        <ele>1080.18</ele>
        <time>2022-04-10T08:24:49Z</time>
      </trkpt>
      <trkpt lat="42.94226" lon="0.85316">
        <ele>1080.18</ele>
        <time>2022-04-10T08:25:01Z</time>
      </trkpt>
      <trkpt lat="42.9422" lon="0.85307">
        <ele>1079.7</ele>
        <time>2022-04-10T08:25:11Z</time>
      </trkpt>
      <trkpt lat="42.9421" lon="0.85297">
        <ele>1079.7</ele>
        <time>2022-04-10T08:25:23Z</time>
      </trkpt>
      <trkpt lat="42.942" lon="0.85283">
        <ele>1079.7</ele>
        <time>2022-04-10T08:25:36Z</time>
      </trkpt>
      <trkpt lat="42.94192" lon="0.85275">
        <ele>1081.14</ele>
        <time>2022-04-10T08:25:46Z</time>
      </trkpt>
      <trkpt lat="42.94183" lon="0.85268">
        <ele>1081.62</ele>
        <time>2022-04-10T08:25:55Z</time>
      </trkpt>
      <trkpt lat="42.94168" lon="0.85259">
        <ele>1082.1</ele>
        <time>2022-04-10T08:26:07Z</time>
      </trkpt>
      <trkpt lat="42.94158" lon="0.85254">
        <ele>1082.1</ele>
        <time>2022-04-10T08:26:17Z</time>
      </trkpt>
      <trkpt lat="42.94146" lon="0.85245">
        <ele>1082.58</ele>
        <time>2022-04-10T08:26:28Z</time>
      </trkpt>
      <trkpt lat="42.94138" lon="0.85242">
        <ele>1083.06</ele>
        <time>2022-04-10T08:26:37Z</time>
      </trkpt>
      <trkpt lat="42.94124" lon="0.85233">
        <ele>1083.06</ele>
        <time>2022-04-10T08:26:48Z</time>
      </trkpt>
      <trkpt lat="42.9411" lon="0.85227">
        <ele>1083.06</ele>
        <time>2022-04-10T08:27:00Z</time>
      </trkpt>
      <trkpt lat="42.94096" lon="0.85221">
        <ele>1082.58</ele>
        <time>2022-04-10T08:27:12Z</time>
      </trkpt>
      <trkpt lat="42.94094" lon="0.85221">
        <ele>1082.58</ele>
        <time>2022-04-10T08:27:14Z</time>
      </trkpt>
      <trkpt lat="42.94084" lon="0.85218">
        <ele>1083.06</ele>
        <time>2022-04-10T08:27:25Z</time>
      </trkpt>
      <trkpt lat="42.94069" lon="0.8522">
        <ele>1084.5</ele>
        <time>2022-04-10T08:27:38Z</time>
      </trkpt>
      <trkpt lat="42.94065" lon="0.8522">
        <ele>1084.99</ele>
        <time>2022-04-10T08:27:41Z</time>
      </trkpt>
      <trkpt lat="42.9405" lon="0.85218">
        <ele>1085.95</ele>
        <time>2022-04-10T08:27:55Z</time>
      </trkpt>
      <trkpt lat="42.94039" lon="0.85212">
        <ele>1087.87</ele>
        <time>2022-04-10T08:28:05Z</time>
      </trkpt>
      <trkpt lat="42.94027" lon="0.85204">
        <ele>1089.31</ele>
        <time>2022-04-10T08:28:18Z</time>
      </trkpt>
      <trkpt lat="42.94018" lon="0.85198">
        <ele>1091.23</ele>
        <time>2022-04-10T08:28:30Z</time>
      </trkpt>
      <trkpt lat="42.94014" lon="0.85198">
        <ele>1091.23</ele>
        <time>2022-04-10T08:28:33Z</time>
      </trkpt>
      <trkpt lat="42.93998" lon="0.85203">
        <ele>1092.2</ele>
        <time>2022-04-10T08:28:48Z</time>
      </trkpt>
      <trkpt lat="42.93984" lon="0.85205">
        <ele>1093.64</ele>
        <time>2022-04-10T08:29:00Z</time>
      </trkpt>
      <trkpt lat="42.93966" lon="0.8521">
        <ele>1095.08</ele>
        <time>2022-04-10T08:29:16Z</time>
      </trkpt>
      <trkpt lat="42.93952" lon="0.8521">
        <ele>1097</ele>
        <time>2022-04-10T08:29:30Z</time>
      </trkpt>
      <trkpt lat="42.93937" lon="0.85206">
        <ele>1098.92</ele>
        <time>2022-04-10T08:29:45Z</time>
      </trkpt>
      <trkpt lat="42.93925" lon="0.85198">
        <ele>1100.37</ele>
        <time>2022-04-10T08:30:00Z</time>
      </trkpt>
      <trkpt lat="42.93917" lon="0.85193">
        <ele>1102.29</ele>
        <time>2022-04-10T08:30:10Z</time>
      </trkpt>
      <trkpt lat="42.93908" lon="0.85191">
        <ele>1103.73</ele>
        <time>2022-04-10T08:30:21Z</time>
      </trkpt>
      <trkpt lat="42.939" lon="0.85185">
        <ele>1105.17</ele>
        <time>2022-04-10T08:30:32Z</time>
      </trkpt>
      <trkpt lat="42.93891" lon="0.85178">
        <ele>1107.1</ele>
        <time>2022-04-10T08:30:45Z</time>
      </trkpt>
      <trkpt lat="42.93885" lon="0.85174">
        <ele>1109.02</ele>
        <time>2022-04-10T08:30:56Z</time>
      </trkpt>
      <trkpt lat="42.93876" lon="0.85169">
        <ele>1110.94</ele>
        <time>2022-04-10T08:31:09Z</time>
      </trkpt>
      <trkpt lat="42.93868" lon="0.85158">
        <ele>1113.34</ele>
        <time>2022-04-10T08:31:24Z</time>
      </trkpt>
      <trkpt lat="42.93863" lon="0.85148">
        <ele>1114.79</ele>
        <time>2022-04-10T08:31:36Z</time>
      </trkpt>
      <trkpt lat="42.93857" lon="0.85139">
        <ele>1116.23</ele>
        <time>2022-04-10T08:31:51Z</time>
      </trkpt>
      <trkpt lat="42.93849" lon="0.85132">
        <ele>1118.15</ele>
        <time>2022-04-10T08:32:03Z</time>
      </trkpt>
      <trkpt lat="42.93842" lon="0.85126">
        <ele>1120.07</ele>
        <time>2022-04-10T08:32:14Z</time>
      </trkpt>
      <trkpt lat="42.93833" lon="0.85115">
        <ele>1121.52</ele>
        <time>2022-04-10T08:32:26Z</time>
      </trkpt>
      <trkpt lat="42.93826" lon="0.85109">
        <ele>1122.96</ele>
        <time>2022-04-10T08:32:36Z</time>
      </trkpt>
      <trkpt lat="42.93824" lon="0.85107">
        <ele>1123.44</ele>
        <time>2022-04-10T08:32:39Z</time>
      </trkpt>
      <trkpt lat="42.93818" lon="0.85098">
        <ele>1124.4</ele>
        <time>2022-04-10T08:32:50Z</time>
      </trkpt>
      <trkpt lat="42.93811" lon="0.85089">
        <ele>1125.36</ele>
        <time>2022-04-10T08:33:01Z</time>
      </trkpt>
      <trkpt lat="42.93802" lon="0.85085">
        <ele>1126.8</ele>
        <time>2022-04-10T08:33:14Z</time>
      </trkpt>
      <trkpt lat="42.93789" lon="0.8508">
        <ele>1127.76</ele>
        <time>2022-04-10T08:33:26Z</time>
      </trkpt>
      <trkpt lat="42.93779" lon="0.85077">
        <ele>1129.21</ele>
        <time>2022-04-10T08:33:37Z</time>
      </trkpt>
      <trkpt lat="42.93769" lon="0.85074">
        <ele>1130.65</ele>
        <time>2022-04-10T08:33:48Z</time>
      </trkpt>
      <trkpt lat="42.93759" lon="0.8507">
        <ele>1132.09</ele>
        <time>2022-04-10T08:34:00Z</time>
      </trkpt>
      <trkpt lat="42.9375" lon="0.85062">
        <ele>1133.53</ele>
        <time>2022-04-10T08:34:11Z</time>
      </trkpt>
      <trkpt lat="42.93738" lon="0.85059">
        <ele>1135.45</ele>
        <time>2022-04-10T08:34:24Z</time>
      </trkpt>
      <trkpt lat="42.9373" lon="0.85054">
        <ele>1136.9</ele>
        <time>2022-04-10T08:34:35Z</time>
      </trkpt>
      <trkpt lat="42.93726" lon="0.8505">
        <ele>1138.82</ele>
        <time>2022-04-10T08:34:40Z</time>
      </trkpt>
      <trkpt lat="42.93719" lon="0.85044">
        <ele>1139.3</ele>
        <time>2022-04-10T08:34:52Z</time>
      </trkpt>
      <trkpt lat="42.93716" lon="0.85039">
        <ele>1139.78</ele>
        <time>2022-04-10T08:35:04Z</time>
      </trkpt>
      <trkpt lat="42.93712" lon="0.85031">
        <ele>1140.74</ele>
        <time>2022-04-10T08:35:14Z</time>
      </trkpt>
      <trkpt lat="42.93711" lon="0.85024">
        <ele>1140.74</ele>
        <time>2022-04-10T08:35:20Z</time>
      </trkpt>
      <trkpt lat="42.93709" lon="0.85018">
        <ele>1143.63</ele>
        <time>2022-04-10T08:35:24Z</time>
      </trkpt>
      <trkpt lat="42.93704" lon="0.85006">
        <ele>1143.63</ele>
        <time>2022-04-10T08:35:33Z</time>
      </trkpt>
      <trkpt lat="42.93701" lon="0.84998">
        <ele>1145.55</ele>
        <time>2022-04-10T08:35:43Z</time>
      </trkpt>
      <trkpt lat="42.93696" lon="0.84994">
        <ele>1148.43</ele>
        <time>2022-04-10T08:35:54Z</time>
      </trkpt>
      <trkpt lat="42.93692" lon="0.84992">
        <ele>1150.35</ele>
        <time>2022-04-10T08:36:06Z</time>
      </trkpt>
      <trkpt lat="42.93687" lon="0.84991">
        <ele>1152.76</ele>
        <time>2022-04-10T08:36:17Z</time>
      </trkpt>
      <trkpt lat="42.93679" lon="0.84989">
        <ele>1154.68</ele>
        <time>2022-04-10T08:36:28Z</time>
      </trkpt>
      <trkpt lat="42.93672" lon="0.84985">
        <ele>1156.6</ele>
        <time>2022-04-10T08:36:39Z</time>
      </trkpt>
      <trkpt lat="42.93667" lon="0.84982">
        <ele>1159.01</ele>
        <time>2022-04-10T08:36:50Z</time>
      </trkpt>
      <trkpt lat="42.93659" lon="0.84981">
        <ele>1160.93</ele>
        <time>2022-04-10T08:37:02Z</time>
      </trkpt>
      <trkpt lat="42.93647" lon="0.84977">
        <ele>1163.33</ele>
        <time>2022-04-10T08:37:14Z</time>
      </trkpt>
      <trkpt lat="42.93641" lon="0.84975">
        <ele>1165.26</ele>
        <time>2022-04-10T08:37:26Z</time>
      </trkpt>
      <trkpt lat="42.93636" lon="0.84969">
        <ele>1167.66</ele>
        <time>2022-04-10T08:37:39Z</time>
      </trkpt>
      <trkpt lat="42.9363" lon="0.84969">
        <ele>1169.58</ele>
        <time>2022-04-10T08:37:52Z</time>
      </trkpt>
      <trkpt lat="42.93626" lon="0.84968">
        <ele>1171.5</ele>
        <time>2022-04-10T08:38:02Z</time>
      </trkpt>
      <trkpt lat="42.93619" lon="0.84966">
        <ele>1173.91</ele>
        <time>2022-04-10T08:38:13Z</time>
      </trkpt>
      <trkpt lat="42.93613" lon="0.84962">
        <ele>1175.35</ele>
        <time>2022-04-10T08:38:25Z</time>
      </trkpt>
      <trkpt lat="42.93604" lon="0.84951">
        <ele>1177.75</ele>
        <time>2022-04-10T08:38:36Z</time>
      </trkpt>
      <trkpt lat="42.93599" lon="0.84941">
        <ele>1179.19</ele>
        <time>2022-04-10T08:38:47Z</time>
      </trkpt>
      <trkpt lat="42.93595" lon="0.84933">
        <ele>1180.64</ele>
        <time>2022-04-10T08:38:57Z</time>
      </trkpt>
      <trkpt lat="42.9359" lon="0.84922">
        <ele>1181.6</ele>
        <time>2022-04-10T08:39:11Z</time>
      </trkpt>
      <trkpt lat="42.93587" lon="0.84911">
        <ele>1183.04</ele>
        <time>2022-04-10T08:39:23Z</time>
      </trkpt>
      <trkpt lat="42.93586" lon="0.84898">
        <ele>1184.48</ele>
        <time>2022-04-10T08:39:34Z</time>
      </trkpt>
      <trkpt lat="42.93581" lon="0.84885">
        <ele>1185.92</ele>
        <time>2022-04-10T08:39:46Z</time>
      </trkpt>
      <trkpt lat="42.93577" lon="0.84877">
        <ele>1186.4</ele>
        <time>2022-04-10T08:39:55Z</time>
      </trkpt>
      <trkpt lat="42.93567" lon="0.84862">
        <ele>1188.81</ele>
        <time>2022-04-10T08:40:07Z</time>
      </trkpt>
      <trkpt lat="42.9356" lon="0.8485">
        <ele>1190.73</ele>
        <time>2022-04-10T08:40:20Z</time>
      </trkpt>
      <trkpt lat="42.93556" lon="0.84841">
        <ele>1193.13</ele>
        <time>2022-04-10T08:40:33Z</time>
      </trkpt>
      <trkpt lat="42.93554" lon="0.84835">
        <ele>1193.61</ele>
        <time>2022-04-10T08:40:40Z</time>
      </trkpt>
      <trkpt lat="42.93551" lon="0.84826">
        <ele>1195.06</ele>
        <time>2022-04-10T08:40:48Z</time>
      </trkpt>
      <trkpt lat="42.93547" lon="0.84811">
        <ele>1196.98</ele>
        <time>2022-04-10T08:41:00Z</time>
      </trkpt>
      <trkpt lat="42.93545" lon="0.84805">
        <ele>1197.46</ele>
        <time>2022-04-10T08:41:10Z</time>
      </trkpt>
      <trkpt lat="42.93543" lon="0.84809">
        <ele>1196.02</ele>
        <time>2022-04-10T08:41:21Z</time>
      </trkpt>
      <trkpt lat="42.93543" lon="0.84816">
        <ele>1195.54</ele>
        <time>2022-04-10T08:41:48Z</time>
      </trkpt>
      <trkpt lat="42.93545" lon="0.84818">
        <ele>1195.54</ele>
        <time>2022-04-10T08:42:11Z</time>
      </trkpt>
      <trkpt lat="42.93542" lon="0.84814">
        <ele>1196.5</ele>
        <time>2022-04-10T08:42:30Z</time>
      </trkpt>
      <trkpt lat="42.93543" lon="0.84813">
        <ele>1197.46</ele>
        <time>2022-04-10T08:42:45Z</time>
      </trkpt>
      <trkpt lat="42.9354" lon="0.84815">
        <ele>1196.02</ele>
        <time>2022-04-10T08:42:54Z</time>
      </trkpt>
      <trkpt lat="42.9354" lon="0.84814">
        <ele>1195.54</ele>
        <time>2022-04-10T08:43:12Z</time>
      </trkpt>
      <trkpt lat="42.93536" lon="0.84816">
        <ele>1196.02</ele>
        <time>2022-04-10T08:43:34Z</time>
      </trkpt>
      <trkpt lat="42.93536" lon="0.84817">
        <ele>1197.46</ele>
        <time>2022-04-10T08:43:43Z</time>
      </trkpt>
      <trkpt lat="42.93535" lon="0.84818">
        <ele>1196.98</ele>
        <time>2022-04-10T08:43:47Z</time>
      </trkpt>
      <trkpt lat="42.93535" lon="0.84816">
        <ele>1195.54</ele>
        <time>2022-04-10T08:43:53Z</time>
      </trkpt>
      <trkpt lat="42.93536" lon="0.84814">
        <ele>1195.54</ele>
        <time>2022-04-10T08:43:58Z</time>
      </trkpt>
      <trkpt lat="42.93536" lon="0.8481">
        <ele>1198.42</ele>
        <time>2022-04-10T08:44:00Z</time>
      </trkpt>
      <trkpt lat="42.93535" lon="0.84809">
        <ele>1196.98</ele>
        <time>2022-04-10T08:44:01Z</time>
      </trkpt>
      <trkpt lat="42.93537" lon="0.84817">
        <ele>1196.98</ele>
        <time>2022-04-10T08:44:16Z</time>
      </trkpt>
      <trkpt lat="42.93537" lon="0.84821">
        <ele>1197.46</ele>
        <time>2022-04-10T08:44:26Z</time>
      </trkpt>
      <trkpt lat="42.93543" lon="0.84813">
        <ele>1197.46</ele>
        <time>2022-04-10T08:44:42Z</time>
      </trkpt>
      <trkpt lat="42.93541" lon="0.84811">
        <ele>1196.98</ele>
        <time>2022-04-10T08:44:56Z</time>
      </trkpt>
      <trkpt lat="42.93541" lon="0.84808">
        <ele>1196.98</ele>
        <time>2022-04-10T08:45:11Z</time>
      </trkpt>
      <trkpt lat="42.93541" lon="0.84811">
        <ele>1196.98</ele>
        <time>2022-04-10T08:45:31Z</time>
      </trkpt>
      <trkpt lat="42.93537" lon="0.84799">
        <ele>1196.98</ele>
        <time>2022-04-10T08:45:40Z</time>
      </trkpt>
      <trkpt lat="42.93536" lon="0.84796">
        <ele>1198.42</ele>
        <time>2022-04-10T08:45:42Z</time>
      </trkpt>
      <trkpt lat="42.93534" lon="0.84791">
        <ele>1198.9</ele>
        <time>2022-04-10T08:45:46Z</time>
      </trkpt>
      <trkpt lat="42.93533" lon="0.84783">
        <ele>1198.9</ele>
        <time>2022-04-10T08:45:52Z</time>
      </trkpt>
      <trkpt lat="42.93529" lon="0.84765">
        <ele>1199.86</ele>
        <time>2022-04-10T08:46:05Z</time>
      </trkpt>
      <trkpt lat="42.93526" lon="0.84751">
        <ele>1200.34</ele>
        <time>2022-04-10T08:46:18Z</time>
      </trkpt>
      <trkpt lat="42.93521" lon="0.84733">
        <ele>1201.3</ele>
        <time>2022-04-10T08:46:32Z</time>
      </trkpt>
      <trkpt lat="42.93515" lon="0.84721">
        <ele>1202.27</ele>
        <time>2022-04-10T08:46:42Z</time>
      </trkpt>
      <trkpt lat="42.9351" lon="0.84704">
        <ele>1203.23</ele>
        <time>2022-04-10T08:46:57Z</time>
      </trkpt>
      <trkpt lat="42.93503" lon="0.84692">
        <ele>1203.71</ele>
        <time>2022-04-10T08:47:08Z</time>
      </trkpt>
      <trkpt lat="42.93496" lon="0.84671">
        <ele>1205.15</ele>
        <time>2022-04-10T08:47:24Z</time>
      </trkpt>
      <trkpt lat="42.93492" lon="0.84657">
        <ele>1205.63</ele>
        <time>2022-04-10T08:47:35Z</time>
      </trkpt>
      <trkpt lat="42.93485" lon="0.84643">
        <ele>1207.55</ele>
        <time>2022-04-10T08:47:49Z</time>
      </trkpt>
      <trkpt lat="42.93479" lon="0.8463">
        <ele>1209</ele>
        <time>2022-04-10T08:48:01Z</time>
      </trkpt>
      <trkpt lat="42.93469" lon="0.8462">
        <ele>1210.44</ele>
        <time>2022-04-10T08:48:16Z</time>
      </trkpt>
      <trkpt lat="42.93456" lon="0.8461">
        <ele>1210.92</ele>
        <time>2022-04-10T08:48:30Z</time>
      </trkpt>
      <trkpt lat="42.93442" lon="0.84603">
        <ele>1210.92</ele>
        <time>2022-04-10T08:48:43Z</time>
      </trkpt>
      <trkpt lat="42.93429" lon="0.84602">
        <ele>1211.4</ele>
        <time>2022-04-10T08:48:55Z</time>
      </trkpt>
      <trkpt lat="42.93416" lon="0.84595">
        <ele>1212.36</ele>
        <time>2022-04-10T08:49:09Z</time>
      </trkpt>
      <trkpt lat="42.93415" lon="0.84594">
        <ele>1212.36</ele>
        <time>2022-04-10T08:49:10Z</time>
      </trkpt>
      <trkpt lat="42.93401" lon="0.84575">
        <ele>1212.84</ele>
        <time>2022-04-10T08:49:26Z</time>
      </trkpt>
      <trkpt lat="42.93395" lon="0.84563">
        <ele>1212.84</ele>
        <time>2022-04-10T08:49:36Z</time>
      </trkpt>
      <trkpt lat="42.93388" lon="0.84544">
        <ele>1211.88</ele>
        <time>2022-04-10T08:49:48Z</time>
      </trkpt>
      <trkpt lat="42.93385" lon="0.84529">
        <ele>1210.92</ele>
        <time>2022-04-10T08:50:03Z</time>
      </trkpt>
      <trkpt lat="42.93381" lon="0.84513">
        <ele>1210.92</ele>
        <time>2022-04-10T08:50:17Z</time>
      </trkpt>
      <trkpt lat="42.93374" lon="0.84498">
        <ele>1210.44</ele>
        <time>2022-04-10T08:50:30Z</time>
      </trkpt>
      <trkpt lat="42.93368" lon="0.84486">
        <ele>1209.48</ele>
        <time>2022-04-10T08:50:42Z</time>
      </trkpt>
      <trkpt lat="42.9336" lon="0.84472">
        <ele>1207.55</ele>
        <time>2022-04-10T08:50:55Z</time>
      </trkpt>
      <trkpt lat="42.93351" lon="0.84455">
        <ele>1206.11</ele>
        <time>2022-04-10T08:51:08Z</time>
      </trkpt>
      <trkpt lat="42.93344" lon="0.8444">
        <ele>1205.15</ele>
        <time>2022-04-10T08:51:20Z</time>
      </trkpt>
      <trkpt lat="42.93337" lon="0.84428">
        <ele>1204.19</ele>
        <time>2022-04-10T08:51:31Z</time>
      </trkpt>
      <trkpt lat="42.93323" lon="0.84409">
        <ele>1202.75</ele>
        <time>2022-04-10T08:51:45Z</time>
      </trkpt>
      <trkpt lat="42.93311" lon="0.844">
        <ele>1201.79</ele>
        <time>2022-04-10T08:51:57Z</time>
      </trkpt>
      <trkpt lat="42.93299" lon="0.84393">
        <ele>1200.82</ele>
        <time>2022-04-10T08:52:10Z</time>
      </trkpt>
      <trkpt lat="42.93286" lon="0.84383">
        <ele>1200.82</ele>
        <time>2022-04-10T08:52:24Z</time>
      </trkpt>
      <trkpt lat="42.93277" lon="0.84374">
        <ele>1199.38</ele>
        <time>2022-04-10T08:52:35Z</time>
      </trkpt>
      <trkpt lat="42.93265" lon="0.84365">
        <ele>1197.46</ele>
        <time>2022-04-10T08:52:50Z</time>
      </trkpt>
      <trkpt lat="42.93251" lon="0.84357">
        <ele>1196.98</ele>
        <time>2022-04-10T08:53:04Z</time>
      </trkpt>
      <trkpt lat="42.93239" lon="0.84342">
        <ele>1197.94</ele>
        <time>2022-04-10T08:53:18Z</time>
      </trkpt>
      <trkpt lat="42.93227" lon="0.84327">
        <ele>1197.94</ele>
        <time>2022-04-10T08:53:31Z</time>
      </trkpt>
      <trkpt lat="42.93216" lon="0.84313">
        <ele>1197.94</ele>
        <time>2022-04-10T08:53:43Z</time>
      </trkpt>
      <trkpt lat="42.9321" lon="0.843">
        <ele>1196.02</ele>
        <time>2022-04-10T08:53:54Z</time>
      </trkpt>
      <trkpt lat="42.93202" lon="0.84287">
        <ele>1194.58</ele>
        <time>2022-04-10T08:54:06Z</time>
      </trkpt>
      <trkpt lat="42.93192" lon="0.84269">
        <ele>1193.61</ele>
        <time>2022-04-10T08:54:19Z</time>
      </trkpt>
      <trkpt lat="42.93185" lon="0.84255">
        <ele>1192.65</ele>
        <time>2022-04-10T08:54:33Z</time>
      </trkpt>
      <trkpt lat="42.9317" lon="0.84244">
        <ele>1192.17</ele>
        <time>2022-04-10T08:54:48Z</time>
      </trkpt>
      <trkpt lat="42.93165" lon="0.84242">
        <ele>1191.69</ele>
        <time>2022-04-10T08:54:52Z</time>
      </trkpt>
      <trkpt lat="42.93153" lon="0.84242">
        <ele>1192.17</ele>
        <time>2022-04-10T08:55:03Z</time>
      </trkpt>
      <trkpt lat="42.93144" lon="0.84241">
        <ele>1194.58</ele>
        <time>2022-04-10T08:55:14Z</time>
      </trkpt>
      <trkpt lat="42.93136" lon="0.8424">
        <ele>1196.02</ele>
        <time>2022-04-10T08:55:25Z</time>
      </trkpt>
      <trkpt lat="42.93126" lon="0.84241">
        <ele>1198.42</ele>
        <time>2022-04-10T08:55:38Z</time>
      </trkpt>
      <trkpt lat="42.93121" lon="0.8424">
        <ele>1200.34</ele>
        <time>2022-04-10T08:55:47Z</time>
      </trkpt>
      <trkpt lat="42.93115" lon="0.84238">
        <ele>1202.27</ele>
        <time>2022-04-10T08:55:59Z</time>
      </trkpt>
      <trkpt lat="42.93109" lon="0.84237">
        <ele>1204.67</ele>
        <time>2022-04-10T08:56:09Z</time>
      </trkpt>
      <trkpt lat="42.93105" lon="0.84231">
        <ele>1206.11</ele>
        <time>2022-04-10T08:56:20Z</time>
      </trkpt>
      <trkpt lat="42.93098" lon="0.84223">
        <ele>1209.48</ele>
        <time>2022-04-10T08:56:32Z</time>
      </trkpt>
      <trkpt lat="42.93098" lon="0.84221">
        <ele>1209.48</ele>
        <time>2022-04-10T08:56:34Z</time>
      </trkpt>
      <trkpt lat="42.93096" lon="0.84209">
        <ele>1210.44</ele>
        <time>2022-04-10T08:56:47Z</time>
      </trkpt>
      <trkpt lat="42.93095" lon="0.84204">
        <ele>1211.88</ele>
        <time>2022-04-10T08:56:58Z</time>
      </trkpt>
      <trkpt lat="42.93092" lon="0.84197">
        <ele>1214.28</ele>
        <time>2022-04-10T08:57:10Z</time>
      </trkpt>
      <trkpt lat="42.93092" lon="0.84191">
        <ele>1216.21</ele>
        <time>2022-04-10T08:57:21Z</time>
      </trkpt>
      <trkpt lat="42.93088" lon="0.84182">
        <ele>1218.13</ele>
        <time>2022-04-10T08:57:32Z</time>
      </trkpt>
      <trkpt lat="42.93083" lon="0.84176">
        <ele>1219.57</ele>
        <time>2022-04-10T08:57:42Z</time>
      </trkpt>
      <trkpt lat="42.93078" lon="0.8417">
        <ele>1221.01</ele>
        <time>2022-04-10T08:57:53Z</time>
      </trkpt>
      <trkpt lat="42.93076" lon="0.84167">
        <ele>1221.49</ele>
        <time>2022-04-10T08:57:58Z</time>
      </trkpt>
      <trkpt lat="42.93078" lon="0.84169">
        <ele>1221.49</ele>
        <time>2022-04-10T08:58:06Z</time>
      </trkpt>
      <trkpt lat="42.9307" lon="0.84173">
        <ele>1223.42</ele>
        <time>2022-04-10T08:58:31Z</time>
      </trkpt>
      <trkpt lat="42.93069" lon="0.84175">
        <ele>1223.42</ele>
        <time>2022-04-10T08:58:32Z</time>
      </trkpt>
      <trkpt lat="42.93066" lon="0.84184">
        <ele>1225.34</ele>
        <time>2022-04-10T08:58:45Z</time>
      </trkpt>
      <trkpt lat="42.9306" lon="0.84196">
        <ele>1227.74</ele>
        <time>2022-04-10T08:58:59Z</time>
      </trkpt>
      <trkpt lat="42.93056" lon="0.84204">
        <ele>1229.66</ele>
        <time>2022-04-10T08:59:11Z</time>
      </trkpt>
      <trkpt lat="42.93052" lon="0.84212">
        <ele>1231.59</ele>
        <time>2022-04-10T08:59:21Z</time>
      </trkpt>
      <trkpt lat="42.93047" lon="0.84214">
        <ele>1233.03</ele>
        <time>2022-04-10T08:59:31Z</time>
      </trkpt>
      <trkpt lat="42.93038" lon="0.84211">
        <ele>1235.43</ele>
        <time>2022-04-10T08:59:45Z</time>
      </trkpt>
      <trkpt lat="42.93031" lon="0.84207">
        <ele>1237.35</ele>
        <time>2022-04-10T08:59:57Z</time>
      </trkpt>
      <trkpt lat="42.93023" lon="0.84203">
        <ele>1239.28</ele>
        <time>2022-04-10T09:00:07Z</time>
      </trkpt>
      <trkpt lat="42.93017" lon="0.842">
        <ele>1241.68</ele>
        <time>2022-04-10T09:00:20Z</time>
      </trkpt>
      <trkpt lat="42.93011" lon="0.84196">
        <ele>1243.6</ele>
        <time>2022-04-10T09:00:31Z</time>
      </trkpt>
      <trkpt lat="42.93006" lon="0.84192">
        <ele>1245.53</ele>
        <time>2022-04-10T09:00:43Z</time>
      </trkpt>
      <trkpt lat="42.93002" lon="0.84187">
        <ele>1247.45</ele>
        <time>2022-04-10T09:00:54Z</time>
      </trkpt>
      <trkpt lat="42.92998" lon="0.84183">
        <ele>1248.89</ele>
        <time>2022-04-10T09:01:05Z</time>
      </trkpt>
      <trkpt lat="42.92991" lon="0.84177">
        <ele>1251.77</ele>
        <time>2022-04-10T09:01:21Z</time>
      </trkpt>
      <trkpt lat="42.92987" lon="0.84172">
        <ele>1254.18</ele>
        <time>2022-04-10T09:01:34Z</time>
      </trkpt>
      <trkpt lat="42.92981" lon="0.84168">
        <ele>1255.62</ele>
        <time>2022-04-10T09:01:46Z</time>
      </trkpt>
      <trkpt lat="42.92976" lon="0.84166">
        <ele>1258.02</ele>
        <time>2022-04-10T09:01:57Z</time>
      </trkpt>
      <trkpt lat="42.92971" lon="0.84162">
        <ele>1259.46</ele>
        <time>2022-04-10T09:02:07Z</time>
      </trkpt>
      <trkpt lat="42.92968" lon="0.84161">
        <ele>1260.43</ele>
        <time>2022-04-10T09:02:12Z</time>
      </trkpt>
      <trkpt lat="42.9296" lon="0.84161">
        <ele>1262.35</ele>
        <time>2022-04-10T09:02:24Z</time>
      </trkpt>
      <trkpt lat="42.92955" lon="0.84164">
        <ele>1263.31</ele>
        <time>2022-04-10T09:02:35Z</time>
      </trkpt>
      <trkpt lat="42.92948" lon="0.84163">
        <ele>1264.75</ele>
        <time>2022-04-10T09:02:47Z</time>
      </trkpt>
      <trkpt lat="42.92941" lon="0.84163">
        <ele>1266.67</ele>
        <time>2022-04-10T09:02:58Z</time>
      </trkpt>
      <trkpt lat="42.92935" lon="0.84164">
        <ele>1268.12</ele>
        <time>2022-04-10T09:03:08Z</time>
      </trkpt>
      <trkpt lat="42.92929" lon="0.84162">
        <ele>1270.04</ele>
        <time>2022-04-10T09:03:19Z</time>
      </trkpt>
      <trkpt lat="42.92922" lon="0.84161">
        <ele>1271.48</ele>
        <time>2022-04-10T09:03:30Z</time>
      </trkpt>
      <trkpt lat="42.92913" lon="0.84161">
        <ele>1273.88</ele>
        <time>2022-04-10T09:03:43Z</time>
      </trkpt>
      <trkpt lat="42.92907" lon="0.8416">
        <ele>1275.33</ele>
        <time>2022-04-10T09:03:54Z</time>
      </trkpt>
      <trkpt lat="42.92901" lon="0.8416">
        <ele>1276.77</ele>
        <time>2022-04-10T09:04:04Z</time>
      </trkpt>
      <trkpt lat="42.92895" lon="0.8416">
        <ele>1279.17</ele>
        <time>2022-04-10T09:04:16Z</time>
      </trkpt>
      <trkpt lat="42.92889" lon="0.8416">
        <ele>1280.61</ele>
        <time>2022-04-10T09:04:26Z</time>
      </trkpt>
      <trkpt lat="42.92883" lon="0.84161">
        <ele>1282.54</ele>
        <time>2022-04-10T09:04:36Z</time>
      </trkpt>
      <trkpt lat="42.92877" lon="0.84161">
        <ele>1283.98</ele>
        <time>2022-04-10T09:04:47Z</time>
      </trkpt>
      <trkpt lat="42.9287" lon="0.84159">
        <ele>1285.9</ele>
        <time>2022-04-10T09:04:59Z</time>
      </trkpt>
      <trkpt lat="42.92864" lon="0.84158">
        <ele>1287.34</ele>
        <time>2022-04-10T09:05:09Z</time>
      </trkpt>
      <trkpt lat="42.92859" lon="0.84157">
        <ele>1289.27</ele>
        <time>2022-04-10T09:05:20Z</time>
      </trkpt>
      <trkpt lat="42.92852" lon="0.84157">
        <ele>1290.23</ele>
        <time>2022-04-10T09:05:30Z</time>
      </trkpt>
      <trkpt lat="42.92845" lon="0.84156">
        <ele>1292.15</ele>
        <time>2022-04-10T09:05:41Z</time>
      </trkpt>
      <trkpt lat="42.92838" lon="0.84152">
        <ele>1293.59</ele>
        <time>2022-04-10T09:05:53Z</time>
      </trkpt>
      <trkpt lat="42.92831" lon="0.84147">
        <ele>1295.03</ele>
        <time>2022-04-10T09:06:05Z</time>
      </trkpt>
      <trkpt lat="42.92824" lon="0.84143">
        <ele>1296.48</ele>
        <time>2022-04-10T09:06:16Z</time>
      </trkpt>
      <trkpt lat="42.92828" lon="0.84145">
        <ele>1296.48</ele>
        <time>2022-04-10T09:06:35Z</time>
      </trkpt>
      <trkpt lat="42.92827" lon="0.84144">
        <ele>1296.48</ele>
        <time>2022-04-10T09:07:02Z</time>
      </trkpt>
      <trkpt lat="42.92826" lon="0.84137">
        <ele>1296.48</ele>
        <time>2022-04-10T09:07:24Z</time>
      </trkpt>
      <trkpt lat="42.92827" lon="0.84137">
        <ele>1296.96</ele>
        <time>2022-04-10T09:07:43Z</time>
      </trkpt>
      <trkpt lat="42.92829" lon="0.84138">
        <ele>1296.96</ele>
        <time>2022-04-10T09:08:01Z</time>
      </trkpt>
      <trkpt lat="42.92831" lon="0.84137">
        <ele>1297.44</ele>
        <time>2022-04-10T09:08:16Z</time>
      </trkpt>
      <trkpt lat="42.92822" lon="0.84133">
        <ele>1297.92</ele>
        <time>2022-04-10T09:08:45Z</time>
      </trkpt>
      <trkpt lat="42.92814" lon="0.8413">
        <ele>1300.8</ele>
        <time>2022-04-10T09:08:55Z</time>
      </trkpt>
      <trkpt lat="42.92805" lon="0.84125">
        <ele>1302.72</ele>
        <time>2022-04-10T09:09:06Z</time>
      </trkpt>
      <trkpt lat="42.92798" lon="0.84122">
        <ele>1303.69</ele>
        <time>2022-04-10T09:09:18Z</time>
      </trkpt>
      <trkpt lat="42.92789" lon="0.84117">
        <ele>1305.13</ele>
        <time>2022-04-10T09:09:29Z</time>
      </trkpt>
      <trkpt lat="42.92784" lon="0.84115">
        <ele>1306.09</ele>
        <time>2022-04-10T09:09:33Z</time>
      </trkpt>
      <trkpt lat="42.92781" lon="0.84113">
        <ele>1306.09</ele>
        <time>2022-04-10T09:09:36Z</time>
      </trkpt>
      <trkpt lat="42.92779" lon="0.84112">
        <ele>1307.53</ele>
        <time>2022-04-10T09:09:39Z</time>
      </trkpt>
      <trkpt lat="42.92773" lon="0.84109">
        <ele>1308.01</ele>
        <time>2022-04-10T09:09:52Z</time>
      </trkpt>
      <trkpt lat="42.92772" lon="0.84109">
        <ele>1308.97</ele>
        <time>2022-04-10T09:09:54Z</time>
      </trkpt>
      <trkpt lat="42.92765" lon="0.84106">
        <ele>1310.41</ele>
        <time>2022-04-10T09:10:02Z</time>
      </trkpt>
      <trkpt lat="42.92754" lon="0.84098">
        <ele>1310.9</ele>
        <time>2022-04-10T09:10:12Z</time>
      </trkpt>
      <trkpt lat="42.92743" lon="0.84095">
        <ele>1313.3</ele>
        <time>2022-04-10T09:10:25Z</time>
      </trkpt>
      <trkpt lat="42.92734" lon="0.84094">
        <ele>1314.74</ele>
        <time>2022-04-10T09:10:39Z</time>
      </trkpt>
      <trkpt lat="42.92726" lon="0.84095">
        <ele>1316.18</ele>
        <time>2022-04-10T09:10:50Z</time>
      </trkpt>
      <trkpt lat="42.9272" lon="0.84095">
        <ele>1318.1</ele>
        <time>2022-04-10T09:11:01Z</time>
      </trkpt>
      <trkpt lat="42.92712" lon="0.84095">
        <ele>1320.03</ele>
        <time>2022-04-10T09:11:14Z</time>
      </trkpt>
      <trkpt lat="42.92706" lon="0.84095">
        <ele>1322.91</ele>
        <time>2022-04-10T09:11:29Z</time>
      </trkpt>
      <trkpt lat="42.92696" lon="0.84093">
        <ele>1324.83</ele>
        <time>2022-04-10T09:11:43Z</time>
      </trkpt>
      <trkpt lat="42.92688" lon="0.84093">
        <ele>1326.28</ele>
        <time>2022-04-10T09:11:55Z</time>
      </trkpt>
      <trkpt lat="42.9268" lon="0.84095">
        <ele>1327.72</ele>
        <time>2022-04-10T09:12:08Z</time>
      </trkpt>
      <trkpt lat="42.92671" lon="0.84095">
        <ele>1329.64</ele>
        <time>2022-04-10T09:12:21Z</time>
      </trkpt>
      <trkpt lat="42.92667" lon="0.84095">
        <ele>1330.6</ele>
        <time>2022-04-10T09:12:31Z</time>
      </trkpt>
      <trkpt lat="42.92667" lon="0.8409">
        <ele>1330.6</ele>
        <time>2022-04-10T09:12:43Z</time>
      </trkpt>
      <trkpt lat="42.92664" lon="0.84089">
        <ele>1331.56</ele>
        <time>2022-04-10T09:12:57Z</time>
      </trkpt>
      <trkpt lat="42.92655" lon="0.84093">
        <ele>1333.01</ele>
        <time>2022-04-10T09:13:08Z</time>
      </trkpt>
      <trkpt lat="42.92646" lon="0.84094">
        <ele>1333.97</ele>
        <time>2022-04-10T09:13:18Z</time>
      </trkpt>
      <trkpt lat="42.92637" lon="0.84096">
        <ele>1335.89</ele>
        <time>2022-04-10T09:13:29Z</time>
      </trkpt>
      <trkpt lat="42.92629" lon="0.84098">
        <ele>1337.33</ele>
        <time>2022-04-10T09:13:41Z</time>
      </trkpt>
      <trkpt lat="42.92624" lon="0.84099">
        <ele>1339.25</ele>
        <time>2022-04-10T09:13:52Z</time>
      </trkpt>
      <trkpt lat="42.92614" lon="0.84097">
        <ele>1341.66</ele>
        <time>2022-04-10T09:14:05Z</time>
      </trkpt>
      <trkpt lat="42.92608" lon="0.84098">
        <ele>1343.1</ele>
        <time>2022-04-10T09:14:17Z</time>
      </trkpt>
      <trkpt lat="42.92602" lon="0.84097">
        <ele>1345.5</ele>
        <time>2022-04-10T09:14:30Z</time>
      </trkpt>
      <trkpt lat="42.92595" lon="0.84096">
        <ele>1346.94</ele>
        <time>2022-04-10T09:14:41Z</time>
      </trkpt>
      <trkpt lat="42.92588" lon="0.84093">
        <ele>1348.39</ele>
        <time>2022-04-10T09:14:53Z</time>
      </trkpt>
      <trkpt lat="42.92581" lon="0.8409">
        <ele>1350.31</ele>
        <time>2022-04-10T09:15:05Z</time>
      </trkpt>
      <trkpt lat="42.9258" lon="0.84087">
        <ele>1351.75</ele>
        <time>2022-04-10T09:15:09Z</time>
      </trkpt>
      <trkpt lat="42.92582" lon="0.84091">
        <ele>1349.83</ele>
        <time>2022-04-10T09:15:21Z</time>
      </trkpt>
      <trkpt lat="42.92581" lon="0.84092">
        <ele>1351.27</ele>
        <time>2022-04-10T09:15:27Z</time>
      </trkpt>
      <trkpt lat="42.92581" lon="0.84093">
        <ele>1349.83</ele>
        <time>2022-04-10T09:15:29Z</time>
      </trkpt>
      <trkpt lat="42.92578" lon="0.84094">
        <ele>1351.27</ele>
        <time>2022-04-10T09:15:35Z</time>
      </trkpt>
      <trkpt lat="42.92574" lon="0.84099">
        <ele>1353.19</ele>
        <time>2022-04-10T09:15:46Z</time>
      </trkpt>
      <trkpt lat="42.92572" lon="0.84105">
        <ele>1355.6</ele>
        <time>2022-04-10T09:15:57Z</time>
      </trkpt>
      <trkpt lat="42.92571" lon="0.84114">
        <ele>1357.52</ele>
        <time>2022-04-10T09:16:09Z</time>
      </trkpt>
      <trkpt lat="42.92575" lon="0.84113">
        <ele>1358.48</ele>
        <time>2022-04-10T09:16:22Z</time>
      </trkpt>
      <trkpt lat="42.92574" lon="0.84114">
        <ele>1358.96</ele>
        <time>2022-04-10T09:16:37Z</time>
      </trkpt>
      <trkpt lat="42.92574" lon="0.84125">
        <ele>1360.4</ele>
        <time>2022-04-10T09:16:50Z</time>
      </trkpt>
      <trkpt lat="42.92577" lon="0.84139">
        <ele>1360.88</ele>
        <time>2022-04-10T09:17:04Z</time>
      </trkpt>
      <trkpt lat="42.9258" lon="0.8414">
        <ele>1361.36</ele>
        <time>2022-04-10T09:17:13Z</time>
      </trkpt>
      <trkpt lat="42.92582" lon="0.84138">
        <ele>1361.36</ele>
        <time>2022-04-10T09:17:30Z</time>
      </trkpt>
      <trkpt lat="42.92582" lon="0.84139">
        <ele>1359.92</ele>
        <time>2022-04-10T09:17:32Z</time>
      </trkpt>
      <trkpt lat="42.9258" lon="0.84151">
        <ele>1362.33</ele>
        <time>2022-04-10T09:17:48Z</time>
      </trkpt>
      <trkpt lat="42.92585" lon="0.84162">
        <ele>1363.77</ele>
        <time>2022-04-10T09:18:02Z</time>
      </trkpt>
      <trkpt lat="42.92587" lon="0.84172">
        <ele>1364.73</ele>
        <time>2022-04-10T09:18:14Z</time>
      </trkpt>
      <trkpt lat="42.9259" lon="0.84184">
        <ele>1366.65</ele>
        <time>2022-04-10T09:18:28Z</time>
      </trkpt>
      <trkpt lat="42.92592" lon="0.84194">
        <ele>1367.61</ele>
        <time>2022-04-10T09:18:40Z</time>
      </trkpt>
      <trkpt lat="42.92593" lon="0.84205">
        <ele>1369.05</ele>
        <time>2022-04-10T09:18:54Z</time>
      </trkpt>
      <trkpt lat="42.92595" lon="0.84215">
        <ele>1370.02</ele>
        <time>2022-04-10T09:19:06Z</time>
      </trkpt>
      <trkpt lat="42.92593" lon="0.84224">
        <ele>1371.46</ele>
        <time>2022-04-10T09:19:18Z</time>
      </trkpt>
      <trkpt lat="42.92591" lon="0.84236">
        <ele>1373.38</ele>
        <time>2022-04-10T09:19:29Z</time>
      </trkpt>
      <trkpt lat="42.92592" lon="0.84243">
        <ele>1374.82</ele>
        <time>2022-04-10T09:19:38Z</time>
      </trkpt>
      <trkpt lat="42.92596" lon="0.84246">
        <ele>1375.3</ele>
        <time>2022-04-10T09:19:50Z</time>
      </trkpt>
      <trkpt lat="42.92598" lon="0.84254">
        <ele>1375.78</ele>
        <time>2022-04-10T09:20:07Z</time>
      </trkpt>
      <trkpt lat="42.92596" lon="0.84265">
        <ele>1377.71</ele>
        <time>2022-04-10T09:20:17Z</time>
      </trkpt>
      <trkpt lat="42.92595" lon="0.84276">
        <ele>1379.63</ele>
        <time>2022-04-10T09:20:28Z</time>
      </trkpt>
      <trkpt lat="42.92594" lon="0.84289">
        <ele>1382.03</ele>
        <time>2022-04-10T09:20:41Z</time>
      </trkpt>
      <trkpt lat="42.92593" lon="0.84298">
        <ele>1383.47</ele>
        <time>2022-04-10T09:20:52Z</time>
      </trkpt>
      <trkpt lat="42.92591" lon="0.84306">
        <ele>1384.92</ele>
        <time>2022-04-10T09:21:03Z</time>
      </trkpt>
      <trkpt lat="42.92591" lon="0.84312">
        <ele>1385.88</ele>
        <time>2022-04-10T09:21:14Z</time>
      </trkpt>
      <trkpt lat="42.9259" lon="0.84321">
        <ele>1387.8</ele>
        <time>2022-04-10T09:21:26Z</time>
      </trkpt>
      <trkpt lat="42.92591" lon="0.84323">
        <ele>1388.28</ele>
        <time>2022-04-10T09:21:37Z</time>
      </trkpt>
      <trkpt lat="42.92587" lon="0.84331">
        <ele>1389.72</ele>
        <time>2022-04-10T09:21:50Z</time>
      </trkpt>
      <trkpt lat="42.92581" lon="0.84333">
        <ele>1391.65</ele>
        <time>2022-04-10T09:22:02Z</time>
      </trkpt>
      <trkpt lat="42.92578" lon="0.84338">
        <ele>1393.57</ele>
        <time>2022-04-10T09:22:13Z</time>
      </trkpt>
      <trkpt lat="42.92575" lon="0.84347">
        <ele>1395.49</ele>
        <time>2022-04-10T09:22:26Z</time>
      </trkpt>
      <trkpt lat="42.92569" lon="0.8435">
        <ele>1397.41</ele>
        <time>2022-04-10T09:22:39Z</time>
      </trkpt>
      <trkpt lat="42.92566" lon="0.84357">
        <ele>1399.34</ele>
        <time>2022-04-10T09:22:52Z</time>
      </trkpt>
      <trkpt lat="42.92559" lon="0.84355">
        <ele>1400.3</ele>
        <time>2022-04-10T09:23:02Z</time>
      </trkpt>
      <trkpt lat="42.92556" lon="0.84359">
        <ele>1401.74</ele>
        <time>2022-04-10T09:23:11Z</time>
      </trkpt>
      <trkpt lat="42.9255" lon="0.84366">
        <ele>1403.18</ele>
        <time>2022-04-10T09:23:24Z</time>
      </trkpt>
      <trkpt lat="42.92548" lon="0.84369">
        <ele>1404.14</ele>
        <time>2022-04-10T09:23:35Z</time>
      </trkpt>
      <trkpt lat="42.92551" lon="0.84369">
        <ele>1404.62</ele>
        <time>2022-04-10T09:23:43Z</time>
      </trkpt>
      <trkpt lat="42.92551" lon="0.84368">
        <ele>1404.62</ele>
        <time>2022-04-10T09:24:01Z</time>
      </trkpt>
      <trkpt lat="42.92553" lon="0.8437">
        <ele>1404.62</ele>
        <time>2022-04-10T09:24:14Z</time>
      </trkpt>
      <trkpt lat="42.92554" lon="0.84373">
        <ele>1405.1</ele>
        <time>2022-04-10T09:24:31Z</time>
      </trkpt>
      <trkpt lat="42.92555" lon="0.84371">
        <ele>1406.07</ele>
        <time>2022-04-10T09:24:50Z</time>
      </trkpt>
      <trkpt lat="42.92554" lon="0.84363">
        <ele>1405.1</ele>
        <time>2022-04-10T09:25:03Z</time>
      </trkpt>
      <trkpt lat="42.92558" lon="0.84364">
        <ele>1405.1</ele>
        <time>2022-04-10T09:25:24Z</time>
      </trkpt>
      <trkpt lat="42.92559" lon="0.84369">
        <ele>1405.1</ele>
        <time>2022-04-10T09:25:51Z</time>
      </trkpt>
      <trkpt lat="42.92559" lon="0.84372">
        <ele>1407.51</ele>
        <time>2022-04-10T09:26:01Z</time>
      </trkpt>
      <trkpt lat="42.92558" lon="0.84375">
        <ele>1406.07</ele>
        <time>2022-04-10T09:26:03Z</time>
      </trkpt>
      <trkpt lat="42.92552" lon="0.84391">
        <ele>1406.07</ele>
        <time>2022-04-10T09:26:16Z</time>
      </trkpt>
      <trkpt lat="42.92552" lon="0.84397">
        <ele>1406.55</ele>
        <time>2022-04-10T09:26:29Z</time>
      </trkpt>
      <trkpt lat="42.92553" lon="0.84405">
        <ele>1406.55</ele>
        <time>2022-04-10T09:26:43Z</time>
      </trkpt>
      <trkpt lat="42.92553" lon="0.84404">
        <ele>1406.55</ele>
        <time>2022-04-10T09:27:00Z</time>
      </trkpt>
      <trkpt lat="42.9255" lon="0.84405">
        <ele>1407.03</ele>
        <time>2022-04-10T09:27:18Z</time>
      </trkpt>
      <trkpt lat="42.92553" lon="0.84407">
        <ele>1407.03</ele>
        <time>2022-04-10T09:27:37Z</time>
      </trkpt>
      <trkpt lat="42.92551" lon="0.84411">
        <ele>1407.03</ele>
        <time>2022-04-10T09:27:47Z</time>
      </trkpt>
      <trkpt lat="42.92554" lon="0.84413">
        <ele>1407.51</ele>
        <time>2022-04-10T09:28:03Z</time>
      </trkpt>
      <trkpt lat="42.92557" lon="0.84415">
        <ele>1408.95</ele>
        <time>2022-04-10T09:28:07Z</time>
      </trkpt>
      <trkpt lat="42.92564" lon="0.84425">
        <ele>1409.91</ele>
        <time>2022-04-10T09:28:20Z</time>
      </trkpt>
      <trkpt lat="42.92562" lon="0.84433">
        <ele>1410.87</ele>
        <time>2022-04-10T09:28:28Z</time>
      </trkpt>
      <trkpt lat="42.92559" lon="0.84439">
        <ele>1410.39</ele>
        <time>2022-04-10T09:28:39Z</time>
      </trkpt>
      <trkpt lat="42.9256" lon="0.84442">
        <ele>1410.87</ele>
        <time>2022-04-10T09:29:00Z</time>
      </trkpt>
      <trkpt lat="42.9256" lon="0.8444">
        <ele>1411.35</ele>
        <time>2022-04-10T09:29:23Z</time>
      </trkpt>
      <trkpt lat="42.92557" lon="0.84446">
        <ele>1411.35</ele>
        <time>2022-04-10T09:29:34Z</time>
      </trkpt>
      <trkpt lat="42.92556" lon="0.84447">
        <ele>1411.35</ele>
        <time>2022-04-10T09:29:41Z</time>
      </trkpt>
      <trkpt lat="42.92544" lon="0.84457">
        <ele>1411.35</ele>
        <time>2022-04-10T09:29:54Z</time>
      </trkpt>
      <trkpt lat="42.92537" lon="0.84462">
        <ele>1410.87</ele>
        <time>2022-04-10T09:30:04Z</time>
      </trkpt>
      <trkpt lat="42.92531" lon="0.84467">
        <ele>1410.39</ele>
        <time>2022-04-10T09:30:13Z</time>
      </trkpt>
      <trkpt lat="42.92524" lon="0.84475">
        <ele>1409.91</ele>
        <time>2022-04-10T09:30:23Z</time>
      </trkpt>
      <trkpt lat="42.92515" lon="0.84479">
        <ele>1409.43</ele>
        <time>2022-04-10T09:30:35Z</time>
      </trkpt>
      <trkpt lat="42.9251" lon="0.84488">
        <ele>1409.43</ele>
        <time>2022-04-10T09:30:46Z</time>
      </trkpt>
      <trkpt lat="42.92508" lon="0.84492">
        <ele>1409.43</ele>
        <time>2022-04-10T09:30:56Z</time>
      </trkpt>
      <trkpt lat="42.92503" lon="0.84496">
        <ele>1408.95</ele>
        <time>2022-04-10T09:31:06Z</time>
      </trkpt>
      <trkpt lat="42.92499" lon="0.84498">
        <ele>1408.47</ele>
        <time>2022-04-10T09:31:16Z</time>
      </trkpt>
      <trkpt lat="42.92494" lon="0.84499">
        <ele>1408.47</ele>
        <time>2022-04-10T09:31:31Z</time>
      </trkpt>
      <trkpt lat="42.92489" lon="0.84505">
        <ele>1407.51</ele>
        <time>2022-04-10T09:31:40Z</time>
      </trkpt>
      <trkpt lat="42.92486" lon="0.84504">
        <ele>1407.51</ele>
        <time>2022-04-10T09:31:51Z</time>
      </trkpt>
      <trkpt lat="42.92483" lon="0.84498">
        <ele>1407.51</ele>
        <time>2022-04-10T09:32:01Z</time>
      </trkpt>
      <trkpt lat="42.92479" lon="0.84498">
        <ele>1407.51</ele>
        <time>2022-04-10T09:32:10Z</time>
      </trkpt>
      <trkpt lat="42.92472" lon="0.84495">
        <ele>1407.51</ele>
        <time>2022-04-10T09:32:23Z</time>
      </trkpt>
      <trkpt lat="42.92465" lon="0.84492">
        <ele>1407.51</ele>
        <time>2022-04-10T09:32:35Z</time>
      </trkpt>
      <trkpt lat="42.92463" lon="0.84491">
        <ele>1408.95</ele>
        <time>2022-04-10T09:32:38Z</time>
      </trkpt>
      <trkpt lat="42.92461" lon="0.84485">
        <ele>1410.39</ele>
        <time>2022-04-10T09:32:49Z</time>
      </trkpt>
      <trkpt lat="42.92454" lon="0.84482">
        <ele>1411.35</ele>
        <time>2022-04-10T09:33:00Z</time>
      </trkpt>
      <trkpt lat="42.92447" lon="0.84482">
        <ele>1411.35</ele>
        <time>2022-04-10T09:33:11Z</time>
      </trkpt>
      <trkpt lat="42.92443" lon="0.84479">
        <ele>1411.35</ele>
        <time>2022-04-10T09:33:22Z</time>
      </trkpt>
      <trkpt lat="42.92438" lon="0.84474">
        <ele>1409.91</ele>
        <time>2022-04-10T09:33:30Z</time>
      </trkpt>
      <trkpt lat="42.9243" lon="0.84472">
        <ele>1409.91</ele>
        <time>2022-04-10T09:33:41Z</time>
      </trkpt>
      <trkpt lat="42.92428" lon="0.84469">
        <ele>1411.35</ele>
        <time>2022-04-10T09:33:45Z</time>
      </trkpt>
      <trkpt lat="42.92421" lon="0.84464">
        <ele>1412.79</ele>
        <time>2022-04-10T09:33:55Z</time>
      </trkpt>
      <trkpt lat="42.92415" lon="0.84457">
        <ele>1413.76</ele>
        <time>2022-04-10T09:34:07Z</time>
      </trkpt>
      <trkpt lat="42.92415" lon="0.84454">
        <ele>1416.16</ele>
        <time>2022-04-10T09:34:12Z</time>
      </trkpt>
      <trkpt lat="42.92416" lon="0.84439">
        <ele>1417.6</ele>
        <time>2022-04-10T09:34:25Z</time>
      </trkpt>
      <trkpt lat="42.92413" lon="0.84427">
        <ele>1419.52</ele>
        <time>2022-04-10T09:34:37Z</time>
      </trkpt>
      <trkpt lat="42.92412" lon="0.84417">
        <ele>1421.93</ele>
        <time>2022-04-10T09:34:50Z</time>
      </trkpt>
      <trkpt lat="42.92412" lon="0.84409">
        <ele>1423.85</ele>
        <time>2022-04-10T09:35:03Z</time>
      </trkpt>
      <trkpt lat="42.92412" lon="0.84397">
        <ele>1426.25</ele>
        <time>2022-04-10T09:35:20Z</time>
      </trkpt>
      <trkpt lat="42.92413" lon="0.84387">
        <ele>1428.66</ele>
        <time>2022-04-10T09:35:33Z</time>
      </trkpt>
      <trkpt lat="42.92416" lon="0.84379">
        <ele>1430.58</ele>
        <time>2022-04-10T09:35:47Z</time>
      </trkpt>
      <trkpt lat="42.92419" lon="0.8437">
        <ele>1432.98</ele>
        <time>2022-04-10T09:36:02Z</time>
      </trkpt>
      <trkpt lat="42.92419" lon="0.84364">
        <ele>1435.87</ele>
        <time>2022-04-10T09:36:15Z</time>
      </trkpt>
      <trkpt lat="42.92421" lon="0.84361">
        <ele>1437.79</ele>
        <time>2022-04-10T09:36:26Z</time>
      </trkpt>
      <trkpt lat="42.92419" lon="0.84354">
        <ele>1439.71</ele>
        <time>2022-04-10T09:36:38Z</time>
      </trkpt>
      <trkpt lat="42.92424" lon="0.84347">
        <ele>1441.15</ele>
        <time>2022-04-10T09:36:51Z</time>
      </trkpt>
      <trkpt lat="42.92425" lon="0.84343">
        <ele>1443.08</ele>
        <time>2022-04-10T09:37:02Z</time>
      </trkpt>
      <trkpt lat="42.9242" lon="0.8434">
        <ele>1444.04</ele>
        <time>2022-04-10T09:37:14Z</time>
      </trkpt>
      <trkpt lat="42.92414" lon="0.84335">
        <ele>1445.96</ele>
        <time>2022-04-10T09:37:25Z</time>
      </trkpt>
      <trkpt lat="42.92414" lon="0.84331">
        <ele>1446.92</ele>
        <time>2022-04-10T09:37:35Z</time>
      </trkpt>
      <trkpt lat="42.92414" lon="0.84328">
        <ele>1447.88</ele>
        <time>2022-04-10T09:37:49Z</time>
      </trkpt>
      <trkpt lat="42.92411" lon="0.84319">
        <ele>1448.84</ele>
        <time>2022-04-10T09:38:03Z</time>
      </trkpt>
      <trkpt lat="42.92409" lon="0.84316">
        <ele>1452.69</ele>
        <time>2022-04-10T09:38:13Z</time>
      </trkpt>
      <trkpt lat="42.92409" lon="0.84308">
        <ele>1452.21</ele>
        <time>2022-04-10T09:38:26Z</time>
      </trkpt>
      <trkpt lat="42.92409" lon="0.84307">
        <ele>1452.21</ele>
        <time>2022-04-10T09:38:27Z</time>
      </trkpt>
      <trkpt lat="42.9241" lon="0.84296">
        <ele>1453.65</ele>
        <time>2022-04-10T09:38:40Z</time>
      </trkpt>
      <trkpt lat="42.92409" lon="0.84285">
        <ele>1455.09</ele>
        <time>2022-04-10T09:38:51Z</time>
      </trkpt>
      <trkpt lat="42.92404" lon="0.84273">
        <ele>1456.53</ele>
        <time>2022-04-10T09:39:04Z</time>
      </trkpt>
      <trkpt lat="42.92401" lon="0.84266">
        <ele>1457.02</ele>
        <time>2022-04-10T09:39:17Z</time>
      </trkpt>
      <trkpt lat="42.924" lon="0.84264">
        <ele>1457.02</ele>
        <time>2022-04-10T09:39:28Z</time>
      </trkpt>
      <trkpt lat="42.92395" lon="0.8426">
        <ele>1457.02</ele>
        <time>2022-04-10T09:39:39Z</time>
      </trkpt>
      <trkpt lat="42.92385" lon="0.84262">
        <ele>1459.9</ele>
        <time>2022-04-10T09:39:52Z</time>
      </trkpt>
      <trkpt lat="42.92379" lon="0.84258">
        <ele>1460.86</ele>
        <time>2022-04-10T09:39:59Z</time>
      </trkpt>
      <trkpt lat="42.92371" lon="0.8425">
        <ele>1462.78</ele>
        <time>2022-04-10T09:40:10Z</time>
      </trkpt>
      <trkpt lat="42.92363" lon="0.84264">
        <ele>1464.23</ele>
        <time>2022-04-10T09:40:23Z</time>
      </trkpt>
      <trkpt lat="42.92362" lon="0.84264">
        <ele>1464.23</ele>
        <time>2022-04-10T09:40:32Z</time>
      </trkpt>
      <trkpt lat="42.92361" lon="0.84266">
        <ele>1463.74</ele>
        <time>2022-04-10T09:40:40Z</time>
      </trkpt>
      <trkpt lat="42.92362" lon="0.84267">
        <ele>1464.71</ele>
        <time>2022-04-10T09:40:47Z</time>
      </trkpt>
      <trkpt lat="42.92361" lon="0.84271">
        <ele>1464.23</ele>
        <time>2022-04-10T09:41:03Z</time>
      </trkpt>
      <trkpt lat="42.92353" lon="0.84277">
        <ele>1462.78</ele>
        <time>2022-04-10T09:41:16Z</time>
      </trkpt>
      <trkpt lat="42.9235" lon="0.84283">
        <ele>1461.34</ele>
        <time>2022-04-10T09:41:29Z</time>
      </trkpt>
      <trkpt lat="42.92352" lon="0.84282">
        <ele>1460.86</ele>
        <time>2022-04-10T09:41:52Z</time>
      </trkpt>
      <trkpt lat="42.92355" lon="0.84282">
        <ele>1460.38</ele>
        <time>2022-04-10T09:42:19Z</time>
      </trkpt>
      <trkpt lat="42.92356" lon="0.84283">
        <ele>1460.86</ele>
        <time>2022-04-10T09:43:30Z</time>
      </trkpt>
      <trkpt lat="42.92355" lon="0.84283">
        <ele>1461.34</ele>
        <time>2022-04-10T09:44:12Z</time>
      </trkpt>
      <trkpt lat="42.92354" lon="0.84284">
        <ele>1461.34</ele>
        <time>2022-04-10T09:44:47Z</time>
      </trkpt>
      <trkpt lat="42.92353" lon="0.84286">
        <ele>1461.34</ele>
        <time>2022-04-10T09:45:25Z</time>
      </trkpt>
      <trkpt lat="42.92352" lon="0.84286">
        <ele>1461.82</ele>
        <time>2022-04-10T09:46:06Z</time>
      </trkpt>
      <trkpt lat="42.92352" lon="0.84285">
        <ele>1462.3</ele>
        <time>2022-04-10T09:46:29Z</time>
      </trkpt>
      <trkpt lat="42.92351" lon="0.84286">
        <ele>1462.3</ele>
        <time>2022-04-10T09:46:39Z</time>
      </trkpt>
      <trkpt lat="42.9235" lon="0.84286">
        <ele>1462.78</ele>
        <time>2022-04-10T09:47:12Z</time>
      </trkpt>
      <trkpt lat="42.92348" lon="0.84287">
        <ele>1462.78</ele>
        <time>2022-04-10T09:47:36Z</time>
      </trkpt>
      <trkpt lat="42.92347" lon="0.84286">
        <ele>1463.26</ele>
        <time>2022-04-10T09:48:12Z</time>
      </trkpt>
      <trkpt lat="42.92348" lon="0.84287">
        <ele>1463.74</ele>
        <time>2022-04-10T09:48:47Z</time>
      </trkpt>
      <trkpt lat="42.92347" lon="0.84287">
        <ele>1464.71</ele>
        <time>2022-04-10T09:50:20Z</time>
      </trkpt>
      <trkpt lat="42.92348" lon="0.84288">
        <ele>1464.71</ele>
        <time>2022-04-10T09:50:56Z</time>
      </trkpt>
      <trkpt lat="42.92348" lon="0.84287">
        <ele>1466.15</ele>
        <time>2022-04-10T09:53:37Z</time>
      </trkpt>
      <trkpt lat="42.92348" lon="0.84288">
        <ele>1467.59</ele>
        <time>2022-04-10T09:56:04Z</time>
      </trkpt>
      <trkpt lat="42.92349" lon="0.84287">
        <ele>1468.07</ele>
        <time>2022-04-10T09:56:39Z</time>
      </trkpt>
      <trkpt lat="42.92348" lon="0.84287">
        <ele>1469.03</ele>
        <time>2022-04-10T09:58:22Z</time>
      </trkpt>
      <trkpt lat="42.92348" lon="0.84286">
        <ele>1469.03</ele>
        <time>2022-04-10T09:58:55Z</time>
      </trkpt>
      <trkpt lat="42.92348" lon="0.84285">
        <ele>1469.51</ele>
        <time>2022-04-10T09:59:21Z</time>
      </trkpt>
      <trkpt lat="42.92349" lon="0.84284">
        <ele>1469.51</ele>
        <time>2022-04-10T09:59:57Z</time>
      </trkpt>
      <trkpt lat="42.92346" lon="0.84285">
        <ele>1469.99</ele>
        <time>2022-04-10T10:00:34Z</time>
      </trkpt>
      <trkpt lat="42.92346" lon="0.84286">
        <ele>1469.99</ele>
        <time>2022-04-10T10:01:03Z</time>
      </trkpt>
      <trkpt lat="42.92346" lon="0.84285">
        <ele>1469.99</ele>
        <time>2022-04-10T10:01:38Z</time>
      </trkpt>
      <trkpt lat="42.92346" lon="0.84286">
        <ele>1469.99</ele>
        <time>2022-04-10T10:02:19Z</time>
      </trkpt>
      <trkpt lat="42.92349" lon="0.84285">
        <ele>1469.99</ele>
        <time>2022-04-10T10:02:49Z</time>
      </trkpt>
      <trkpt lat="42.92351" lon="0.84283">
        <ele>1472.4</ele>
        <time>2022-04-10T10:04:20Z</time>
      </trkpt>
      <trkpt lat="42.92351" lon="0.84281">
        <ele>1472.4</ele>
        <time>2022-04-10T10:04:32Z</time>
      </trkpt>
      <trkpt lat="42.92351" lon="0.8428">
        <ele>1472.4</ele>
        <time>2022-04-10T10:04:44Z</time>
      </trkpt>
      <trkpt lat="42.92351" lon="0.84279">
        <ele>1472.4</ele>
        <time>2022-04-10T10:05:01Z</time>
      </trkpt>
      <trkpt lat="42.92351" lon="0.84278">
        <ele>1472.88</ele>
        <time>2022-04-10T10:05:23Z</time>
      </trkpt>
      <trkpt lat="42.9235" lon="0.84277">
        <ele>1472.88</ele>
        <time>2022-04-10T10:05:47Z</time>
      </trkpt>
      <trkpt lat="42.92349" lon="0.84278">
        <ele>1473.36</ele>
        <time>2022-04-10T10:06:01Z</time>
      </trkpt>
      <trkpt lat="42.92348" lon="0.84275">
        <ele>1473.36</ele>
        <time>2022-04-10T10:06:04Z</time>
      </trkpt>
      <trkpt lat="42.92348" lon="0.84268">
        <ele>1473.36</ele>
        <time>2022-04-10T10:06:10Z</time>
      </trkpt>
      <trkpt lat="42.92345" lon="0.84261">
        <ele>1473.36</ele>
        <time>2022-04-10T10:06:16Z</time>
      </trkpt>
      <trkpt lat="42.92341" lon="0.84247">
        <ele>1471.44</ele>
        <time>2022-04-10T10:06:28Z</time>
      </trkpt>
      <trkpt lat="42.92337" lon="0.8424">
        <ele>1470.47</ele>
        <time>2022-04-10T10:06:37Z</time>
      </trkpt>
      <trkpt lat="42.92331" lon="0.84235">
        <ele>1469.51</ele>
        <time>2022-04-10T10:06:47Z</time>
      </trkpt>
      <trkpt lat="42.92326" lon="0.84215">
        <ele>1469.03</ele>
        <time>2022-04-10T10:07:01Z</time>
      </trkpt>
      <trkpt lat="42.92321" lon="0.842">
        <ele>1468.55</ele>
        <time>2022-04-10T10:07:13Z</time>
      </trkpt>
      <trkpt lat="42.92319" lon="0.84199">
        <ele>1468.55</ele>
        <time>2022-04-10T10:07:15Z</time>
      </trkpt>
      <trkpt lat="42.92313" lon="0.84184">
        <ele>1468.07</ele>
        <time>2022-04-10T10:07:28Z</time>
      </trkpt>
      <trkpt lat="42.92311" lon="0.84181">
        <ele>1468.07</ele>
        <time>2022-04-10T10:07:32Z</time>
      </trkpt>
      <trkpt lat="42.92311" lon="0.84177">
        <ele>1468.07</ele>
        <time>2022-04-10T10:07:35Z</time>
      </trkpt>
      <trkpt lat="42.92301" lon="0.84168">
        <ele>1467.11</ele>
        <time>2022-04-10T10:07:48Z</time>
      </trkpt>
      <trkpt lat="42.92289" lon="0.84163">
        <ele>1465.67</ele>
        <time>2022-04-10T10:08:01Z</time>
      </trkpt>
      <trkpt lat="42.92279" lon="0.84154">
        <ele>1463.74</ele>
        <time>2022-04-10T10:08:14Z</time>
      </trkpt>
      <trkpt lat="42.92279" lon="0.84152">
        <ele>1463.74</ele>
        <time>2022-04-10T10:08:15Z</time>
      </trkpt>
      <trkpt lat="42.92265" lon="0.84145">
        <ele>1462.78</ele>
        <time>2022-04-10T10:08:29Z</time>
      </trkpt>
      <trkpt lat="42.9225" lon="0.84137">
        <ele>1461.34</ele>
        <time>2022-04-10T10:08:44Z</time>
      </trkpt>
      <trkpt lat="42.92239" lon="0.84127">
        <ele>1460.86</ele>
        <time>2022-04-10T10:08:57Z</time>
      </trkpt>
      <trkpt lat="42.92237" lon="0.84126">
        <ele>1460.86</ele>
        <time>2022-04-10T10:08:59Z</time>
      </trkpt>
      <trkpt lat="42.92226" lon="0.84113">
        <ele>1461.34</ele>
        <time>2022-04-10T10:09:13Z</time>
      </trkpt>
      <trkpt lat="42.92218" lon="0.84106">
        <ele>1462.78</ele>
        <time>2022-04-10T10:09:23Z</time>
      </trkpt>
      <trkpt lat="42.92208" lon="0.84099">
        <ele>1464.23</ele>
        <time>2022-04-10T10:09:36Z</time>
      </trkpt>
      <trkpt lat="42.92201" lon="0.84097">
        <ele>1466.15</ele>
        <time>2022-04-10T10:09:48Z</time>
      </trkpt>
      <trkpt lat="42.92196" lon="0.84092">
        <ele>1468.55</ele>
        <time>2022-04-10T10:09:58Z</time>
      </trkpt>
      <trkpt lat="42.92191" lon="0.84087">
        <ele>1469.99</ele>
        <time>2022-04-10T10:10:08Z</time>
      </trkpt>
      <trkpt lat="42.92189" lon="0.84081">
        <ele>1472.4</ele>
        <time>2022-04-10T10:10:19Z</time>
      </trkpt>
      <trkpt lat="42.92188" lon="0.84073">
        <ele>1473.84</ele>
        <time>2022-04-10T10:10:32Z</time>
      </trkpt>
      <trkpt lat="42.92185" lon="0.84071">
        <ele>1474.8</ele>
        <time>2022-04-10T10:10:43Z</time>
      </trkpt>
      <trkpt lat="42.92184" lon="0.84067">
        <ele>1475.28</ele>
        <time>2022-04-10T10:10:58Z</time>
      </trkpt>
      <trkpt lat="42.92179" lon="0.8406">
        <ele>1476.72</ele>
        <time>2022-04-10T10:11:08Z</time>
      </trkpt>
      <trkpt lat="42.92175" lon="0.84055">
        <ele>1478.16</ele>
        <time>2022-04-10T10:11:18Z</time>
      </trkpt>
      <trkpt lat="42.92171" lon="0.84052">
        <ele>1478.65</ele>
        <time>2022-04-10T10:11:29Z</time>
      </trkpt>
      <trkpt lat="42.92167" lon="0.84044">
        <ele>1479.61</ele>
        <time>2022-04-10T10:11:40Z</time>
      </trkpt>
      <trkpt lat="42.92161" lon="0.84036">
        <ele>1481.53</ele>
        <time>2022-04-10T10:11:51Z</time>
      </trkpt>
      <trkpt lat="42.92159" lon="0.84033">
        <ele>1482.49</ele>
        <time>2022-04-10T10:12:01Z</time>
      </trkpt>
      <trkpt lat="42.92157" lon="0.84028">
        <ele>1483.93</ele>
        <time>2022-04-10T10:12:11Z</time>
      </trkpt>
      <trkpt lat="42.92153" lon="0.8402">
        <ele>1485.37</ele>
        <time>2022-04-10T10:12:22Z</time>
      </trkpt>
      <trkpt lat="42.9215" lon="0.84017">
        <ele>1486.34</ele>
        <time>2022-04-10T10:12:31Z</time>
      </trkpt>
      <trkpt lat="42.92147" lon="0.8401">
        <ele>1487.78</ele>
        <time>2022-04-10T10:12:38Z</time>
      </trkpt>
      <trkpt lat="42.92144" lon="0.84004">
        <ele>1488.74</ele>
        <time>2022-04-10T10:12:47Z</time>
      </trkpt>
      <trkpt lat="42.92139" lon="0.83994">
        <ele>1489.7</ele>
        <time>2022-04-10T10:12:58Z</time>
      </trkpt>
      <trkpt lat="42.92136" lon="0.83985">
        <ele>1491.14</ele>
        <time>2022-04-10T10:13:09Z</time>
      </trkpt>
      <trkpt lat="42.92133" lon="0.83976">
        <ele>1492.58</ele>
        <time>2022-04-10T10:13:19Z</time>
      </trkpt>
      <trkpt lat="42.92129" lon="0.83969">
        <ele>1494.51</ele>
        <time>2022-04-10T10:13:30Z</time>
      </trkpt>
      <trkpt lat="42.92126" lon="0.83962">
        <ele>1495.95</ele>
        <time>2022-04-10T10:13:39Z</time>
      </trkpt>
      <trkpt lat="42.92123" lon="0.83957">
        <ele>1497.39</ele>
        <time>2022-04-10T10:13:48Z</time>
      </trkpt>
      <trkpt lat="42.92121" lon="0.83954">
        <ele>1499.31</ele>
        <time>2022-04-10T10:13:56Z</time>
      </trkpt>
      <trkpt lat="42.92117" lon="0.83948">
        <ele>1500.76</ele>
        <time>2022-04-10T10:14:05Z</time>
      </trkpt>
      <trkpt lat="42.92113" lon="0.83943">
        <ele>1501.72</ele>
        <time>2022-04-10T10:14:15Z</time>
      </trkpt>
      <trkpt lat="42.92112" lon="0.83945">
        <ele>1501.72</ele>
        <time>2022-04-10T10:14:35Z</time>
      </trkpt>
      <trkpt lat="42.92112" lon="0.83943">
        <ele>1502.2</ele>
        <time>2022-04-10T10:14:43Z</time>
      </trkpt>
      <trkpt lat="42.9211" lon="0.83932">
        <ele>1503.64</ele>
        <time>2022-04-10T10:14:53Z</time>
      </trkpt>
      <trkpt lat="42.92107" lon="0.83929">
        <ele>1504.6</ele>
        <time>2022-04-10T10:15:03Z</time>
      </trkpt>
      <trkpt lat="42.92106" lon="0.83924">
        <ele>1505.56</ele>
        <time>2022-04-10T10:15:14Z</time>
      </trkpt>
      <trkpt lat="42.92105" lon="0.83909">
        <ele>1507</ele>
        <time>2022-04-10T10:15:26Z</time>
      </trkpt>
      <trkpt lat="42.92102" lon="0.83899">
        <ele>1508.93</ele>
        <time>2022-04-10T10:15:36Z</time>
      </trkpt>
      <trkpt lat="42.92097" lon="0.83889">
        <ele>1510.85</ele>
        <time>2022-04-10T10:15:47Z</time>
      </trkpt>
      <trkpt lat="42.92094" lon="0.83878">
        <ele>1512.29</ele>
        <time>2022-04-10T10:15:57Z</time>
      </trkpt>
      <trkpt lat="42.92092" lon="0.83874">
        <ele>1513.25</ele>
        <time>2022-04-10T10:16:08Z</time>
      </trkpt>
      <trkpt lat="42.92091" lon="0.83873">
        <ele>1513.73</ele>
        <time>2022-04-10T10:16:18Z</time>
      </trkpt>
      <trkpt lat="42.92091" lon="0.83867">
        <ele>1514.21</ele>
        <time>2022-04-10T10:16:26Z</time>
      </trkpt>
      <trkpt lat="42.92088" lon="0.83859">
        <ele>1515.18</ele>
        <time>2022-04-10T10:16:37Z</time>
      </trkpt>
      <trkpt lat="42.92087" lon="0.83858">
        <ele>1515.66</ele>
        <time>2022-04-10T10:16:43Z</time>
      </trkpt>
      <trkpt lat="42.92086" lon="0.83854">
        <ele>1515.66</ele>
        <time>2022-04-10T10:16:46Z</time>
      </trkpt>
      <trkpt lat="42.92083" lon="0.83838">
        <ele>1517.1</ele>
        <time>2022-04-10T10:16:58Z</time>
      </trkpt>
      <trkpt lat="42.92075" lon="0.83824">
        <ele>1517.58</ele>
        <time>2022-04-10T10:17:12Z</time>
      </trkpt>
      <trkpt lat="42.92073" lon="0.83818">
        <ele>1518.54</ele>
        <time>2022-04-10T10:17:18Z</time>
      </trkpt>
      <trkpt lat="42.92069" lon="0.83806">
        <ele>1519.02</ele>
        <time>2022-04-10T10:17:28Z</time>
      </trkpt>
      <trkpt lat="42.92066" lon="0.83797">
        <ele>1519.5</ele>
        <time>2022-04-10T10:17:37Z</time>
      </trkpt>
      <trkpt lat="42.92059" lon="0.83785">
        <ele>1519.98</ele>
        <time>2022-04-10T10:17:48Z</time>
      </trkpt>
      <trkpt lat="42.92055" lon="0.83775">
        <ele>1520.94</ele>
        <time>2022-04-10T10:17:58Z</time>
      </trkpt>
      <trkpt lat="42.92053" lon="0.8377">
        <ele>1521.42</ele>
        <time>2022-04-10T10:18:03Z</time>
      </trkpt>
      <trkpt lat="42.9205" lon="0.83761">
        <ele>1521.9</ele>
        <time>2022-04-10T10:18:13Z</time>
      </trkpt>
      <trkpt lat="42.92047" lon="0.83754">
        <ele>1522.39</ele>
        <time>2022-04-10T10:18:22Z</time>
      </trkpt>
      <trkpt lat="42.92044" lon="0.83747">
        <ele>1523.35</ele>
        <time>2022-04-10T10:18:29Z</time>
      </trkpt>
      <trkpt lat="42.92039" lon="0.83739">
        <ele>1524.79</ele>
        <time>2022-04-10T10:18:39Z</time>
      </trkpt>
      <trkpt lat="42.92034" lon="0.83731">
        <ele>1526.23</ele>
        <time>2022-04-10T10:18:51Z</time>
      </trkpt>
      <trkpt lat="42.9203" lon="0.83723">
        <ele>1527.19</ele>
        <time>2022-04-10T10:19:01Z</time>
      </trkpt>
      <trkpt lat="42.92025" lon="0.83714">
        <ele>1528.63</ele>
        <time>2022-04-10T10:19:13Z</time>
      </trkpt>
      <trkpt lat="42.92024" lon="0.83705">
        <ele>1530.56</ele>
        <time>2022-04-10T10:19:24Z</time>
      </trkpt>
      <trkpt lat="42.92021" lon="0.83696">
        <ele>1532</ele>
        <time>2022-04-10T10:19:34Z</time>
      </trkpt>
      <trkpt lat="42.92017" lon="0.83688">
        <ele>1532.96</ele>
        <time>2022-04-10T10:19:46Z</time>
      </trkpt>
      <trkpt lat="42.92014" lon="0.83681">
        <ele>1534.4</ele>
        <time>2022-04-10T10:19:55Z</time>
      </trkpt>
      <trkpt lat="42.92013" lon="0.83672">
        <ele>1535.84</ele>
        <time>2022-04-10T10:20:06Z</time>
      </trkpt>
      <trkpt lat="42.92012" lon="0.83664">
        <ele>1537.29</ele>
        <time>2022-04-10T10:20:17Z</time>
      </trkpt>
      <trkpt lat="42.92012" lon="0.83656">
        <ele>1538.73</ele>
        <time>2022-04-10T10:20:27Z</time>
      </trkpt>
      <trkpt lat="42.92009" lon="0.83649">
        <ele>1540.17</ele>
        <time>2022-04-10T10:20:37Z</time>
      </trkpt>
      <trkpt lat="42.92009" lon="0.8364">
        <ele>1541.61</ele>
        <time>2022-04-10T10:20:47Z</time>
      </trkpt>
      <trkpt lat="42.92009" lon="0.83632">
        <ele>1543.05</ele>
        <time>2022-04-10T10:20:57Z</time>
      </trkpt>
      <trkpt lat="42.92008" lon="0.83625">
        <ele>1544.5</ele>
        <time>2022-04-10T10:21:06Z</time>
      </trkpt>
      <trkpt lat="42.92008" lon="0.83616">
        <ele>1545.46</ele>
        <time>2022-04-10T10:21:16Z</time>
      </trkpt>
      <trkpt lat="42.92008" lon="0.83607">
        <ele>1547.38</ele>
        <time>2022-04-10T10:21:27Z</time>
      </trkpt>
      <trkpt lat="42.92009" lon="0.83599">
        <ele>1548.82</ele>
        <time>2022-04-10T10:21:39Z</time>
      </trkpt>
      <trkpt lat="42.92009" lon="0.83594">
        <ele>1549.78</ele>
        <time>2022-04-10T10:21:49Z</time>
      </trkpt>
      <trkpt lat="42.92008" lon="0.83592">
        <ele>1550.74</ele>
        <time>2022-04-10T10:22:00Z</time>
      </trkpt>
      <trkpt lat="42.92009" lon="0.83586">
        <ele>1552.19</ele>
        <time>2022-04-10T10:22:11Z</time>
      </trkpt>
      <trkpt lat="42.9201" lon="0.83582">
        <ele>1553.63</ele>
        <time>2022-04-10T10:22:20Z</time>
      </trkpt>
      <trkpt lat="42.9201" lon="0.83575">
        <ele>1554.59</ele>
        <time>2022-04-10T10:22:31Z</time>
      </trkpt>
      <trkpt lat="42.9201" lon="0.8357">
        <ele>1555.55</ele>
        <time>2022-04-10T10:22:40Z</time>
      </trkpt>
      <trkpt lat="42.9201" lon="0.83565">
        <ele>1556.99</ele>
        <time>2022-04-10T10:22:50Z</time>
      </trkpt>
      <trkpt lat="42.9201" lon="0.83559">
        <ele>1558.92</ele>
        <time>2022-04-10T10:23:00Z</time>
      </trkpt>
      <trkpt lat="42.9201" lon="0.83552">
        <ele>1560.36</ele>
        <time>2022-04-10T10:23:11Z</time>
      </trkpt>
      <trkpt lat="42.92007" lon="0.83548">
        <ele>1561.32</ele>
        <time>2022-04-10T10:23:20Z</time>
      </trkpt>
      <trkpt lat="42.92004" lon="0.83541">
        <ele>1563.24</ele>
        <time>2022-04-10T10:23:30Z</time>
      </trkpt>
      <trkpt lat="42.91999" lon="0.83536">
        <ele>1565.16</ele>
        <time>2022-04-10T10:23:42Z</time>
      </trkpt>
      <trkpt lat="42.91995" lon="0.8353">
        <ele>1567.57</ele>
        <time>2022-04-10T10:23:54Z</time>
      </trkpt>
      <trkpt lat="42.9199" lon="0.83522">
        <ele>1569.97</ele>
        <time>2022-04-10T10:24:05Z</time>
      </trkpt>
      <trkpt lat="42.91988" lon="0.83517">
        <ele>1571.89</ele>
        <time>2022-04-10T10:24:16Z</time>
      </trkpt>
      <trkpt lat="42.91989" lon="0.83512">
        <ele>1572.85</ele>
        <time>2022-04-10T10:24:29Z</time>
      </trkpt>
      <trkpt lat="42.9199" lon="0.83503">
        <ele>1574.3</ele>
        <time>2022-04-10T10:24:40Z</time>
      </trkpt>
      <trkpt lat="42.9199" lon="0.83494">
        <ele>1575.26</ele>
        <time>2022-04-10T10:24:50Z</time>
      </trkpt>
      <trkpt lat="42.91991" lon="0.83489">
        <ele>1575.26</ele>
        <time>2022-04-10T10:25:03Z</time>
      </trkpt>
      <trkpt lat="42.91989" lon="0.8348">
        <ele>1576.22</ele>
        <time>2022-04-10T10:25:13Z</time>
      </trkpt>
      <trkpt lat="42.91989" lon="0.83472">
        <ele>1576.7</ele>
        <time>2022-04-10T10:25:22Z</time>
      </trkpt>
      <trkpt lat="42.91987" lon="0.83465">
        <ele>1577.18</ele>
        <time>2022-04-10T10:25:27Z</time>
      </trkpt>
      <trkpt lat="42.91984" lon="0.83449">
        <ele>1579.58</ele>
        <time>2022-04-10T10:25:42Z</time>
      </trkpt>
      <trkpt lat="42.91983" lon="0.83449">
        <ele>1579.58</ele>
        <time>2022-04-10T10:25:54Z</time>
      </trkpt>
      <trkpt lat="42.91983" lon="0.83446">
        <ele>1579.58</ele>
        <time>2022-04-10T10:26:23Z</time>
      </trkpt>
      <trkpt lat="42.91983" lon="0.83444">
        <ele>1580.06</ele>
        <time>2022-04-10T10:26:34Z</time>
      </trkpt>
      <trkpt lat="42.91981" lon="0.83445">
        <ele>1580.06</ele>
        <time>2022-04-10T10:26:57Z</time>
      </trkpt>
      <trkpt lat="42.91982" lon="0.83436">
        <ele>1580.06</ele>
        <time>2022-04-10T10:27:09Z</time>
      </trkpt>
      <trkpt lat="42.91983" lon="0.83424">
        <ele>1581.03</ele>
        <time>2022-04-10T10:27:20Z</time>
      </trkpt>
      <trkpt lat="42.91983" lon="0.8341">
        <ele>1582.95</ele>
        <time>2022-04-10T10:27:32Z</time>
      </trkpt>
      <trkpt lat="42.91984" lon="0.83398">
        <ele>1585.35</ele>
        <time>2022-04-10T10:27:44Z</time>
      </trkpt>
      <trkpt lat="42.91988" lon="0.83387">
        <ele>1586.31</ele>
        <time>2022-04-10T10:27:56Z</time>
      </trkpt>
      <trkpt lat="42.9199" lon="0.83376">
        <ele>1587.75</ele>
        <time>2022-04-10T10:28:08Z</time>
      </trkpt>
      <trkpt lat="42.91993" lon="0.83363">
        <ele>1589.68</ele>
        <time>2022-04-10T10:28:20Z</time>
      </trkpt>
      <trkpt lat="42.91999" lon="0.83359">
        <ele>1591.12</ele>
        <time>2022-04-10T10:28:30Z</time>
      </trkpt>
      <trkpt lat="42.92002" lon="0.8336">
        <ele>1593.04</ele>
        <time>2022-04-10T10:28:40Z</time>
      </trkpt>
      <trkpt lat="42.92006" lon="0.8336">
        <ele>1593.04</ele>
        <time>2022-04-10T10:28:52Z</time>
      </trkpt>
      <trkpt lat="42.92013" lon="0.8336">
        <ele>1593.52</ele>
        <time>2022-04-10T10:29:02Z</time>
      </trkpt>
      <trkpt lat="42.92022" lon="0.83362">
        <ele>1594.48</ele>
        <time>2022-04-10T10:29:14Z</time>
      </trkpt>
      <trkpt lat="42.92025" lon="0.83358">
        <ele>1595.45</ele>
        <time>2022-04-10T10:29:24Z</time>
      </trkpt>
      <trkpt lat="42.9202" lon="0.83353">
        <ele>1595.93</ele>
        <time>2022-04-10T10:29:34Z</time>
      </trkpt>
      <trkpt lat="42.92019" lon="0.83356">
        <ele>1595.93</ele>
        <time>2022-04-10T10:29:48Z</time>
      </trkpt>
      <trkpt lat="42.92021" lon="0.83355">
        <ele>1594.48</ele>
        <time>2022-04-10T10:29:56Z</time>
      </trkpt>
      <trkpt lat="42.92024" lon="0.83353">
        <ele>1595.93</ele>
        <time>2022-04-10T10:30:03Z</time>
      </trkpt>
      <trkpt lat="42.92023" lon="0.83347">
        <ele>1595.93</ele>
        <time>2022-04-10T10:30:14Z</time>
      </trkpt>
      <trkpt lat="42.92021" lon="0.83338">
        <ele>1597.85</ele>
        <time>2022-04-10T10:30:25Z</time>
      </trkpt>
      <trkpt lat="42.92019" lon="0.8333">
        <ele>1598.81</ele>
        <time>2022-04-10T10:30:34Z</time>
      </trkpt>
      <trkpt lat="42.92016" lon="0.83322">
        <ele>1600.25</ele>
        <time>2022-04-10T10:30:44Z</time>
      </trkpt>
      <trkpt lat="42.92013" lon="0.83319">
        <ele>1601.21</ele>
        <time>2022-04-10T10:30:54Z</time>
      </trkpt>
      <trkpt lat="42.92013" lon="0.83317">
        <ele>1601.69</ele>
        <time>2022-04-10T10:31:02Z</time>
      </trkpt>
      <trkpt lat="42.9201" lon="0.83313">
        <ele>1602.17</ele>
        <time>2022-04-10T10:31:18Z</time>
      </trkpt>
      <trkpt lat="42.92005" lon="0.83304">
        <ele>1604.1</ele>
        <time>2022-04-10T10:31:29Z</time>
      </trkpt>
      <trkpt lat="42.92002" lon="0.83303">
        <ele>1604.1</ele>
        <time>2022-04-10T10:31:32Z</time>
      </trkpt>
      <trkpt lat="42.91999" lon="0.83293">
        <ele>1605.54</ele>
        <time>2022-04-10T10:31:46Z</time>
      </trkpt>
      <trkpt lat="42.91996" lon="0.83283">
        <ele>1606.98</ele>
        <time>2022-04-10T10:31:58Z</time>
      </trkpt>
      <trkpt lat="42.91993" lon="0.83277">
        <ele>1607.46</ele>
        <time>2022-04-10T10:32:05Z</time>
      </trkpt>
      <trkpt lat="42.91988" lon="0.83266">
        <ele>1608.42</ele>
        <time>2022-04-10T10:32:16Z</time>
      </trkpt>
      <trkpt lat="42.91982" lon="0.83258">
        <ele>1609.86</ele>
        <time>2022-04-10T10:32:26Z</time>
      </trkpt>
      <trkpt lat="42.9198" lon="0.83253">
        <ele>1610.35</ele>
        <time>2022-04-10T10:32:31Z</time>
      </trkpt>
      <trkpt lat="42.91975" lon="0.8324">
        <ele>1611.31</ele>
        <time>2022-04-10T10:32:44Z</time>
      </trkpt>
      <trkpt lat="42.91974" lon="0.83233">
        <ele>1612.27</ele>
        <time>2022-04-10T10:32:56Z</time>
      </trkpt>
      <trkpt lat="42.91974" lon="0.83223">
        <ele>1614.19</ele>
        <time>2022-04-10T10:33:08Z</time>
      </trkpt>
      <trkpt lat="42.91973" lon="0.83213">
        <ele>1615.15</ele>
        <time>2022-04-10T10:33:18Z</time>
      </trkpt>
      <trkpt lat="42.91969" lon="0.83204">
        <ele>1616.59</ele>
        <time>2022-04-10T10:33:28Z</time>
      </trkpt>
      <trkpt lat="42.91965" lon="0.83193">
        <ele>1617.07</ele>
        <time>2022-04-10T10:33:39Z</time>
      </trkpt>
      <trkpt lat="42.91965" lon="0.83184">
        <ele>1618.04</ele>
        <time>2022-04-10T10:33:49Z</time>
      </trkpt>
      <trkpt lat="42.91963" lon="0.83172">
        <ele>1618.52</ele>
        <time>2022-04-10T10:34:00Z</time>
      </trkpt>
      <trkpt lat="42.9196" lon="0.83159">
        <ele>1619.96</ele>
        <time>2022-04-10T10:34:12Z</time>
      </trkpt>
      <trkpt lat="42.91954" lon="0.83148">
        <ele>1620.44</ele>
        <time>2022-04-10T10:34:23Z</time>
      </trkpt>
      <trkpt lat="42.91953" lon="0.83142">
        <ele>1620.44</ele>
        <time>2022-04-10T10:34:28Z</time>
      </trkpt>
      <trkpt lat="42.91953" lon="0.83124">
        <ele>1620.92</ele>
        <time>2022-04-10T10:34:42Z</time>
      </trkpt>
      <trkpt lat="42.91953" lon="0.83119">
        <ele>1620.92</ele>
        <time>2022-04-10T10:34:46Z</time>
      </trkpt>
      <trkpt lat="42.91952" lon="0.83102">
        <ele>1620.92</ele>
        <time>2022-04-10T10:35:00Z</time>
      </trkpt>
      <trkpt lat="42.9195" lon="0.83095">
        <ele>1620.92</ele>
        <time>2022-04-10T10:35:10Z</time>
      </trkpt>
      <trkpt lat="42.91951" lon="0.83083">
        <ele>1620.92</ele>
        <time>2022-04-10T10:35:22Z</time>
      </trkpt>
      <trkpt lat="42.91952" lon="0.83071">
        <ele>1621.88</ele>
        <time>2022-04-10T10:35:36Z</time>
      </trkpt>
      <trkpt lat="42.91953" lon="0.83058">
        <ele>1621.88</ele>
        <time>2022-04-10T10:35:48Z</time>
      </trkpt>
      <trkpt lat="42.91954" lon="0.83048">
        <ele>1623.32</ele>
        <time>2022-04-10T10:35:59Z</time>
      </trkpt>
      <trkpt lat="42.91954" lon="0.83043">
        <ele>1624.28</ele>
        <time>2022-04-10T10:36:12Z</time>
      </trkpt>
      <trkpt lat="42.91953" lon="0.83038">
        <ele>1624.28</ele>
        <time>2022-04-10T10:36:22Z</time>
      </trkpt>
      <trkpt lat="42.91952" lon="0.83032">
        <ele>1624.77</ele>
        <time>2022-04-10T10:36:31Z</time>
      </trkpt>
      <trkpt lat="42.91948" lon="0.83023">
        <ele>1625.73</ele>
        <time>2022-04-10T10:36:41Z</time>
      </trkpt>
      <trkpt lat="42.91943" lon="0.83019">
        <ele>1627.17</ele>
        <time>2022-04-10T10:36:52Z</time>
      </trkpt>
      <trkpt lat="42.91942" lon="0.83021">
        <ele>1627.17</ele>
        <time>2022-04-10T10:37:06Z</time>
      </trkpt>
      <trkpt lat="42.91943" lon="0.83021">
        <ele>1627.65</ele>
        <time>2022-04-10T10:37:26Z</time>
      </trkpt>
      <trkpt lat="42.91938" lon="0.83015">
        <ele>1628.61</ele>
        <time>2022-04-10T10:37:36Z</time>
      </trkpt>
      <trkpt lat="42.91935" lon="0.83013">
        <ele>1630.05</ele>
        <time>2022-04-10T10:37:47Z</time>
      </trkpt>
      <trkpt lat="42.91931" lon="0.83007">
        <ele>1631.98</ele>
        <time>2022-04-10T10:37:57Z</time>
      </trkpt>
      <trkpt lat="42.91929" lon="0.83007">
        <ele>1633.42</ele>
        <time>2022-04-10T10:38:11Z</time>
      </trkpt>
      <trkpt lat="42.91925" lon="0.83004">
        <ele>1635.34</ele>
        <time>2022-04-10T10:38:22Z</time>
      </trkpt>
      <trkpt lat="42.91921" lon="0.83002">
        <ele>1636.3</ele>
        <time>2022-04-10T10:38:31Z</time>
      </trkpt>
      <trkpt lat="42.91917" lon="0.82999">
        <ele>1637.74</ele>
        <time>2022-04-10T10:38:41Z</time>
      </trkpt>
      <trkpt lat="42.91911" lon="0.82993">
        <ele>1639.19</ele>
        <time>2022-04-10T10:38:52Z</time>
      </trkpt>
      <trkpt lat="42.9191" lon="0.8299">
        <ele>1640.15</ele>
        <time>2022-04-10T10:39:03Z</time>
      </trkpt>
      <trkpt lat="42.91907" lon="0.82987">
        <ele>1641.59</ele>
        <time>2022-04-10T10:39:16Z</time>
      </trkpt>
      <trkpt lat="42.91902" lon="0.82981">
        <ele>1642.07</ele>
        <time>2022-04-10T10:39:28Z</time>
      </trkpt>
      <trkpt lat="42.91897" lon="0.82976">
        <ele>1643.51</ele>
        <time>2022-04-10T10:39:37Z</time>
      </trkpt>
      <trkpt lat="42.91892" lon="0.8297">
        <ele>1644.95</ele>
        <time>2022-04-10T10:39:48Z</time>
      </trkpt>
      <trkpt lat="42.91888" lon="0.82964">
        <ele>1646.4</ele>
        <time>2022-04-10T10:39:58Z</time>
      </trkpt>
      <trkpt lat="42.91883" lon="0.82959">
        <ele>1647.36</ele>
        <time>2022-04-10T10:40:08Z</time>
      </trkpt>
      <trkpt lat="42.91878" lon="0.82952">
        <ele>1649.28</ele>
        <time>2022-04-10T10:40:20Z</time>
      </trkpt>
      <trkpt lat="42.91875" lon="0.82953">
        <ele>1649.76</ele>
        <time>2022-04-10T10:40:30Z</time>
      </trkpt>
      <trkpt lat="42.91869" lon="0.82949">
        <ele>1650.72</ele>
        <time>2022-04-10T10:40:40Z</time>
      </trkpt>
      <trkpt lat="42.91865" lon="0.8294">
        <ele>1652.16</ele>
        <time>2022-04-10T10:40:50Z</time>
      </trkpt>
      <trkpt lat="42.91864" lon="0.82939">
        <ele>1652.64</ele>
        <time>2022-04-10T10:40:52Z</time>
      </trkpt>
      <trkpt lat="42.91857" lon="0.8293">
        <ele>1654.09</ele>
        <time>2022-04-10T10:41:04Z</time>
      </trkpt>
      <trkpt lat="42.91849" lon="0.82923">
        <ele>1655.53</ele>
        <time>2022-04-10T10:41:15Z</time>
      </trkpt>
      <trkpt lat="42.91843" lon="0.82916">
        <ele>1655.53</ele>
        <time>2022-04-10T10:41:26Z</time>
      </trkpt>
      <trkpt lat="42.91837" lon="0.82909">
        <ele>1656.49</ele>
        <time>2022-04-10T10:41:36Z</time>
      </trkpt>
      <trkpt lat="42.91828" lon="0.82899">
        <ele>1657.45</ele>
        <time>2022-04-10T10:41:49Z</time>
      </trkpt>
      <trkpt lat="42.91827" lon="0.82897">
        <ele>1657.93</ele>
        <time>2022-04-10T10:41:51Z</time>
      </trkpt>
      <trkpt lat="42.91818" lon="0.82889">
        <ele>1658.41</ele>
        <time>2022-04-10T10:42:03Z</time>
      </trkpt>
      <trkpt lat="42.91811" lon="0.82885">
        <ele>1658.89</ele>
        <time>2022-04-10T10:42:15Z</time>
      </trkpt>
      <trkpt lat="42.9181" lon="0.82881">
        <ele>1658.89</ele>
        <time>2022-04-10T10:42:28Z</time>
      </trkpt>
      <trkpt lat="42.91808" lon="0.82872">
        <ele>1660.33</ele>
        <time>2022-04-10T10:42:40Z</time>
      </trkpt>
      <trkpt lat="42.91806" lon="0.82868">
        <ele>1660.33</ele>
        <time>2022-04-10T10:42:55Z</time>
      </trkpt>
      <trkpt lat="42.91801" lon="0.82862">
        <ele>1660.33</ele>
        <time>2022-04-10T10:43:03Z</time>
      </trkpt>
      <trkpt lat="42.91797" lon="0.82851">
        <ele>1660.33</ele>
        <time>2022-04-10T10:43:13Z</time>
      </trkpt>
      <trkpt lat="42.9179" lon="0.82842">
        <ele>1660.33</ele>
        <time>2022-04-10T10:43:24Z</time>
      </trkpt>
      <trkpt lat="42.91787" lon="0.8284">
        <ele>1660.81</ele>
        <time>2022-04-10T10:43:28Z</time>
      </trkpt>
      <trkpt lat="42.9178" lon="0.82832">
        <ele>1661.3</ele>
        <time>2022-04-10T10:43:39Z</time>
      </trkpt>
      <trkpt lat="42.91771" lon="0.82827">
        <ele>1661.3</ele>
        <time>2022-04-10T10:43:51Z</time>
      </trkpt>
      <trkpt lat="42.91764" lon="0.82821">
        <ele>1662.26</ele>
        <time>2022-04-10T10:44:01Z</time>
      </trkpt>
      <trkpt lat="42.91757" lon="0.82821">
        <ele>1662.26</ele>
        <time>2022-04-10T10:44:12Z</time>
      </trkpt>
      <trkpt lat="42.9175" lon="0.82818">
        <ele>1662.26</ele>
        <time>2022-04-10T10:44:24Z</time>
      </trkpt>
      <trkpt lat="42.91745" lon="0.82812">
        <ele>1663.22</ele>
        <time>2022-04-10T10:44:35Z</time>
      </trkpt>
      <trkpt lat="42.9174" lon="0.82802">
        <ele>1664.18</ele>
        <time>2022-04-10T10:44:46Z</time>
      </trkpt>
      <trkpt lat="42.91732" lon="0.82793">
        <ele>1664.66</ele>
        <time>2022-04-10T10:44:59Z</time>
      </trkpt>
      <trkpt lat="42.91727" lon="0.82786">
        <ele>1665.62</ele>
        <time>2022-04-10T10:45:09Z</time>
      </trkpt>
      <trkpt lat="42.91723" lon="0.82775">
        <ele>1665.62</ele>
        <time>2022-04-10T10:45:22Z</time>
      </trkpt>
      <trkpt lat="42.91719" lon="0.82763">
        <ele>1665.62</ele>
        <time>2022-04-10T10:45:33Z</time>
      </trkpt>
      <trkpt lat="42.9171" lon="0.82748">
        <ele>1665.62</ele>
        <time>2022-04-10T10:45:47Z</time>
      </trkpt>
      <trkpt lat="42.91701" lon="0.82732">
        <ele>1665.62</ele>
        <time>2022-04-10T10:46:02Z</time>
      </trkpt>
      <trkpt lat="42.91698" lon="0.8273">
        <ele>1665.62</ele>
        <time>2022-04-10T10:46:06Z</time>
      </trkpt>
      <trkpt lat="42.91682" lon="0.82727">
        <ele>1665.62</ele>
        <time>2022-04-10T10:46:21Z</time>
      </trkpt>
      <trkpt lat="42.91681" lon="0.82727">
        <ele>1665.62</ele>
        <time>2022-04-10T10:46:22Z</time>
      </trkpt>
      <trkpt lat="42.91679" lon="0.82728">
        <ele>1665.62</ele>
        <time>2022-04-10T10:46:25Z</time>
      </trkpt>
      <trkpt lat="42.91666" lon="0.82728">
        <ele>1664.18</ele>
        <time>2022-04-10T10:46:40Z</time>
      </trkpt>
      <trkpt lat="42.91653" lon="0.82725">
        <ele>1663.7</ele>
        <time>2022-04-10T10:46:55Z</time>
      </trkpt>
      <trkpt lat="42.91652" lon="0.82725">
        <ele>1663.7</ele>
        <time>2022-04-10T10:46:56Z</time>
      </trkpt>
      <trkpt lat="42.9164" lon="0.82721">
        <ele>1663.22</ele>
        <time>2022-04-10T10:47:09Z</time>
      </trkpt>
      <trkpt lat="42.9163" lon="0.82719">
        <ele>1662.74</ele>
        <time>2022-04-10T10:47:20Z</time>
      </trkpt>
      <trkpt lat="42.91623" lon="0.82716">
        <ele>1662.74</ele>
        <time>2022-04-10T10:47:31Z</time>
      </trkpt>
      <trkpt lat="42.91621" lon="0.82719">
        <ele>1664.18</ele>
        <time>2022-04-10T10:47:38Z</time>
      </trkpt>
      <trkpt lat="42.91622" lon="0.82721">
        <ele>1664.18</ele>
        <time>2022-04-10T10:47:51Z</time>
      </trkpt>
      <trkpt lat="42.91625" lon="0.82721">
        <ele>1664.18</ele>
        <time>2022-04-10T10:48:00Z</time>
      </trkpt>
      <trkpt lat="42.91624" lon="0.82719">
        <ele>1664.18</ele>
        <time>2022-04-10T10:48:18Z</time>
      </trkpt>
      <trkpt lat="42.91624" lon="0.8272">
        <ele>1662.74</ele>
        <time>2022-04-10T10:48:30Z</time>
      </trkpt>
      <trkpt lat="42.91624" lon="0.82719">
        <ele>1661.78</ele>
        <time>2022-04-10T10:49:03Z</time>
      </trkpt>
      <trkpt lat="42.91624" lon="0.82721">
        <ele>1661.3</ele>
        <time>2022-04-10T10:49:26Z</time>
      </trkpt>
      <trkpt lat="42.91623" lon="0.82721">
        <ele>1661.78</ele>
        <time>2022-04-10T10:49:44Z</time>
      </trkpt>
      <trkpt lat="42.91622" lon="0.82723">
        <ele>1661.78</ele>
        <time>2022-04-10T10:50:11Z</time>
      </trkpt>
      <trkpt lat="42.91625" lon="0.82721">
        <ele>1661.78</ele>
        <time>2022-04-10T10:50:35Z</time>
      </trkpt>
      <trkpt lat="42.91627" lon="0.82719">
        <ele>1661.78</ele>
        <time>2022-04-10T10:50:59Z</time>
      </trkpt>
      <trkpt lat="42.91626" lon="0.82721">
        <ele>1660.81</ele>
        <time>2022-04-10T10:51:26Z</time>
      </trkpt>
      <trkpt lat="42.91626" lon="0.82717">
        <ele>1661.3</ele>
        <time>2022-04-10T10:51:55Z</time>
      </trkpt>
      <trkpt lat="42.91626" lon="0.82718">
        <ele>1661.3</ele>
        <time>2022-04-10T10:52:24Z</time>
      </trkpt>
      <trkpt lat="42.91626" lon="0.82717">
        <ele>1661.3</ele>
        <time>2022-04-10T10:52:56Z</time>
      </trkpt>
      <trkpt lat="42.91626" lon="0.82718">
        <ele>1661.3</ele>
        <time>2022-04-10T10:53:48Z</time>
      </trkpt>
      <trkpt lat="42.91625" lon="0.82716">
        <ele>1661.3</ele>
        <time>2022-04-10T10:54:18Z</time>
      </trkpt>
      <trkpt lat="42.91625" lon="0.82715">
        <ele>1661.78</ele>
        <time>2022-04-10T10:54:47Z</time>
      </trkpt>
      <trkpt lat="42.91626" lon="0.82714">
        <ele>1661.78</ele>
        <time>2022-04-10T10:55:23Z</time>
      </trkpt>
      <trkpt lat="42.91626" lon="0.82716">
        <ele>1661.78</ele>
        <time>2022-04-10T10:56:53Z</time>
      </trkpt>
      <trkpt lat="42.91626" lon="0.82717">
        <ele>1661.78</ele>
        <time>2022-04-10T10:57:23Z</time>
      </trkpt>
      <trkpt lat="42.91627" lon="0.82716">
        <ele>1661.78</ele>
        <time>2022-04-10T10:57:56Z</time>
      </trkpt>
      <trkpt lat="42.91626" lon="0.82716">
        <ele>1661.78</ele>
        <time>2022-04-10T10:58:25Z</time>
      </trkpt>
      <trkpt lat="42.91625" lon="0.82716">
        <ele>1661.78</ele>
        <time>2022-04-10T10:58:52Z</time>
      </trkpt>
      <trkpt lat="42.91626" lon="0.82716">
        <ele>1661.78</ele>
        <time>2022-04-10T10:59:22Z</time>
      </trkpt>
      <trkpt lat="42.91626" lon="0.82715">
        <ele>1661.78</ele>
        <time>2022-04-10T10:59:47Z</time>
      </trkpt>
      <trkpt lat="42.91626" lon="0.82716">
        <ele>1661.78</ele>
        <time>2022-04-10T11:00:13Z</time>
      </trkpt>
      <trkpt lat="42.91626" lon="0.82717">
        <ele>1661.78</ele>
        <time>2022-04-10T11:00:39Z</time>
      </trkpt>
      <trkpt lat="42.91626" lon="0.82718">
        <ele>1661.3</ele>
        <time>2022-04-10T11:01:11Z</time>
      </trkpt>
      <trkpt lat="42.91626" lon="0.82717">
        <ele>1661.3</ele>
        <time>2022-04-10T11:01:43Z</time>
      </trkpt>
      <trkpt lat="42.91626" lon="0.82718">
        <ele>1661.3</ele>
        <time>2022-04-10T11:02:13Z</time>
      </trkpt>
      <trkpt lat="42.91627" lon="0.82718">
        <ele>1661.3</ele>
        <time>2022-04-10T11:02:36Z</time>
      </trkpt>
      <trkpt lat="42.91626" lon="0.82718">
        <ele>1661.3</ele>
        <time>2022-04-10T11:03:04Z</time>
      </trkpt>
      <trkpt lat="42.91626" lon="0.82717">
        <ele>1662.74</ele>
        <time>2022-04-10T11:03:24Z</time>
      </trkpt>
      <trkpt lat="42.91625" lon="0.82717">
        <ele>1662.74</ele>
        <time>2022-04-10T11:03:58Z</time>
      </trkpt>
      <trkpt lat="42.91626" lon="0.82717">
        <ele>1662.74</ele>
        <time>2022-04-10T11:04:24Z</time>
      </trkpt>
      <trkpt lat="42.91626" lon="0.82718">
        <ele>1662.74</ele>
        <time>2022-04-10T11:04:58Z</time>
      </trkpt>
      <trkpt lat="42.91625" lon="0.82718">
        <ele>1662.74</ele>
        <time>2022-04-10T11:06:04Z</time>
      </trkpt>
      <trkpt lat="42.91625" lon="0.82717">
        <ele>1663.22</ele>
        <time>2022-04-10T11:06:27Z</time>
      </trkpt>
      <trkpt lat="42.91626" lon="0.82718">
        <ele>1663.22</ele>
        <time>2022-04-10T11:07:17Z</time>
      </trkpt>
      <trkpt lat="42.91625" lon="0.82717">
        <ele>1663.22</ele>
        <time>2022-04-10T11:08:08Z</time>
      </trkpt>
      <trkpt lat="42.91626" lon="0.82716">
        <ele>1663.22</ele>
        <time>2022-04-10T11:08:35Z</time>
      </trkpt>
      <trkpt lat="42.91626" lon="0.82715">
        <ele>1663.22</ele>
        <time>2022-04-10T11:09:02Z</time>
      </trkpt>
      <trkpt lat="42.91625" lon="0.82716">
        <ele>1663.22</ele>
        <time>2022-04-10T11:09:25Z</time>
      </trkpt>
      <trkpt lat="42.91626" lon="0.82716">
        <ele>1662.74</ele>
        <time>2022-04-10T11:10:19Z</time>
      </trkpt>
      <trkpt lat="42.91627" lon="0.82716">
        <ele>1662.74</ele>
        <time>2022-04-10T11:10:39Z</time>
      </trkpt>
      <trkpt lat="42.91628" lon="0.82718">
        <ele>1664.18</ele>
        <time>2022-04-10T11:10:57Z</time>
      </trkpt>
      <trkpt lat="42.91625" lon="0.8272">
        <ele>1664.18</ele>
        <time>2022-04-10T11:11:24Z</time>
      </trkpt>
      <trkpt lat="42.91625" lon="0.82721">
        <ele>1660.81</ele>
        <time>2022-04-10T11:11:40Z</time>
      </trkpt>
      <trkpt lat="42.91624" lon="0.82723">
        <ele>1663.7</ele>
        <time>2022-04-10T11:11:45Z</time>
      </trkpt>
      <trkpt lat="42.91626" lon="0.82723">
        <ele>1663.22</ele>
        <time>2022-04-10T11:12:00Z</time>
      </trkpt>
      <trkpt lat="42.91626" lon="0.82722">
        <ele>1663.22</ele>
        <time>2022-04-10T11:12:25Z</time>
      </trkpt>
      <trkpt lat="42.91625" lon="0.82723">
        <ele>1663.22</ele>
        <time>2022-04-10T11:12:46Z</time>
      </trkpt>
      <trkpt lat="42.91624" lon="0.82723">
        <ele>1662.74</ele>
        <time>2022-04-10T11:13:04Z</time>
      </trkpt>
      <trkpt lat="42.91624" lon="0.8272">
        <ele>1662.74</ele>
        <time>2022-04-10T11:13:24Z</time>
      </trkpt>
      <trkpt lat="42.91625" lon="0.82719">
        <ele>1662.26</ele>
        <time>2022-04-10T11:14:01Z</time>
      </trkpt>
      <trkpt lat="42.91624" lon="0.82719">
        <ele>1662.26</ele>
        <time>2022-04-10T11:14:14Z</time>
      </trkpt>
      <trkpt lat="42.91624" lon="0.8272">
        <ele>1662.26</ele>
        <time>2022-04-10T11:14:30Z</time>
      </trkpt>
      <trkpt lat="42.91624" lon="0.82721">
        <ele>1662.26</ele>
        <time>2022-04-10T11:14:46Z</time>
      </trkpt>
      <trkpt lat="42.91623" lon="0.82722">
        <ele>1662.74</ele>
        <time>2022-04-10T11:15:20Z</time>
      </trkpt>
      <trkpt lat="42.91624" lon="0.82722">
        <ele>1662.74</ele>
        <time>2022-04-10T11:15:40Z</time>
      </trkpt>
      <trkpt lat="42.91625" lon="0.82721">
        <ele>1664.18</ele>
        <time>2022-04-10T11:17:08Z</time>
      </trkpt>
      <trkpt lat="42.91626" lon="0.8272">
        <ele>1664.18</ele>
        <time>2022-04-10T11:17:33Z</time>
      </trkpt>
      <trkpt lat="42.91628" lon="0.82721">
        <ele>1664.18</ele>
        <time>2022-04-10T11:18:17Z</time>
      </trkpt>
      <trkpt lat="42.91627" lon="0.82722">
        <ele>1664.66</ele>
        <time>2022-04-10T11:19:15Z</time>
      </trkpt>
      <trkpt lat="42.91627" lon="0.82721">
        <ele>1664.66</ele>
        <time>2022-04-10T11:19:31Z</time>
      </trkpt>
      <trkpt lat="42.91627" lon="0.82722">
        <ele>1665.14</ele>
        <time>2022-04-10T11:21:29Z</time>
      </trkpt>
      <trkpt lat="42.91628" lon="0.82721">
        <ele>1665.14</ele>
        <time>2022-04-10T11:21:50Z</time>
      </trkpt>
      <trkpt lat="42.91626" lon="0.82721">
        <ele>1665.14</ele>
        <time>2022-04-10T11:22:21Z</time>
      </trkpt>
      <trkpt lat="42.91625" lon="0.82719">
        <ele>1665.14</ele>
        <time>2022-04-10T11:22:38Z</time>
      </trkpt>
      <trkpt lat="42.91626" lon="0.82717">
        <ele>1664.18</ele>
        <time>2022-04-10T11:23:03Z</time>
      </trkpt>
      <trkpt lat="42.91626" lon="0.82719">
        <ele>1664.18</ele>
        <time>2022-04-10T11:23:27Z</time>
      </trkpt>
      <trkpt lat="42.91626" lon="0.82721">
        <ele>1665.14</ele>
        <time>2022-04-10T11:23:50Z</time>
      </trkpt>
      <trkpt lat="42.91625" lon="0.8272">
        <ele>1665.14</ele>
        <time>2022-04-10T11:24:13Z</time>
      </trkpt>
      <trkpt lat="42.91625" lon="0.82719">
        <ele>1665.14</ele>
        <time>2022-04-10T11:24:42Z</time>
      </trkpt>
      <trkpt lat="42.91626" lon="0.8272">
        <ele>1665.62</ele>
        <time>2022-04-10T11:25:37Z</time>
      </trkpt>
      <trkpt lat="42.91624" lon="0.8272">
        <ele>1665.62</ele>
        <time>2022-04-10T11:26:03Z</time>
      </trkpt>
      <trkpt lat="42.91626" lon="0.82721">
        <ele>1665.14</ele>
        <time>2022-04-10T11:26:31Z</time>
      </trkpt>
      <trkpt lat="42.91625" lon="0.8272">
        <ele>1665.14</ele>
        <time>2022-04-10T11:27:42Z</time>
      </trkpt>
      <trkpt lat="42.91625" lon="0.82722">
        <ele>1665.14</ele>
        <time>2022-04-10T11:28:35Z</time>
      </trkpt>
      <trkpt lat="42.91625" lon="0.82721">
        <ele>1665.14</ele>
        <time>2022-04-10T11:28:58Z</time>
      </trkpt>
      <trkpt lat="42.91624" lon="0.82721">
        <ele>1665.14</ele>
        <time>2022-04-10T11:29:28Z</time>
      </trkpt>
      <trkpt lat="42.91624" lon="0.8272">
        <ele>1665.14</ele>
        <time>2022-04-10T11:29:56Z</time>
      </trkpt>
      <trkpt lat="42.91625" lon="0.8272">
        <ele>1665.62</ele>
        <time>2022-04-10T11:30:10Z</time>
      </trkpt>
      <trkpt lat="42.91624" lon="0.82721">
        <ele>1666.58</ele>
        <time>2022-04-10T11:30:27Z</time>
      </trkpt>
      <trkpt lat="42.91623" lon="0.82724">
        <ele>1664.66</ele>
        <time>2022-04-10T11:31:18Z</time>
      </trkpt>
      <trkpt lat="42.91623" lon="0.8272">
        <ele>1665.62</ele>
        <time>2022-04-10T11:31:39Z</time>
      </trkpt>
      <trkpt lat="42.91624" lon="0.8272">
        <ele>1665.62</ele>
        <time>2022-04-10T11:32:05Z</time>
      </trkpt>
      <trkpt lat="42.91623" lon="0.8272">
        <ele>1665.62</ele>
        <time>2022-04-10T11:32:35Z</time>
      </trkpt>
      <trkpt lat="42.91624" lon="0.82721">
        <ele>1665.62</ele>
        <time>2022-04-10T11:32:58Z</time>
      </trkpt>
      <trkpt lat="42.91625" lon="0.82721">
        <ele>1666.1</ele>
        <time>2022-04-10T11:33:18Z</time>
      </trkpt>
      <trkpt lat="42.91625" lon="0.8272">
        <ele>1666.1</ele>
        <time>2022-04-10T11:33:37Z</time>
      </trkpt>
      <trkpt lat="42.91626" lon="0.8272">
        <ele>1667.06</ele>
        <time>2022-04-10T11:38:14Z</time>
      </trkpt>
      <trkpt lat="42.91626" lon="0.82719">
        <ele>1667.06</ele>
        <time>2022-04-10T11:38:41Z</time>
      </trkpt>
      <trkpt lat="42.91626" lon="0.8272">
        <ele>1667.06</ele>
        <time>2022-04-10T11:39:06Z</time>
      </trkpt>
      <trkpt lat="42.91626" lon="0.82719">
        <ele>1666.58</ele>
        <time>2022-04-10T11:39:30Z</time>
      </trkpt>
      <trkpt lat="42.91626" lon="0.8272">
        <ele>1666.58</ele>
        <time>2022-04-10T11:40:39Z</time>
      </trkpt>
      <trkpt lat="42.91626" lon="0.82719">
        <ele>1667.06</ele>
        <time>2022-04-10T11:42:50Z</time>
      </trkpt>
      <trkpt lat="42.91625" lon="0.8272">
        <ele>1667.06</ele>
        <time>2022-04-10T11:43:14Z</time>
      </trkpt>
      <trkpt lat="42.91626" lon="0.8272">
        <ele>1667.06</ele>
        <time>2022-04-10T11:43:41Z</time>
      </trkpt>
      <trkpt lat="42.91625" lon="0.82719">
        <ele>1666.58</ele>
        <time>2022-04-10T11:44:04Z</time>
      </trkpt>
      <trkpt lat="42.91626" lon="0.8272">
        <ele>1666.58</ele>
        <time>2022-04-10T11:44:26Z</time>
      </trkpt>
      <trkpt lat="42.91625" lon="0.8272">
        <ele>1666.58</ele>
        <time>2022-04-10T11:44:53Z</time>
      </trkpt>
      <trkpt lat="42.91625" lon="0.82719">
        <ele>1666.58</ele>
        <time>2022-04-10T11:45:46Z</time>
      </trkpt>
      <trkpt lat="42.91625" lon="0.8272">
        <ele>1666.1</ele>
        <time>2022-04-10T11:47:37Z</time>
      </trkpt>
      <trkpt lat="42.91625" lon="0.82719">
        <ele>1666.1</ele>
        <time>2022-04-10T11:49:34Z</time>
      </trkpt>
      <trkpt lat="42.91625" lon="0.8272">
        <ele>1667.06</ele>
        <time>2022-04-10T11:54:05Z</time>
      </trkpt>
      <trkpt lat="42.91624" lon="0.82719">
        <ele>1668.51</ele>
        <time>2022-04-10T11:55:07Z</time>
      </trkpt>
      <trkpt lat="42.91624" lon="0.82718">
        <ele>1668.51</ele>
        <time>2022-04-10T11:56:23Z</time>
      </trkpt>
      <trkpt lat="42.91625" lon="0.82718">
        <ele>1668.51</ele>
        <time>2022-04-10T11:56:44Z</time>
      </trkpt>
      <trkpt lat="42.91625" lon="0.8272">
        <ele>1667.54</ele>
        <time>2022-04-10T11:57:11Z</time>
      </trkpt>
      <trkpt lat="42.9163" lon="0.82723">
        <ele>1667.54</ele>
        <time>2022-04-10T11:57:18Z</time>
      </trkpt>
      <trkpt lat="42.91636" lon="0.82724">
        <ele>1667.54</ele>
        <time>2022-04-10T11:57:23Z</time>
      </trkpt>
      <trkpt lat="42.91639" lon="0.82726">
        <ele>1667.54</ele>
        <time>2022-04-10T11:57:27Z</time>
      </trkpt>
      <trkpt lat="42.91654" lon="0.82735">
        <ele>1667.54</ele>
        <time>2022-04-10T11:57:42Z</time>
      </trkpt>
      <trkpt lat="42.9166" lon="0.82739">
        <ele>1668.99</ele>
        <time>2022-04-10T11:57:48Z</time>
      </trkpt>
      <trkpt lat="42.91669" lon="0.82748">
        <ele>1669.47</ele>
        <time>2022-04-10T11:58:00Z</time>
      </trkpt>
      <trkpt lat="42.91682" lon="0.82762">
        <ele>1669.95</ele>
        <time>2022-04-10T11:58:15Z</time>
      </trkpt>
      <trkpt lat="42.91696" lon="0.82776">
        <ele>1670.91</ele>
        <time>2022-04-10T11:58:30Z</time>
      </trkpt>
      <trkpt lat="42.91704" lon="0.82787">
        <ele>1670.91</ele>
        <time>2022-04-10T11:58:41Z</time>
      </trkpt>
      <trkpt lat="42.91712" lon="0.82801">
        <ele>1669.47</ele>
        <time>2022-04-10T11:58:53Z</time>
      </trkpt>
      <trkpt lat="42.9172" lon="0.82808">
        <ele>1669.47</ele>
        <time>2022-04-10T11:59:01Z</time>
      </trkpt>
      <trkpt lat="42.91725" lon="0.8281">
        <ele>1669.47</ele>
        <time>2022-04-10T11:59:06Z</time>
      </trkpt>
      <trkpt lat="42.91742" lon="0.82816">
        <ele>1669.47</ele>
        <time>2022-04-10T11:59:22Z</time>
      </trkpt>
      <trkpt lat="42.91752" lon="0.82821">
        <ele>1667.54</ele>
        <time>2022-04-10T11:59:33Z</time>
      </trkpt>
      <trkpt lat="42.91752" lon="0.82822">
        <ele>1667.06</ele>
        <time>2022-04-10T11:59:45Z</time>
      </trkpt>
      <trkpt lat="42.91753" lon="0.82823">
        <ele>1667.06</ele>
        <time>2022-04-10T11:59:59Z</time>
      </trkpt>
      <trkpt lat="42.91756" lon="0.82825">
        <ele>1666.58</ele>
        <time>2022-04-10T12:00:02Z</time>
      </trkpt>
      <trkpt lat="42.91768" lon="0.82833">
        <ele>1666.1</ele>
        <time>2022-04-10T12:00:15Z</time>
      </trkpt>
      <trkpt lat="42.91774" lon="0.82836">
        <ele>1666.1</ele>
        <time>2022-04-10T12:00:21Z</time>
      </trkpt>
      <trkpt lat="42.91784" lon="0.82841">
        <ele>1665.62</ele>
        <time>2022-04-10T12:00:31Z</time>
      </trkpt>
      <trkpt lat="42.91788" lon="0.82846">
        <ele>1665.62</ele>
        <time>2022-04-10T12:00:38Z</time>
      </trkpt>
      <trkpt lat="42.91795" lon="0.82853">
        <ele>1665.62</ele>
        <time>2022-04-10T12:00:47Z</time>
      </trkpt>
      <trkpt lat="42.91802" lon="0.82867">
        <ele>1665.14</ele>
        <time>2022-04-10T12:01:00Z</time>
      </trkpt>
      <trkpt lat="42.91806" lon="0.82877">
        <ele>1664.66</ele>
        <time>2022-04-10T12:01:11Z</time>
      </trkpt>
      <trkpt lat="42.9181" lon="0.8288">
        <ele>1664.66</ele>
        <time>2022-04-10T12:01:17Z</time>
      </trkpt>
      <trkpt lat="42.91814" lon="0.82884">
        <ele>1664.66</ele>
        <time>2022-04-10T12:01:22Z</time>
      </trkpt>
      <trkpt lat="42.91824" lon="0.82897">
        <ele>1663.7</ele>
        <time>2022-04-10T12:01:35Z</time>
      </trkpt>
      <trkpt lat="42.91825" lon="0.82897">
        <ele>1663.7</ele>
        <time>2022-04-10T12:01:36Z</time>
      </trkpt>
      <trkpt lat="42.91829" lon="0.82906">
        <ele>1663.22</ele>
        <time>2022-04-10T12:01:46Z</time>
      </trkpt>
      <trkpt lat="42.91834" lon="0.82909">
        <ele>1662.74</ele>
        <time>2022-04-10T12:01:51Z</time>
      </trkpt>
      <trkpt lat="42.91844" lon="0.82917">
        <ele>1661.78</ele>
        <time>2022-04-10T12:02:02Z</time>
      </trkpt>
      <trkpt lat="42.91854" lon="0.82927">
        <ele>1660.33</ele>
        <time>2022-04-10T12:02:14Z</time>
      </trkpt>
      <trkpt lat="42.91857" lon="0.82929">
        <ele>1659.85</ele>
        <time>2022-04-10T12:02:17Z</time>
      </trkpt>
      <trkpt lat="42.91865" lon="0.82949">
        <ele>1657.45</ele>
        <time>2022-04-10T12:02:32Z</time>
      </trkpt>
      <trkpt lat="42.91873" lon="0.82964">
        <ele>1654.57</ele>
        <time>2022-04-10T12:02:43Z</time>
      </trkpt>
      <trkpt lat="42.91884" lon="0.82977">
        <ele>1651.2</ele>
        <time>2022-04-10T12:02:55Z</time>
      </trkpt>
      <trkpt lat="42.91886" lon="0.82978">
        <ele>1651.2</ele>
        <time>2022-04-10T12:02:57Z</time>
      </trkpt>
      <trkpt lat="42.91901" lon="0.82986">
        <ele>1648.8</ele>
        <time>2022-04-10T12:03:11Z</time>
      </trkpt>
      <trkpt lat="42.9191" lon="0.82997">
        <ele>1645.91</ele>
        <time>2022-04-10T12:03:24Z</time>
      </trkpt>
      <trkpt lat="42.91921" lon="0.83005">
        <ele>1643.03</ele>
        <time>2022-04-10T12:03:37Z</time>
      </trkpt>
      <trkpt lat="42.91928" lon="0.83012">
        <ele>1641.11</ele>
        <time>2022-04-10T12:03:47Z</time>
      </trkpt>
      <trkpt lat="42.91933" lon="0.83014">
        <ele>1639.19</ele>
        <time>2022-04-10T12:03:53Z</time>
      </trkpt>
      <trkpt lat="42.91937" lon="0.83021">
        <ele>1636.3</ele>
        <time>2022-04-10T12:04:01Z</time>
      </trkpt>
      <trkpt lat="42.9194" lon="0.83024">
        <ele>1634.86</ele>
        <time>2022-04-10T12:04:05Z</time>
      </trkpt>
      <trkpt lat="42.91943" lon="0.83026">
        <ele>1633.42</ele>
        <time>2022-04-10T12:04:09Z</time>
      </trkpt>
      <trkpt lat="42.91947" lon="0.83031">
        <ele>1632.94</ele>
        <time>2022-04-10T12:04:14Z</time>
      </trkpt>
      <trkpt lat="42.9195" lon="0.83038">
        <ele>1631.01</ele>
        <time>2022-04-10T12:04:21Z</time>
      </trkpt>
      <trkpt lat="42.91953" lon="0.8305">
        <ele>1630.05</ele>
        <time>2022-04-10T12:04:34Z</time>
      </trkpt>
      <trkpt lat="42.91954" lon="0.83057">
        <ele>1629.09</ele>
        <time>2022-04-10T12:04:43Z</time>
      </trkpt>
      <trkpt lat="42.91952" lon="0.83068">
        <ele>1628.61</ele>
        <time>2022-04-10T12:04:54Z</time>
      </trkpt>
      <trkpt lat="42.9195" lon="0.83075">
        <ele>1628.13</ele>
        <time>2022-04-10T12:05:05Z</time>
      </trkpt>
      <trkpt lat="42.9195" lon="0.83089">
        <ele>1627.17</ele>
        <time>2022-04-10T12:05:18Z</time>
      </trkpt>
      <trkpt lat="42.91952" lon="0.83108">
        <ele>1627.17</ele>
        <time>2022-04-10T12:05:32Z</time>
      </trkpt>
      <trkpt lat="42.91954" lon="0.83123">
        <ele>1627.17</ele>
        <time>2022-04-10T12:05:43Z</time>
      </trkpt>
      <trkpt lat="42.91952" lon="0.83143">
        <ele>1627.17</ele>
        <time>2022-04-10T12:05:56Z</time>
      </trkpt>
      <trkpt lat="42.91958" lon="0.83164">
        <ele>1627.17</ele>
        <time>2022-04-10T12:06:09Z</time>
      </trkpt>
      <trkpt lat="42.91962" lon="0.83178">
        <ele>1626.69</ele>
        <time>2022-04-10T12:06:19Z</time>
      </trkpt>
      <trkpt lat="42.91963" lon="0.83183">
        <ele>1626.21</ele>
        <time>2022-04-10T12:06:23Z</time>
      </trkpt>
      <trkpt lat="42.91964" lon="0.832">
        <ele>1624.77</ele>
        <time>2022-04-10T12:06:34Z</time>
      </trkpt>
      <trkpt lat="42.9197" lon="0.83222">
        <ele>1621.88</ele>
        <time>2022-04-10T12:06:50Z</time>
      </trkpt>
      <trkpt lat="42.91973" lon="0.83243">
        <ele>1619</ele>
        <time>2022-04-10T12:07:04Z</time>
      </trkpt>
      <trkpt lat="42.91981" lon="0.83262">
        <ele>1617.07</ele>
        <time>2022-04-10T12:07:18Z</time>
      </trkpt>
      <trkpt lat="42.91986" lon="0.83271">
        <ele>1616.11</ele>
        <time>2022-04-10T12:07:30Z</time>
      </trkpt>
      <trkpt lat="42.9199" lon="0.83281">
        <ele>1615.15</ele>
        <time>2022-04-10T12:07:42Z</time>
      </trkpt>
      <trkpt lat="42.91997" lon="0.83295">
        <ele>1613.23</ele>
        <time>2022-04-10T12:07:55Z</time>
      </trkpt>
      <trkpt lat="42.92004" lon="0.83313">
        <ele>1609.86</ele>
        <time>2022-04-10T12:08:09Z</time>
      </trkpt>
      <trkpt lat="42.92006" lon="0.83315">
        <ele>1609.86</ele>
        <time>2022-04-10T12:08:11Z</time>
      </trkpt>
      <trkpt lat="42.92009" lon="0.83316">
        <ele>1609.38</ele>
        <time>2022-04-10T12:08:14Z</time>
      </trkpt>
      <trkpt lat="42.92018" lon="0.8333">
        <ele>1607.46</ele>
        <time>2022-04-10T12:08:25Z</time>
      </trkpt>
      <trkpt lat="42.92022" lon="0.83346">
        <ele>1604.1</ele>
        <time>2022-04-10T12:08:35Z</time>
      </trkpt>
      <trkpt lat="42.92028" lon="0.83367">
        <ele>1601.69</ele>
        <time>2022-04-10T12:08:48Z</time>
      </trkpt>
      <trkpt lat="42.92034" lon="0.83381">
        <ele>1600.25</ele>
        <time>2022-04-10T12:09:00Z</time>
      </trkpt>
      <trkpt lat="42.92039" lon="0.8339">
        <ele>1598.33</ele>
        <time>2022-04-10T12:09:12Z</time>
      </trkpt>
      <trkpt lat="42.92038" lon="0.83399">
        <ele>1596.89</ele>
        <time>2022-04-10T12:09:23Z</time>
      </trkpt>
      <trkpt lat="42.92035" lon="0.83413">
        <ele>1594.96</ele>
        <time>2022-04-10T12:09:35Z</time>
      </trkpt>
      <trkpt lat="42.92037" lon="0.83422">
        <ele>1592.56</ele>
        <time>2022-04-10T12:09:45Z</time>
      </trkpt>
      <trkpt lat="42.92038" lon="0.83426">
        <ele>1591.12</ele>
        <time>2022-04-10T12:09:49Z</time>
      </trkpt>
      <trkpt lat="42.92039" lon="0.83439">
        <ele>1589.2</ele>
        <time>2022-04-10T12:10:00Z</time>
      </trkpt>
      <trkpt lat="42.92036" lon="0.83439">
        <ele>1588.72</ele>
        <time>2022-04-10T12:10:09Z</time>
      </trkpt>
      <trkpt lat="42.92033" lon="0.83447">
        <ele>1587.27</ele>
        <time>2022-04-10T12:10:19Z</time>
      </trkpt>
      <trkpt lat="42.92031" lon="0.83455">
        <ele>1584.87</ele>
        <time>2022-04-10T12:10:32Z</time>
      </trkpt>
      <trkpt lat="42.92032" lon="0.83465">
        <ele>1583.43</ele>
        <time>2022-04-10T12:10:44Z</time>
      </trkpt>
      <trkpt lat="42.92036" lon="0.83478">
        <ele>1579.58</ele>
        <time>2022-04-10T12:10:59Z</time>
      </trkpt>
      <trkpt lat="42.92039" lon="0.8349">
        <ele>1576.7</ele>
        <time>2022-04-10T12:11:11Z</time>
      </trkpt>
      <trkpt lat="42.92042" lon="0.83498">
        <ele>1573.33</ele>
        <time>2022-04-10T12:11:23Z</time>
      </trkpt>
      <trkpt lat="42.92043" lon="0.83502">
        <ele>1572.37</ele>
        <time>2022-04-10T12:11:39Z</time>
      </trkpt>
      <trkpt lat="42.92044" lon="0.83503">
        <ele>1571.89</ele>
        <time>2022-04-10T12:11:47Z</time>
      </trkpt>
      <trkpt lat="42.92044" lon="0.83502">
        <ele>1571.89</ele>
        <time>2022-04-10T12:12:08Z</time>
      </trkpt>
      <trkpt lat="42.92043" lon="0.83501">
        <ele>1571.89</ele>
        <time>2022-04-10T12:12:30Z</time>
      </trkpt>
      <trkpt lat="42.92044" lon="0.83499">
        <ele>1571.89</ele>
        <time>2022-04-10T12:12:42Z</time>
      </trkpt>
      <trkpt lat="42.92045" lon="0.83503">
        <ele>1571.41</ele>
        <time>2022-04-10T12:13:00Z</time>
      </trkpt>
      <trkpt lat="42.92045" lon="0.83515">
        <ele>1569.01</ele>
        <time>2022-04-10T12:13:11Z</time>
      </trkpt>
      <trkpt lat="42.92045" lon="0.83527">
        <ele>1566.12</ele>
        <time>2022-04-10T12:13:22Z</time>
      </trkpt>
      <trkpt lat="42.92045" lon="0.83539">
        <ele>1563.72</ele>
        <time>2022-04-10T12:13:33Z</time>
      </trkpt>
      <trkpt lat="42.92043" lon="0.83553">
        <ele>1562.28</ele>
        <time>2022-04-10T12:13:46Z</time>
      </trkpt>
      <trkpt lat="42.92042" lon="0.83562">
        <ele>1561.32</ele>
        <time>2022-04-10T12:13:55Z</time>
      </trkpt>
      <trkpt lat="42.92039" lon="0.83574">
        <ele>1559.4</ele>
        <time>2022-04-10T12:14:05Z</time>
      </trkpt>
      <trkpt lat="42.92032" lon="0.83584">
        <ele>1557.95</ele>
        <time>2022-04-10T12:14:18Z</time>
      </trkpt>
      <trkpt lat="42.92025" lon="0.83587">
        <ele>1556.99</ele>
        <time>2022-04-10T12:14:26Z</time>
      </trkpt>
      <trkpt lat="42.92018" lon="0.83592">
        <ele>1556.51</ele>
        <time>2022-04-10T12:14:38Z</time>
      </trkpt>
      <trkpt lat="42.92007" lon="0.83602">
        <ele>1555.07</ele>
        <time>2022-04-10T12:14:54Z</time>
      </trkpt>
      <trkpt lat="42.92007" lon="0.83612">
        <ele>1552.67</ele>
        <time>2022-04-10T12:15:06Z</time>
      </trkpt>
      <trkpt lat="42.92006" lon="0.83624">
        <ele>1550.74</ele>
        <time>2022-04-10T12:15:18Z</time>
      </trkpt>
      <trkpt lat="42.92006" lon="0.8364">
        <ele>1548.82</ele>
        <time>2022-04-10T12:15:31Z</time>
      </trkpt>
      <trkpt lat="42.92006" lon="0.83644">
        <ele>1548.82</ele>
        <time>2022-04-10T12:15:34Z</time>
      </trkpt>
      <trkpt lat="42.92008" lon="0.83661">
        <ele>1545.94</ele>
        <time>2022-04-10T12:15:49Z</time>
      </trkpt>
      <trkpt lat="42.92008" lon="0.83668">
        <ele>1544.98</ele>
        <time>2022-04-10T12:15:55Z</time>
      </trkpt>
      <trkpt lat="42.92009" lon="0.83672">
        <ele>1543.53</ele>
        <time>2022-04-10T12:16:05Z</time>
      </trkpt>
      <trkpt lat="42.9201" lon="0.83672">
        <ele>1543.53</ele>
        <time>2022-04-10T12:16:24Z</time>
      </trkpt>
      <trkpt lat="42.92013" lon="0.83671">
        <ele>1543.53</ele>
        <time>2022-04-10T12:16:36Z</time>
      </trkpt>
      <trkpt lat="42.9201" lon="0.83673">
        <ele>1543.53</ele>
        <time>2022-04-10T12:16:49Z</time>
      </trkpt>
      <trkpt lat="42.92008" lon="0.83675">
        <ele>1543.05</ele>
        <time>2022-04-10T12:17:04Z</time>
      </trkpt>
      <trkpt lat="42.92012" lon="0.83688">
        <ele>1540.17</ele>
        <time>2022-04-10T12:17:15Z</time>
      </trkpt>
      <trkpt lat="42.92019" lon="0.83707">
        <ele>1536.8</ele>
        <time>2022-04-10T12:17:29Z</time>
      </trkpt>
      <trkpt lat="42.92019" lon="0.83709">
        <ele>1536.32</ele>
        <time>2022-04-10T12:17:30Z</time>
      </trkpt>
      <trkpt lat="42.92025" lon="0.83725">
        <ele>1533.44</ele>
        <time>2022-04-10T12:17:42Z</time>
      </trkpt>
      <trkpt lat="42.92033" lon="0.8374">
        <ele>1531.04</ele>
        <time>2022-04-10T12:17:56Z</time>
      </trkpt>
      <trkpt lat="42.92033" lon="0.83741">
        <ele>1531.04</ele>
        <time>2022-04-10T12:17:57Z</time>
      </trkpt>
      <trkpt lat="42.92037" lon="0.8375">
        <ele>1530.08</ele>
        <time>2022-04-10T12:18:04Z</time>
      </trkpt>
      <trkpt lat="42.92039" lon="0.83755">
        <ele>1529.59</ele>
        <time>2022-04-10T12:18:08Z</time>
      </trkpt>
      <trkpt lat="42.92049" lon="0.8377">
        <ele>1527.67</ele>
        <time>2022-04-10T12:18:22Z</time>
      </trkpt>
      <trkpt lat="42.92056" lon="0.83786">
        <ele>1526.23</ele>
        <time>2022-04-10T12:18:34Z</time>
      </trkpt>
      <trkpt lat="42.92065" lon="0.83811">
        <ele>1524.31</ele>
        <time>2022-04-10T12:18:51Z</time>
      </trkpt>
      <trkpt lat="42.92072" lon="0.83831">
        <ele>1523.35</ele>
        <time>2022-04-10T12:19:05Z</time>
      </trkpt>
      <trkpt lat="42.92075" lon="0.83841">
        <ele>1522.39</ele>
        <time>2022-04-10T12:19:13Z</time>
      </trkpt>
      <trkpt lat="42.92077" lon="0.83845">
        <ele>1522.39</ele>
        <time>2022-04-10T12:19:16Z</time>
      </trkpt>
      <trkpt lat="42.92081" lon="0.83864">
        <ele>1520.94</ele>
        <time>2022-04-10T12:19:29Z</time>
      </trkpt>
      <trkpt lat="42.92089" lon="0.83884">
        <ele>1518.06</ele>
        <time>2022-04-10T12:19:45Z</time>
      </trkpt>
      <trkpt lat="42.92095" lon="0.83902">
        <ele>1515.18</ele>
        <time>2022-04-10T12:20:01Z</time>
      </trkpt>
      <trkpt lat="42.92101" lon="0.83918">
        <ele>1512.29</ele>
        <time>2022-04-10T12:20:15Z</time>
      </trkpt>
      <trkpt lat="42.92105" lon="0.83933">
        <ele>1510.37</ele>
        <time>2022-04-10T12:20:27Z</time>
      </trkpt>
      <trkpt lat="42.92108" lon="0.83942">
        <ele>1508.45</ele>
        <time>2022-04-10T12:20:35Z</time>
      </trkpt>
      <trkpt lat="42.92117" lon="0.83956">
        <ele>1505.08</ele>
        <time>2022-04-10T12:20:49Z</time>
      </trkpt>
      <trkpt lat="42.92122" lon="0.83963">
        <ele>1503.16</ele>
        <time>2022-04-10T12:20:57Z</time>
      </trkpt>
      <trkpt lat="42.92125" lon="0.83965">
        <ele>1501.72</ele>
        <time>2022-04-10T12:21:02Z</time>
      </trkpt>
      <trkpt lat="42.92128" lon="0.83974">
        <ele>1501.24</ele>
        <time>2022-04-10T12:21:09Z</time>
      </trkpt>
      <trkpt lat="42.92131" lon="0.83986">
        <ele>1498.35</ele>
        <time>2022-04-10T12:21:20Z</time>
      </trkpt>
      <trkpt lat="42.92136" lon="0.84003">
        <ele>1494.99</ele>
        <time>2022-04-10T12:21:34Z</time>
      </trkpt>
      <trkpt lat="42.92143" lon="0.84017">
        <ele>1492.58</ele>
        <time>2022-04-10T12:21:46Z</time>
      </trkpt>
      <trkpt lat="42.92148" lon="0.84027">
        <ele>1491.14</ele>
        <time>2022-04-10T12:21:57Z</time>
      </trkpt>
      <trkpt lat="42.92155" lon="0.84039">
        <ele>1488.26</ele>
        <time>2022-04-10T12:22:10Z</time>
      </trkpt>
      <trkpt lat="42.92162" lon="0.84052">
        <ele>1484.89</ele>
        <time>2022-04-10T12:22:24Z</time>
      </trkpt>
      <trkpt lat="42.92171" lon="0.84063">
        <ele>1483.45</ele>
        <time>2022-04-10T12:22:36Z</time>
      </trkpt>
      <trkpt lat="42.92181" lon="0.84075">
        <ele>1481.05</ele>
        <time>2022-04-10T12:22:50Z</time>
      </trkpt>
      <trkpt lat="42.92183" lon="0.84078">
        <ele>1480.09</ele>
        <time>2022-04-10T12:22:54Z</time>
      </trkpt>
      <trkpt lat="42.92185" lon="0.84083">
        <ele>1479.13</ele>
        <time>2022-04-10T12:22:58Z</time>
      </trkpt>
      <trkpt lat="42.92189" lon="0.84091">
        <ele>1476.24</ele>
        <time>2022-04-10T12:23:07Z</time>
      </trkpt>
      <trkpt lat="42.92197" lon="0.84099">
        <ele>1473.84</ele>
        <time>2022-04-10T12:23:19Z</time>
      </trkpt>
      <trkpt lat="42.92206" lon="0.84106">
        <ele>1470.47</ele>
        <time>2022-04-10T12:23:31Z</time>
      </trkpt>
      <trkpt lat="42.92207" lon="0.84107">
        <ele>1469.99</ele>
        <time>2022-04-10T12:23:32Z</time>
      </trkpt>
      <trkpt lat="42.92211" lon="0.84109">
        <ele>1469.03</ele>
        <time>2022-04-10T12:23:36Z</time>
      </trkpt>
      <trkpt lat="42.92215" lon="0.84111">
        <ele>1468.07</ele>
        <time>2022-04-10T12:23:42Z</time>
      </trkpt>
      <trkpt lat="42.92228" lon="0.84123">
        <ele>1466.63</ele>
        <time>2022-04-10T12:23:57Z</time>
      </trkpt>
      <trkpt lat="42.92237" lon="0.84137">
        <ele>1466.63</ele>
        <time>2022-04-10T12:24:09Z</time>
      </trkpt>
      <trkpt lat="42.92252" lon="0.84147">
        <ele>1466.63</ele>
        <time>2022-04-10T12:24:24Z</time>
      </trkpt>
      <trkpt lat="42.92267" lon="0.84158">
        <ele>1466.63</ele>
        <time>2022-04-10T12:24:40Z</time>
      </trkpt>
      <trkpt lat="42.92268" lon="0.84159">
        <ele>1467.59</ele>
        <time>2022-04-10T12:24:41Z</time>
      </trkpt>
      <trkpt lat="42.9227" lon="0.84164">
        <ele>1467.59</ele>
        <time>2022-04-10T12:24:45Z</time>
      </trkpt>
      <trkpt lat="42.92272" lon="0.84167">
        <ele>1468.07</ele>
        <time>2022-04-10T12:24:48Z</time>
      </trkpt>
      <trkpt lat="42.92284" lon="0.84175">
        <ele>1469.51</ele>
        <time>2022-04-10T12:25:02Z</time>
      </trkpt>
      <trkpt lat="42.92286" lon="0.84178">
        <ele>1470.47</ele>
        <time>2022-04-10T12:25:06Z</time>
      </trkpt>
      <trkpt lat="42.9229" lon="0.8419">
        <ele>1470.47</ele>
        <time>2022-04-10T12:25:15Z</time>
      </trkpt>
      <trkpt lat="42.92302" lon="0.84204">
        <ele>1471.44</ele>
        <time>2022-04-10T12:25:30Z</time>
      </trkpt>
      <trkpt lat="42.9231" lon="0.84216">
        <ele>1471.44</ele>
        <time>2022-04-10T12:25:44Z</time>
      </trkpt>
      <trkpt lat="42.92317" lon="0.84219">
        <ele>1472.4</ele>
        <time>2022-04-10T12:25:53Z</time>
      </trkpt>
      <trkpt lat="42.92324" lon="0.84229">
        <ele>1473.36</ele>
        <time>2022-04-10T12:26:06Z</time>
      </trkpt>
      <trkpt lat="42.92324" lon="0.84231">
        <ele>1473.36</ele>
        <time>2022-04-10T12:26:18Z</time>
      </trkpt>
      <trkpt lat="42.92327" lon="0.84231">
        <ele>1473.84</ele>
        <time>2022-04-10T12:26:27Z</time>
      </trkpt>
      <trkpt lat="42.92327" lon="0.8423">
        <ele>1472.4</ele>
        <time>2022-04-10T12:26:42Z</time>
      </trkpt>
      <trkpt lat="42.92326" lon="0.84228">
        <ele>1472.4</ele>
        <time>2022-04-10T12:27:17Z</time>
      </trkpt>
      <trkpt lat="42.92325" lon="0.84228">
        <ele>1472.4</ele>
        <time>2022-04-10T12:27:43Z</time>
      </trkpt>
      <trkpt lat="42.92325" lon="0.8423">
        <ele>1472.4</ele>
        <time>2022-04-10T12:29:52Z</time>
      </trkpt>
      <trkpt lat="42.92326" lon="0.84229">
        <ele>1472.4</ele>
        <time>2022-04-10T12:30:13Z</time>
      </trkpt>
      <trkpt lat="42.92324" lon="0.84229">
        <ele>1472.4</ele>
        <time>2022-04-10T12:30:39Z</time>
      </trkpt>
      <trkpt lat="42.92323" lon="0.8423">
        <ele>1472.4</ele>
        <time>2022-04-10T12:31:02Z</time>
      </trkpt>
      <trkpt lat="42.92322" lon="0.84231">
        <ele>1473.84</ele>
        <time>2022-04-10T12:32:44Z</time>
      </trkpt>
      <trkpt lat="42.9232" lon="0.84231">
        <ele>1473.84</ele>
        <time>2022-04-10T12:33:22Z</time>
      </trkpt>
      <trkpt lat="42.92321" lon="0.84231">
        <ele>1473.84</ele>
        <time>2022-04-10T12:33:43Z</time>
      </trkpt>
      <trkpt lat="42.9232" lon="0.84232">
        <ele>1473.84</ele>
        <time>2022-04-10T12:34:08Z</time>
      </trkpt>
      <trkpt lat="42.92321" lon="0.84231">
        <ele>1473.84</ele>
        <time>2022-04-10T12:34:27Z</time>
      </trkpt>
      <trkpt lat="42.9232" lon="0.84232">
        <ele>1473.84</ele>
        <time>2022-04-10T12:34:47Z</time>
      </trkpt>
      <trkpt lat="42.9232" lon="0.84231">
        <ele>1473.84</ele>
        <time>2022-04-10T12:35:19Z</time>
      </trkpt>
      <trkpt lat="42.92321" lon="0.84231">
        <ele>1474.32</ele>
        <time>2022-04-10T12:35:51Z</time>
      </trkpt>
      <trkpt lat="42.92321" lon="0.8423">
        <ele>1474.32</ele>
        <time>2022-04-10T12:36:05Z</time>
      </trkpt>
      <trkpt lat="42.9232" lon="0.84231">
        <ele>1474.32</ele>
        <time>2022-04-10T12:36:39Z</time>
      </trkpt>
      <trkpt lat="42.9232" lon="0.84232">
        <ele>1474.32</ele>
        <time>2022-04-10T12:36:57Z</time>
      </trkpt>
      <trkpt lat="42.9232" lon="0.84233">
        <ele>1474.32</ele>
        <time>2022-04-10T12:37:15Z</time>
      </trkpt>
      <trkpt lat="42.92319" lon="0.84232">
        <ele>1474.32</ele>
        <time>2022-04-10T12:38:10Z</time>
      </trkpt>
      <trkpt lat="42.9232" lon="0.84231">
        <ele>1474.32</ele>
        <time>2022-04-10T12:38:28Z</time>
      </trkpt>
      <trkpt lat="42.92321" lon="0.8423">
        <ele>1474.32</ele>
        <time>2022-04-10T12:38:44Z</time>
      </trkpt>
      <trkpt lat="42.92322" lon="0.84232">
        <ele>1474.32</ele>
        <time>2022-04-10T12:38:58Z</time>
      </trkpt>
      <trkpt lat="42.9232" lon="0.84233">
        <ele>1474.32</ele>
        <time>2022-04-10T12:39:16Z</time>
      </trkpt>
      <trkpt lat="42.92321" lon="0.84233">
        <ele>1474.8</ele>
        <time>2022-04-10T12:40:25Z</time>
      </trkpt>
      <trkpt lat="42.92321" lon="0.84232">
        <ele>1474.8</ele>
        <time>2022-04-10T12:40:42Z</time>
      </trkpt>
      <trkpt lat="42.9232" lon="0.84233">
        <ele>1474.8</ele>
        <time>2022-04-10T12:40:58Z</time>
      </trkpt>
      <trkpt lat="42.9232" lon="0.84232">
        <ele>1474.8</ele>
        <time>2022-04-10T12:41:17Z</time>
      </trkpt>
      <trkpt lat="42.9232" lon="0.84231">
        <ele>1474.8</ele>
        <time>2022-04-10T12:41:35Z</time>
      </trkpt>
      <trkpt lat="42.92321" lon="0.8423">
        <ele>1474.32</ele>
        <time>2022-04-10T12:41:54Z</time>
      </trkpt>
      <trkpt lat="42.9232" lon="0.8423">
        <ele>1474.32</ele>
        <time>2022-04-10T12:42:33Z</time>
      </trkpt>
      <trkpt lat="42.92321" lon="0.84231">
        <ele>1474.32</ele>
        <time>2022-04-10T12:42:48Z</time>
      </trkpt>
      <trkpt lat="42.92321" lon="0.84232">
        <ele>1474.8</ele>
        <time>2022-04-10T12:43:26Z</time>
      </trkpt>
      <trkpt lat="42.9232" lon="0.84233">
        <ele>1474.8</ele>
        <time>2022-04-10T12:43:51Z</time>
      </trkpt>
      <trkpt lat="42.92321" lon="0.84232">
        <ele>1474.8</ele>
        <time>2022-04-10T12:44:11Z</time>
      </trkpt>
      <trkpt lat="42.92321" lon="0.84231">
        <ele>1474.8</ele>
        <time>2022-04-10T12:44:28Z</time>
      </trkpt>
      <trkpt lat="42.9232" lon="0.84232">
        <ele>1474.8</ele>
        <time>2022-04-10T12:44:48Z</time>
      </trkpt>
      <trkpt lat="42.92321" lon="0.84232">
        <ele>1474.8</ele>
        <time>2022-04-10T12:45:25Z</time>
      </trkpt>
      <trkpt lat="42.92321" lon="0.84231">
        <ele>1474.8</ele>
        <time>2022-04-10T12:46:23Z</time>
      </trkpt>
      <trkpt lat="42.92321" lon="0.84232">
        <ele>1474.8</ele>
        <time>2022-04-10T12:47:19Z</time>
      </trkpt>
      <trkpt lat="42.92322" lon="0.84233">
        <ele>1474.8</ele>
        <time>2022-04-10T12:48:09Z</time>
      </trkpt>
      <trkpt lat="42.92323" lon="0.84231">
        <ele>1475.28</ele>
        <time>2022-04-10T12:48:23Z</time>
      </trkpt>
      <trkpt lat="42.92323" lon="0.84232">
        <ele>1475.28</ele>
        <time>2022-04-10T12:48:48Z</time>
      </trkpt>
      <trkpt lat="42.92325" lon="0.84228">
        <ele>1475.28</ele>
        <time>2022-04-10T12:49:08Z</time>
      </trkpt>
      <trkpt lat="42.92324" lon="0.84229">
        <ele>1473.84</ele>
        <time>2022-04-10T12:49:27Z</time>
      </trkpt>
      <trkpt lat="42.92322" lon="0.84227">
        <ele>1473.84</ele>
        <time>2022-04-10T12:49:54Z</time>
      </trkpt>
      <trkpt lat="42.92323" lon="0.84228">
        <ele>1473.84</ele>
        <time>2022-04-10T12:50:18Z</time>
      </trkpt>
      <trkpt lat="42.92323" lon="0.84227">
        <ele>1474.8</ele>
        <time>2022-04-10T12:51:01Z</time>
      </trkpt>
      <trkpt lat="42.92323" lon="0.84229">
        <ele>1474.8</ele>
        <time>2022-04-10T12:51:22Z</time>
      </trkpt>
      <trkpt lat="42.92322" lon="0.84227">
        <ele>1474.8</ele>
        <time>2022-04-10T12:51:48Z</time>
      </trkpt>
      <trkpt lat="42.92323" lon="0.84228">
        <ele>1474.8</ele>
        <time>2022-04-10T12:52:06Z</time>
      </trkpt>
      <trkpt lat="42.92324" lon="0.84228">
        <ele>1474.8</ele>
        <time>2022-04-10T12:52:26Z</time>
      </trkpt>
      <trkpt lat="42.92323" lon="0.84228">
        <ele>1474.8</ele>
        <time>2022-04-10T12:53:13Z</time>
      </trkpt>
      <trkpt lat="42.92324" lon="0.84229">
        <ele>1474.8</ele>
        <time>2022-04-10T12:54:36Z</time>
      </trkpt>
      <trkpt lat="42.92325" lon="0.8423">
        <ele>1474.8</ele>
        <time>2022-04-10T12:55:02Z</time>
      </trkpt>
      <trkpt lat="42.92324" lon="0.84229">
        <ele>1474.8</ele>
        <time>2022-04-10T12:55:33Z</time>
      </trkpt>
      <trkpt lat="42.92325" lon="0.8423">
        <ele>1475.28</ele>
        <time>2022-04-10T12:56:02Z</time>
      </trkpt>
      <trkpt lat="42.92324" lon="0.84228">
        <ele>1475.28</ele>
        <time>2022-04-10T12:56:51Z</time>
      </trkpt>
      <trkpt lat="42.92326" lon="0.84229">
        <ele>1475.28</ele>
        <time>2022-04-10T12:58:16Z</time>
      </trkpt>
      <trkpt lat="42.92325" lon="0.84229">
        <ele>1475.28</ele>
        <time>2022-04-10T12:59:12Z</time>
      </trkpt>
      <trkpt lat="42.92324" lon="0.84228">
        <ele>1474.8</ele>
        <time>2022-04-10T13:00:55Z</time>
      </trkpt>
      <trkpt lat="42.92324" lon="0.84229">
        <ele>1474.8</ele>
        <time>2022-04-10T13:01:29Z</time>
      </trkpt>
      <trkpt lat="42.92325" lon="0.8423">
        <ele>1474.8</ele>
        <time>2022-04-10T13:01:57Z</time>
      </trkpt>
      <trkpt lat="42.92325" lon="0.84229">
        <ele>1474.8</ele>
        <time>2022-04-10T13:02:24Z</time>
      </trkpt>
      <trkpt lat="42.92325" lon="0.8423">
        <ele>1474.8</ele>
        <time>2022-04-10T13:02:59Z</time>
      </trkpt>
      <trkpt lat="42.92324" lon="0.84228">
        <ele>1474.32</ele>
        <time>2022-04-10T13:03:29Z</time>
      </trkpt>
      <trkpt lat="42.92324" lon="0.84229">
        <ele>1474.32</ele>
        <time>2022-04-10T13:04:00Z</time>
      </trkpt>
      <trkpt lat="42.92325" lon="0.84229">
        <ele>1474.32</ele>
        <time>2022-04-10T13:04:32Z</time>
      </trkpt>
      <trkpt lat="42.92324" lon="0.84228">
        <ele>1474.32</ele>
        <time>2022-04-10T13:05:32Z</time>
      </trkpt>
      <trkpt lat="42.92325" lon="0.84228">
        <ele>1474.32</ele>
        <time>2022-04-10T13:06:26Z</time>
      </trkpt>
      <trkpt lat="42.92324" lon="0.84228">
        <ele>1473.84</ele>
        <time>2022-04-10T13:07:52Z</time>
      </trkpt>
      <trkpt lat="42.92325" lon="0.84229">
        <ele>1473.84</ele>
        <time>2022-04-10T13:09:24Z</time>
      </trkpt>
      <trkpt lat="42.92326" lon="0.84229">
        <ele>1473.36</ele>
        <time>2022-04-10T13:09:53Z</time>
      </trkpt>
      <trkpt lat="42.92325" lon="0.84229">
        <ele>1473.36</ele>
        <time>2022-04-10T13:10:29Z</time>
      </trkpt>
      <trkpt lat="42.92325" lon="0.84228">
        <ele>1473.36</ele>
        <time>2022-04-10T13:10:55Z</time>
      </trkpt>
      <trkpt lat="42.92325" lon="0.84229">
        <ele>1473.36</ele>
        <time>2022-04-10T13:11:30Z</time>
      </trkpt>
      <trkpt lat="42.92325" lon="0.84228">
        <ele>1473.36</ele>
        <time>2022-04-10T13:12:05Z</time>
      </trkpt>
      <trkpt lat="42.92326" lon="0.84229">
        <ele>1472.88</ele>
        <time>2022-04-10T13:13:26Z</time>
      </trkpt>
      <trkpt lat="42.92325" lon="0.84229">
        <ele>1472.88</ele>
        <time>2022-04-10T13:13:54Z</time>
      </trkpt>
      <trkpt lat="42.92324" lon="0.84228">
        <ele>1472.88</ele>
        <time>2022-04-10T13:15:31Z</time>
      </trkpt>
      <trkpt lat="42.92326" lon="0.84229">
        <ele>1472.88</ele>
        <time>2022-04-10T13:17:39Z</time>
      </trkpt>
      <trkpt lat="42.92324" lon="0.84229">
        <ele>1472.4</ele>
        <time>2022-04-10T13:18:09Z</time>
      </trkpt>
      <trkpt lat="42.92326" lon="0.84229">
        <ele>1472.4</ele>
        <time>2022-04-10T13:18:38Z</time>
      </trkpt>
      <trkpt lat="42.92325" lon="0.84229">
        <ele>1472.88</ele>
        <time>2022-04-10T13:19:06Z</time>
      </trkpt>
      <trkpt lat="42.92325" lon="0.84228">
        <ele>1472.4</ele>
        <time>2022-04-10T13:20:37Z</time>
      </trkpt>
      <trkpt lat="42.92324" lon="0.84228">
        <ele>1472.4</ele>
        <time>2022-04-10T13:21:06Z</time>
      </trkpt>
      <trkpt lat="42.92325" lon="0.84229">
        <ele>1472.88</ele>
        <time>2022-04-10T13:21:36Z</time>
      </trkpt>
      <trkpt lat="42.92326" lon="0.84229">
        <ele>1473.36</ele>
        <time>2022-04-10T13:22:09Z</time>
      </trkpt>
      <trkpt lat="42.92325" lon="0.84229">
        <ele>1472.88</ele>
        <time>2022-04-10T13:22:38Z</time>
      </trkpt>
      <trkpt lat="42.92325" lon="0.84228">
        <ele>1472.88</ele>
        <time>2022-04-10T13:23:07Z</time>
      </trkpt>
      <trkpt lat="42.92326" lon="0.84229">
        <ele>1472.88</ele>
        <time>2022-04-10T13:24:15Z</time>
      </trkpt>
      <trkpt lat="42.92325" lon="0.8423">
        <ele>1472.88</ele>
        <time>2022-04-10T13:24:42Z</time>
      </trkpt>
      <trkpt lat="42.92325" lon="0.84228">
        <ele>1472.88</ele>
        <time>2022-04-10T13:25:13Z</time>
      </trkpt>
      <trkpt lat="42.92325" lon="0.84229">
        <ele>1472.4</ele>
        <time>2022-04-10T13:26:11Z</time>
      </trkpt>
      <trkpt lat="42.92324" lon="0.84228">
        <ele>1472.4</ele>
        <time>2022-04-10T13:27:09Z</time>
      </trkpt>
      <trkpt lat="42.92325" lon="0.84229">
        <ele>1472.4</ele>
        <time>2022-04-10T13:27:38Z</time>
      </trkpt>
      <trkpt lat="42.92324" lon="0.84228">
        <ele>1472.88</ele>
        <time>2022-04-10T13:28:02Z</time>
      </trkpt>
      <trkpt lat="42.92324" lon="0.84229">
        <ele>1472.88</ele>
        <time>2022-04-10T13:28:27Z</time>
      </trkpt>
      <trkpt lat="42.92325" lon="0.84229">
        <ele>1473.36</ele>
        <time>2022-04-10T13:28:53Z</time>
      </trkpt>
      <trkpt lat="42.92327" lon="0.84229">
        <ele>1472.88</ele>
        <time>2022-04-10T13:29:24Z</time>
      </trkpt>
      <trkpt lat="42.92326" lon="0.84227">
        <ele>1472.88</ele>
        <time>2022-04-10T13:29:53Z</time>
      </trkpt>
      <trkpt lat="42.92327" lon="0.84228">
        <ele>1472.88</ele>
        <time>2022-04-10T13:30:36Z</time>
      </trkpt>
      <trkpt lat="42.92328" lon="0.84228">
        <ele>1472.88</ele>
        <time>2022-04-10T13:30:54Z</time>
      </trkpt>
      <trkpt lat="42.92327" lon="0.84228">
        <ele>1471.44</ele>
        <time>2022-04-10T13:31:13Z</time>
      </trkpt>
      <trkpt lat="42.92326" lon="0.84228">
        <ele>1471.44</ele>
        <time>2022-04-10T13:31:51Z</time>
      </trkpt>
      <trkpt lat="42.92326" lon="0.84229">
        <ele>1472.4</ele>
        <time>2022-04-10T13:32:13Z</time>
      </trkpt>
      <trkpt lat="42.92328" lon="0.84229">
        <ele>1472.88</ele>
        <time>2022-04-10T13:32:30Z</time>
      </trkpt>
      <trkpt lat="42.92326" lon="0.84231">
        <ele>1472.88</ele>
        <time>2022-04-10T13:32:39Z</time>
      </trkpt>
      <trkpt lat="42.92325" lon="0.84231">
        <ele>1473.36</ele>
        <time>2022-04-10T13:33:02Z</time>
      </trkpt>
      <trkpt lat="42.92324" lon="0.84233">
        <ele>1472.88</ele>
        <time>2022-04-10T13:33:22Z</time>
      </trkpt>
      <trkpt lat="42.92327" lon="0.84228">
        <ele>1472.88</ele>
        <time>2022-04-10T13:33:31Z</time>
      </trkpt>
      <trkpt lat="42.92331" lon="0.84226">
        <ele>1474.32</ele>
        <time>2022-04-10T13:33:42Z</time>
      </trkpt>
      <trkpt lat="42.92334" lon="0.84226">
        <ele>1474.8</ele>
        <time>2022-04-10T13:33:53Z</time>
      </trkpt>
      <trkpt lat="42.92342" lon="0.84225">
        <ele>1475.76</ele>
        <time>2022-04-10T13:34:04Z</time>
      </trkpt>
      <trkpt lat="42.92348" lon="0.84227">
        <ele>1476.72</ele>
        <time>2022-04-10T13:34:15Z</time>
      </trkpt>
      <trkpt lat="42.92355" lon="0.84232">
        <ele>1477.68</ele>
        <time>2022-04-10T13:34:26Z</time>
      </trkpt>
      <trkpt lat="42.92358" lon="0.84235">
        <ele>1478.65</ele>
        <time>2022-04-10T13:34:32Z</time>
      </trkpt>
      <trkpt lat="42.92361" lon="0.84245">
        <ele>1479.13</ele>
        <time>2022-04-10T13:34:42Z</time>
      </trkpt>
      <trkpt lat="42.92361" lon="0.84251">
        <ele>1479.61</ele>
        <time>2022-04-10T13:34:47Z</time>
      </trkpt>
      <trkpt lat="42.92363" lon="0.84265">
        <ele>1481.05</ele>
        <time>2022-04-10T13:34:59Z</time>
      </trkpt>
      <trkpt lat="42.92364" lon="0.84275">
        <ele>1481.05</ele>
        <time>2022-04-10T13:35:09Z</time>
      </trkpt>
      <trkpt lat="42.92366" lon="0.84277">
        <ele>1481.05</ele>
        <time>2022-04-10T13:35:13Z</time>
      </trkpt>
      <trkpt lat="42.92373" lon="0.84273">
        <ele>1479.61</ele>
        <time>2022-04-10T13:35:20Z</time>
      </trkpt>
      <trkpt lat="42.92381" lon="0.84271">
        <ele>1478.16</ele>
        <time>2022-04-10T13:35:30Z</time>
      </trkpt>
      <trkpt lat="42.92388" lon="0.84266">
        <ele>1476.24</ele>
        <time>2022-04-10T13:35:43Z</time>
      </trkpt>
      <trkpt lat="42.92395" lon="0.8426">
        <ele>1474.32</ele>
        <time>2022-04-10T13:35:56Z</time>
      </trkpt>
      <trkpt lat="42.92401" lon="0.84275">
        <ele>1473.84</ele>
        <time>2022-04-10T13:36:09Z</time>
      </trkpt>
      <trkpt lat="42.92403" lon="0.8429">
        <ele>1473.36</ele>
        <time>2022-04-10T13:36:21Z</time>
      </trkpt>
      <trkpt lat="42.92405" lon="0.84305">
        <ele>1471.44</ele>
        <time>2022-04-10T13:36:34Z</time>
      </trkpt>
      <trkpt lat="42.92404" lon="0.84319">
        <ele>1469.99</ele>
        <time>2022-04-10T13:36:47Z</time>
      </trkpt>
      <trkpt lat="42.92404" lon="0.8433">
        <ele>1467.59</ele>
        <time>2022-04-10T13:36:59Z</time>
      </trkpt>
      <trkpt lat="42.9241" lon="0.84331">
        <ele>1465.67</ele>
        <time>2022-04-10T13:37:10Z</time>
      </trkpt>
      <trkpt lat="42.92414" lon="0.84337">
        <ele>1464.23</ele>
        <time>2022-04-10T13:37:18Z</time>
      </trkpt>
      <trkpt lat="42.92417" lon="0.84351">
        <ele>1460.86</ele>
        <time>2022-04-10T13:37:32Z</time>
      </trkpt>
      <trkpt lat="42.92414" lon="0.84359">
        <ele>1457.5</ele>
        <time>2022-04-10T13:37:45Z</time>
      </trkpt>
      <trkpt lat="42.92414" lon="0.84366">
        <ele>1454.61</ele>
        <time>2022-04-10T13:37:58Z</time>
      </trkpt>
      <trkpt lat="42.92412" lon="0.84372">
        <ele>1452.21</ele>
        <time>2022-04-10T13:38:10Z</time>
      </trkpt>
      <trkpt lat="42.92407" lon="0.84384">
        <ele>1449.32</ele>
        <time>2022-04-10T13:38:23Z</time>
      </trkpt>
      <trkpt lat="42.92409" lon="0.84389">
        <ele>1446.92</ele>
        <time>2022-04-10T13:38:34Z</time>
      </trkpt>
      <trkpt lat="42.92406" lon="0.84399">
        <ele>1444.04</ele>
        <time>2022-04-10T13:38:47Z</time>
      </trkpt>
      <trkpt lat="42.92406" lon="0.84413">
        <ele>1440.67</ele>
        <time>2022-04-10T13:39:00Z</time>
      </trkpt>
      <trkpt lat="42.92407" lon="0.84425">
        <ele>1437.79</ele>
        <time>2022-04-10T13:39:13Z</time>
      </trkpt>
      <trkpt lat="42.92407" lon="0.84438">
        <ele>1435.39</ele>
        <time>2022-04-10T13:39:26Z</time>
      </trkpt>
      <trkpt lat="42.92407" lon="0.84455">
        <ele>1432.5</ele>
        <time>2022-04-10T13:39:39Z</time>
      </trkpt>
      <trkpt lat="42.92414" lon="0.84467">
        <ele>1431.06</ele>
        <time>2022-04-10T13:39:51Z</time>
      </trkpt>
      <trkpt lat="42.92423" lon="0.84471">
        <ele>1429.14</ele>
        <time>2022-04-10T13:40:06Z</time>
      </trkpt>
      <trkpt lat="42.9243" lon="0.84478">
        <ele>1427.7</ele>
        <time>2022-04-10T13:40:17Z</time>
      </trkpt>
      <trkpt lat="42.92434" lon="0.84481">
        <ele>1427.21</ele>
        <time>2022-04-10T13:40:27Z</time>
      </trkpt>
      <trkpt lat="42.92431" lon="0.84486">
        <ele>1425.29</ele>
        <time>2022-04-10T13:40:39Z</time>
      </trkpt>
      <trkpt lat="42.92427" lon="0.84491">
        <ele>1423.85</ele>
        <time>2022-04-10T13:40:46Z</time>
      </trkpt>
      <trkpt lat="42.92427" lon="0.84493">
        <ele>1423.85</ele>
        <time>2022-04-10T13:40:54Z</time>
      </trkpt>
      <trkpt lat="42.92436" lon="0.84502">
        <ele>1424.33</ele>
        <time>2022-04-10T13:41:16Z</time>
      </trkpt>
      <trkpt lat="42.92439" lon="0.84505">
        <ele>1424.33</ele>
        <time>2022-04-10T13:41:27Z</time>
      </trkpt>
      <trkpt lat="42.92444" lon="0.84504">
        <ele>1425.29</ele>
        <time>2022-04-10T13:41:38Z</time>
      </trkpt>
      <trkpt lat="42.92445" lon="0.84509">
        <ele>1424.81</ele>
        <time>2022-04-10T13:41:50Z</time>
      </trkpt>
      <trkpt lat="42.92444" lon="0.84511">
        <ele>1422.89</ele>
        <time>2022-04-10T13:42:03Z</time>
      </trkpt>
      <trkpt lat="42.92443" lon="0.84516">
        <ele>1422.89</ele>
        <time>2022-04-10T13:42:15Z</time>
      </trkpt>
      <trkpt lat="42.92449" lon="0.84519">
        <ele>1421.45</ele>
        <time>2022-04-10T13:42:24Z</time>
      </trkpt>
      <trkpt lat="42.92458" lon="0.84523">
        <ele>1420.97</ele>
        <time>2022-04-10T13:42:36Z</time>
      </trkpt>
      <trkpt lat="42.92465" lon="0.84524">
        <ele>1420.97</ele>
        <time>2022-04-10T13:42:45Z</time>
      </trkpt>
      <trkpt lat="42.92472" lon="0.84523">
        <ele>1421.93</ele>
        <time>2022-04-10T13:42:53Z</time>
      </trkpt>
      <trkpt lat="42.92479" lon="0.84514">
        <ele>1423.85</ele>
        <time>2022-04-10T13:43:05Z</time>
      </trkpt>
      <trkpt lat="42.92484" lon="0.84504">
        <ele>1425.29</ele>
        <time>2022-04-10T13:43:15Z</time>
      </trkpt>
      <trkpt lat="42.92493" lon="0.84496">
        <ele>1426.25</ele>
        <time>2022-04-10T13:43:27Z</time>
      </trkpt>
      <trkpt lat="42.92504" lon="0.8449">
        <ele>1427.21</ele>
        <time>2022-04-10T13:43:37Z</time>
      </trkpt>
      <trkpt lat="42.92515" lon="0.84483">
        <ele>1427.7</ele>
        <time>2022-04-10T13:43:48Z</time>
      </trkpt>
      <trkpt lat="42.92522" lon="0.84468">
        <ele>1428.18</ele>
        <time>2022-04-10T13:44:02Z</time>
      </trkpt>
      <trkpt lat="42.92526" lon="0.84451">
        <ele>1428.18</ele>
        <time>2022-04-10T13:44:15Z</time>
      </trkpt>
      <trkpt lat="42.92529" lon="0.84442">
        <ele>1426.25</ele>
        <time>2022-04-10T13:44:23Z</time>
      </trkpt>
      <trkpt lat="42.92533" lon="0.84438">
        <ele>1426.73</ele>
        <time>2022-04-10T13:44:29Z</time>
      </trkpt>
      <trkpt lat="42.92546" lon="0.84433">
        <ele>1426.73</ele>
        <time>2022-04-10T13:44:43Z</time>
      </trkpt>
      <trkpt lat="42.92555" lon="0.84434">
        <ele>1428.66</ele>
        <time>2022-04-10T13:44:53Z</time>
      </trkpt>
      <trkpt lat="42.92562" lon="0.84434">
        <ele>1430.58</ele>
        <time>2022-04-10T13:45:04Z</time>
      </trkpt>
      <trkpt lat="42.9257" lon="0.84423">
        <ele>1430.1</ele>
        <time>2022-04-10T13:45:15Z</time>
      </trkpt>
      <trkpt lat="42.92573" lon="0.84416">
        <ele>1430.1</ele>
        <time>2022-04-10T13:45:27Z</time>
      </trkpt>
      <trkpt lat="42.92576" lon="0.84412">
        <ele>1429.14</ele>
        <time>2022-04-10T13:45:32Z</time>
      </trkpt>
      <trkpt lat="42.92582" lon="0.84405">
        <ele>1428.18</ele>
        <time>2022-04-10T13:45:44Z</time>
      </trkpt>
      <trkpt lat="42.92586" lon="0.844">
        <ele>1426.73</ele>
        <time>2022-04-10T13:45:55Z</time>
      </trkpt>
      <trkpt lat="42.92587" lon="0.84399">
        <ele>1426.25</ele>
        <time>2022-04-10T13:46:04Z</time>
      </trkpt>
      <trkpt lat="42.92585" lon="0.84399">
        <ele>1426.25</ele>
        <time>2022-04-10T13:46:22Z</time>
      </trkpt>
      <trkpt lat="42.92586" lon="0.84399">
        <ele>1426.25</ele>
        <time>2022-04-10T13:46:32Z</time>
      </trkpt>
      <trkpt lat="42.92587" lon="0.84397">
        <ele>1427.7</ele>
        <time>2022-04-10T13:46:46Z</time>
      </trkpt>
      <trkpt lat="42.92585" lon="0.84386">
        <ele>1425.29</ele>
        <time>2022-04-10T13:46:57Z</time>
      </trkpt>
      <trkpt lat="42.92576" lon="0.84379">
        <ele>1424.81</ele>
        <time>2022-04-10T13:47:09Z</time>
      </trkpt>
      <trkpt lat="42.9257" lon="0.84373">
        <ele>1422.41</ele>
        <time>2022-04-10T13:47:20Z</time>
      </trkpt>
      <trkpt lat="42.92565" lon="0.84366">
        <ele>1423.37</ele>
        <time>2022-04-10T13:47:32Z</time>
      </trkpt>
      <trkpt lat="42.92563" lon="0.8436">
        <ele>1424.33</ele>
        <time>2022-04-10T13:47:44Z</time>
      </trkpt>
      <trkpt lat="42.92564" lon="0.84357">
        <ele>1422.89</ele>
        <time>2022-04-10T13:47:46Z</time>
      </trkpt>
      <trkpt lat="42.92568" lon="0.84343">
        <ele>1420.49</ele>
        <time>2022-04-10T13:47:58Z</time>
      </trkpt>
      <trkpt lat="42.92575" lon="0.84332">
        <ele>1417.6</ele>
        <time>2022-04-10T13:48:11Z</time>
      </trkpt>
      <trkpt lat="42.9258" lon="0.84326">
        <ele>1414.72</ele>
        <time>2022-04-10T13:48:23Z</time>
      </trkpt>
      <trkpt lat="42.92589" lon="0.84321">
        <ele>1411.35</ele>
        <time>2022-04-10T13:48:38Z</time>
      </trkpt>
      <trkpt lat="42.92588" lon="0.84306">
        <ele>1408.95</ele>
        <time>2022-04-10T13:48:53Z</time>
      </trkpt>
      <trkpt lat="42.9259" lon="0.84296">
        <ele>1407.03</ele>
        <time>2022-04-10T13:49:05Z</time>
      </trkpt>
      <trkpt lat="42.92592" lon="0.84279">
        <ele>1404.14</ele>
        <time>2022-04-10T13:49:20Z</time>
      </trkpt>
      <trkpt lat="42.92595" lon="0.84268">
        <ele>1400.78</ele>
        <time>2022-04-10T13:49:32Z</time>
      </trkpt>
      <trkpt lat="42.92597" lon="0.84252">
        <ele>1398.86</ele>
        <time>2022-04-10T13:49:46Z</time>
      </trkpt>
      <trkpt lat="42.92595" lon="0.84237">
        <ele>1397.41</ele>
        <time>2022-04-10T13:49:59Z</time>
      </trkpt>
      <trkpt lat="42.92596" lon="0.84223">
        <ele>1394.05</ele>
        <time>2022-04-10T13:50:10Z</time>
      </trkpt>
      <trkpt lat="42.92595" lon="0.84222">
        <ele>1393.57</ele>
        <time>2022-04-10T13:50:22Z</time>
      </trkpt>
      <trkpt lat="42.92599" lon="0.84219">
        <ele>1392.61</ele>
        <time>2022-04-10T13:50:35Z</time>
      </trkpt>
      <trkpt lat="42.92606" lon="0.84219">
        <ele>1391.17</ele>
        <time>2022-04-10T13:50:47Z</time>
      </trkpt>
      <trkpt lat="42.92616" lon="0.84216">
        <ele>1387.8</ele>
        <time>2022-04-10T13:50:59Z</time>
      </trkpt>
      <trkpt lat="42.92622" lon="0.84214">
        <ele>1386.84</ele>
        <time>2022-04-10T13:51:10Z</time>
      </trkpt>
      <trkpt lat="42.92617" lon="0.84201">
        <ele>1385.4</ele>
        <time>2022-04-10T13:51:23Z</time>
      </trkpt>
      <trkpt lat="42.92616" lon="0.84199">
        <ele>1385.4</ele>
        <time>2022-04-10T13:51:25Z</time>
      </trkpt>
      <trkpt lat="42.92615" lon="0.84196">
        <ele>1384.44</ele>
        <time>2022-04-10T13:51:27Z</time>
      </trkpt>
      <trkpt lat="42.92605" lon="0.8418">
        <ele>1384.92</ele>
        <time>2022-04-10T13:51:41Z</time>
      </trkpt>
      <trkpt lat="42.92595" lon="0.84164">
        <ele>1384.44</ele>
        <time>2022-04-10T13:51:55Z</time>
      </trkpt>
      <trkpt lat="42.92587" lon="0.84154">
        <ele>1384.44</ele>
        <time>2022-04-10T13:52:05Z</time>
      </trkpt>
      <trkpt lat="42.92581" lon="0.84144">
        <ele>1384.44</ele>
        <time>2022-04-10T13:52:18Z</time>
      </trkpt>
      <trkpt lat="42.92574" lon="0.84132">
        <ele>1384.44</ele>
        <time>2022-04-10T13:52:30Z</time>
      </trkpt>
      <trkpt lat="42.92569" lon="0.84117">
        <ele>1383.47</ele>
        <time>2022-04-10T13:52:42Z</time>
      </trkpt>
      <trkpt lat="42.92569" lon="0.84115">
        <ele>1382.51</ele>
        <time>2022-04-10T13:52:56Z</time>
      </trkpt>
      <trkpt lat="42.92571" lon="0.84108">
        <ele>1381.55</ele>
        <time>2022-04-10T13:53:13Z</time>
      </trkpt>
      <trkpt lat="42.92574" lon="0.84098">
        <ele>1378.67</ele>
        <time>2022-04-10T13:53:24Z</time>
      </trkpt>
      <trkpt lat="42.92578" lon="0.84093">
        <ele>1375.3</ele>
        <time>2022-04-10T13:53:33Z</time>
      </trkpt>
      <trkpt lat="42.92584" lon="0.84091">
        <ele>1373.38</ele>
        <time>2022-04-10T13:53:43Z</time>
      </trkpt>
      <trkpt lat="42.9259" lon="0.84091">
        <ele>1371.46</ele>
        <time>2022-04-10T13:53:49Z</time>
      </trkpt>
      <trkpt lat="42.92603" lon="0.84094">
        <ele>1368.09</ele>
        <time>2022-04-10T13:54:02Z</time>
      </trkpt>
      <trkpt lat="42.92614" lon="0.84096">
        <ele>1365.21</ele>
        <time>2022-04-10T13:54:15Z</time>
      </trkpt>
      <trkpt lat="42.92628" lon="0.84096">
        <ele>1361.84</ele>
        <time>2022-04-10T13:54:28Z</time>
      </trkpt>
      <trkpt lat="42.92636" lon="0.84096">
        <ele>1360.4</ele>
        <time>2022-04-10T13:54:39Z</time>
      </trkpt>
      <trkpt lat="42.92648" lon="0.84095">
        <ele>1358</ele>
        <time>2022-04-10T13:54:52Z</time>
      </trkpt>
      <trkpt lat="42.92658" lon="0.84094">
        <ele>1355.6</ele>
        <time>2022-04-10T13:55:05Z</time>
      </trkpt>
      <trkpt lat="42.92668" lon="0.84094">
        <ele>1353.67</ele>
        <time>2022-04-10T13:55:16Z</time>
      </trkpt>
      <trkpt lat="42.9268" lon="0.84094">
        <ele>1350.79</ele>
        <time>2022-04-10T13:55:30Z</time>
      </trkpt>
      <trkpt lat="42.92695" lon="0.84092">
        <ele>1348.39</ele>
        <time>2022-04-10T13:55:46Z</time>
      </trkpt>
      <trkpt lat="42.92707" lon="0.84094">
        <ele>1345.5</ele>
        <time>2022-04-10T13:56:01Z</time>
      </trkpt>
      <trkpt lat="42.92717" lon="0.84095">
        <ele>1342.14</ele>
        <time>2022-04-10T13:56:14Z</time>
      </trkpt>
      <trkpt lat="42.92727" lon="0.84094">
        <ele>1339.25</ele>
        <time>2022-04-10T13:56:27Z</time>
      </trkpt>
      <trkpt lat="42.92741" lon="0.84094">
        <ele>1335.89</ele>
        <time>2022-04-10T13:56:42Z</time>
      </trkpt>
      <trkpt lat="42.92755" lon="0.841">
        <ele>1333.49</ele>
        <time>2022-04-10T13:56:57Z</time>
      </trkpt>
      <trkpt lat="42.92767" lon="0.84105">
        <ele>1330.6</ele>
        <time>2022-04-10T13:57:11Z</time>
      </trkpt>
      <trkpt lat="42.92775" lon="0.84109">
        <ele>1328.68</ele>
        <time>2022-04-10T13:57:24Z</time>
      </trkpt>
      <trkpt lat="42.92783" lon="0.84115">
        <ele>1326.76</ele>
        <time>2022-04-10T13:57:35Z</time>
      </trkpt>
      <trkpt lat="42.92796" lon="0.84123">
        <ele>1323.87</ele>
        <time>2022-04-10T13:57:50Z</time>
      </trkpt>
      <trkpt lat="42.92806" lon="0.8413">
        <ele>1321.47</ele>
        <time>2022-04-10T13:58:04Z</time>
      </trkpt>
      <trkpt lat="42.92819" lon="0.84138">
        <ele>1319.55</ele>
        <time>2022-04-10T13:58:19Z</time>
      </trkpt>
      <trkpt lat="42.92832" lon="0.84148">
        <ele>1316.18</ele>
        <time>2022-04-10T13:58:34Z</time>
      </trkpt>
      <trkpt lat="42.92844" lon="0.84153">
        <ele>1313.78</ele>
        <time>2022-04-10T13:58:49Z</time>
      </trkpt>
      <trkpt lat="42.92852" lon="0.84157">
        <ele>1311.38</ele>
        <time>2022-04-10T13:59:01Z</time>
      </trkpt>
      <trkpt lat="42.9286" lon="0.8416">
        <ele>1308.97</ele>
        <time>2022-04-10T13:59:14Z</time>
      </trkpt>
      <trkpt lat="42.9287" lon="0.84161">
        <ele>1306.09</ele>
        <time>2022-04-10T13:59:28Z</time>
      </trkpt>
      <trkpt lat="42.92883" lon="0.84163">
        <ele>1303.2</ele>
        <time>2022-04-10T13:59:42Z</time>
      </trkpt>
      <trkpt lat="42.92894" lon="0.84161">
        <ele>1300.32</ele>
        <time>2022-04-10T13:59:56Z</time>
      </trkpt>
      <trkpt lat="42.92909" lon="0.84159">
        <ele>1297.44</ele>
        <time>2022-04-10T14:00:09Z</time>
      </trkpt>
      <trkpt lat="42.92918" lon="0.8416">
        <ele>1294.07</ele>
        <time>2022-04-10T14:00:22Z</time>
      </trkpt>
      <trkpt lat="42.92928" lon="0.84161">
        <ele>1291.19</ele>
        <time>2022-04-10T14:00:37Z</time>
      </trkpt>
      <trkpt lat="42.92937" lon="0.84163">
        <ele>1288.78</ele>
        <time>2022-04-10T14:00:49Z</time>
      </trkpt>
      <trkpt lat="42.92947" lon="0.84165">
        <ele>1286.38</ele>
        <time>2022-04-10T14:01:01Z</time>
      </trkpt>
      <trkpt lat="42.92964" lon="0.84161">
        <ele>1283.5</ele>
        <time>2022-04-10T14:01:16Z</time>
      </trkpt>
      <trkpt lat="42.92974" lon="0.84166">
        <ele>1280.13</ele>
        <time>2022-04-10T14:01:29Z</time>
      </trkpt>
      <trkpt lat="42.9298" lon="0.8417">
        <ele>1277.25</ele>
        <time>2022-04-10T14:01:41Z</time>
      </trkpt>
      <trkpt lat="42.92988" lon="0.84178">
        <ele>1273.88</ele>
        <time>2022-04-10T14:01:55Z</time>
      </trkpt>
      <trkpt lat="42.92996" lon="0.84185">
        <ele>1271</ele>
        <time>2022-04-10T14:02:07Z</time>
      </trkpt>
      <trkpt lat="42.93003" lon="0.84193">
        <ele>1267.64</ele>
        <time>2022-04-10T14:02:20Z</time>
      </trkpt>
      <trkpt lat="42.93009" lon="0.84199">
        <ele>1264.27</ele>
        <time>2022-04-10T14:02:32Z</time>
      </trkpt>
      <trkpt lat="42.93015" lon="0.84204">
        <ele>1260.91</ele>
        <time>2022-04-10T14:02:44Z</time>
      </trkpt>
      <trkpt lat="42.93025" lon="0.84209">
        <ele>1257.54</ele>
        <time>2022-04-10T14:02:56Z</time>
      </trkpt>
      <trkpt lat="42.93037" lon="0.84213">
        <ele>1255.14</ele>
        <time>2022-04-10T14:03:08Z</time>
      </trkpt>
      <trkpt lat="42.93047" lon="0.84209">
        <ele>1251.77</ele>
        <time>2022-04-10T14:03:20Z</time>
      </trkpt>
      <trkpt lat="42.93056" lon="0.84198">
        <ele>1249.37</ele>
        <time>2022-04-10T14:03:33Z</time>
      </trkpt>
      <trkpt lat="42.93065" lon="0.84186">
        <ele>1246.01</ele>
        <time>2022-04-10T14:03:46Z</time>
      </trkpt>
      <trkpt lat="42.93072" lon="0.84173">
        <ele>1243.6</ele>
        <time>2022-04-10T14:03:58Z</time>
      </trkpt>
      <trkpt lat="42.9308" lon="0.84176">
        <ele>1240.72</ele>
        <time>2022-04-10T14:04:10Z</time>
      </trkpt>
      <trkpt lat="42.93082" lon="0.84186">
        <ele>1238.32</ele>
        <time>2022-04-10T14:04:21Z</time>
      </trkpt>
      <trkpt lat="42.93083" lon="0.84199">
        <ele>1235.43</ele>
        <time>2022-04-10T14:04:34Z</time>
      </trkpt>
      <trkpt lat="42.93085" lon="0.84211">
        <ele>1233.03</ele>
        <time>2022-04-10T14:04:45Z</time>
      </trkpt>
      <trkpt lat="42.93084" lon="0.84222">
        <ele>1229.66</ele>
        <time>2022-04-10T14:04:57Z</time>
      </trkpt>
      <trkpt lat="42.93089" lon="0.84231">
        <ele>1227.26</ele>
        <time>2022-04-10T14:05:09Z</time>
      </trkpt>
      <trkpt lat="42.93096" lon="0.84236">
        <ele>1223.9</ele>
        <time>2022-04-10T14:05:22Z</time>
      </trkpt>
      <trkpt lat="42.93107" lon="0.84241">
        <ele>1220.05</ele>
        <time>2022-04-10T14:05:35Z</time>
      </trkpt>
      <trkpt lat="42.93116" lon="0.84243">
        <ele>1217.17</ele>
        <time>2022-04-10T14:05:46Z</time>
      </trkpt>
      <trkpt lat="42.93121" lon="0.84243">
        <ele>1214.28</ele>
        <time>2022-04-10T14:05:58Z</time>
      </trkpt>
      <trkpt lat="42.93134" lon="0.84243">
        <ele>1212.84</ele>
        <time>2022-04-10T14:06:10Z</time>
      </trkpt>
      <trkpt lat="42.93135" lon="0.8424">
        <ele>1212.36</ele>
        <time>2022-04-10T14:06:24Z</time>
      </trkpt>
      <trkpt lat="42.93136" lon="0.84238">
        <ele>1212.36</ele>
        <time>2022-04-10T14:06:35Z</time>
      </trkpt>
      <trkpt lat="42.93139" lon="0.84239">
        <ele>1212.36</ele>
        <time>2022-04-10T14:06:44Z</time>
      </trkpt>
      <trkpt lat="42.93144" lon="0.84244">
        <ele>1211.88</ele>
        <time>2022-04-10T14:06:56Z</time>
      </trkpt>
      <trkpt lat="42.93154" lon="0.84245">
        <ele>1210.92</ele>
        <time>2022-04-10T14:07:11Z</time>
      </trkpt>
      <trkpt lat="42.93163" lon="0.84246">
        <ele>1209.96</ele>
        <time>2022-04-10T14:07:23Z</time>
      </trkpt>
      <trkpt lat="42.93173" lon="0.84251">
        <ele>1209.48</ele>
        <time>2022-04-10T14:07:34Z</time>
      </trkpt>
      <trkpt lat="42.93185" lon="0.84261">
        <ele>1209.48</ele>
        <time>2022-04-10T14:07:47Z</time>
      </trkpt>
      <trkpt lat="42.93185" lon="0.84264">
        <ele>1210.44</ele>
        <time>2022-04-10T14:07:49Z</time>
      </trkpt>
      <trkpt lat="42.93186" lon="0.84269">
        <ele>1210.44</ele>
        <time>2022-04-10T14:08:02Z</time>
      </trkpt>
      <trkpt lat="42.93189" lon="0.84276">
        <ele>1210.44</ele>
        <time>2022-04-10T14:08:12Z</time>
      </trkpt>
      <trkpt lat="42.93198" lon="0.8429">
        <ele>1211.4</ele>
        <time>2022-04-10T14:08:27Z</time>
      </trkpt>
      <trkpt lat="42.93206" lon="0.84301">
        <ele>1212.36</ele>
        <time>2022-04-10T14:08:39Z</time>
      </trkpt>
      <trkpt lat="42.93211" lon="0.8431">
        <ele>1213.32</ele>
        <time>2022-04-10T14:08:50Z</time>
      </trkpt>
      <trkpt lat="42.93218" lon="0.84323">
        <ele>1213.8</ele>
        <time>2022-04-10T14:09:02Z</time>
      </trkpt>
      <trkpt lat="42.93233" lon="0.84345">
        <ele>1213.32</ele>
        <time>2022-04-10T14:09:22Z</time>
      </trkpt>
      <trkpt lat="42.93237" lon="0.84349">
        <ele>1213.32</ele>
        <time>2022-04-10T14:09:26Z</time>
      </trkpt>
      <trkpt lat="42.93253" lon="0.84358">
        <ele>1213.32</ele>
        <time>2022-04-10T14:09:41Z</time>
      </trkpt>
      <trkpt lat="42.93258" lon="0.84358">
        <ele>1211.88</ele>
        <time>2022-04-10T14:09:45Z</time>
      </trkpt>
      <trkpt lat="42.93268" lon="0.84367">
        <ele>1213.32</ele>
        <time>2022-04-10T14:09:57Z</time>
      </trkpt>
      <trkpt lat="42.93278" lon="0.84376">
        <ele>1215.24</ele>
        <time>2022-04-10T14:10:10Z</time>
      </trkpt>
      <trkpt lat="42.9328" lon="0.84378">
        <ele>1215.24</ele>
        <time>2022-04-10T14:10:12Z</time>
      </trkpt>
      <trkpt lat="42.93291" lon="0.84388">
        <ele>1215.24</ele>
        <time>2022-04-10T14:10:24Z</time>
      </trkpt>
      <trkpt lat="42.93295" lon="0.84394">
        <ele>1215.24</ele>
        <time>2022-04-10T14:10:34Z</time>
      </trkpt>
      <trkpt lat="42.93304" lon="0.84401">
        <ele>1216.21</ele>
        <time>2022-04-10T14:10:44Z</time>
      </trkpt>
      <trkpt lat="42.93313" lon="0.84409">
        <ele>1216.69</ele>
        <time>2022-04-10T14:10:56Z</time>
      </trkpt>
      <trkpt lat="42.93325" lon="0.8442">
        <ele>1217.65</ele>
        <time>2022-04-10T14:11:10Z</time>
      </trkpt>
      <trkpt lat="42.93331" lon="0.84432">
        <ele>1218.61</ele>
        <time>2022-04-10T14:11:22Z</time>
      </trkpt>
      <trkpt lat="42.93335" lon="0.84441">
        <ele>1219.09</ele>
        <time>2022-04-10T14:11:32Z</time>
      </trkpt>
      <trkpt lat="42.9334" lon="0.84451">
        <ele>1220.05</ele>
        <time>2022-04-10T14:11:44Z</time>
      </trkpt>
      <trkpt lat="42.93342" lon="0.84463">
        <ele>1221.01</ele>
        <time>2022-04-10T14:11:56Z</time>
      </trkpt>
      <trkpt lat="42.93349" lon="0.84473">
        <ele>1222.45</ele>
        <time>2022-04-10T14:12:09Z</time>
      </trkpt>
      <trkpt lat="42.93355" lon="0.84483">
        <ele>1222.93</ele>
        <time>2022-04-10T14:12:21Z</time>
      </trkpt>
      <trkpt lat="42.93362" lon="0.84493">
        <ele>1223.42</ele>
        <time>2022-04-10T14:12:32Z</time>
      </trkpt>
      <trkpt lat="42.93365" lon="0.84498">
        <ele>1223.42</ele>
        <time>2022-04-10T14:12:37Z</time>
      </trkpt>
      <trkpt lat="42.9337" lon="0.84514">
        <ele>1223.42</ele>
        <time>2022-04-10T14:12:50Z</time>
      </trkpt>
      <trkpt lat="42.93372" lon="0.84525">
        <ele>1222.93</ele>
        <time>2022-04-10T14:13:02Z</time>
      </trkpt>
      <trkpt lat="42.93381" lon="0.84542">
        <ele>1223.42</ele>
        <time>2022-04-10T14:13:16Z</time>
      </trkpt>
      <trkpt lat="42.93387" lon="0.84559">
        <ele>1223.9</ele>
        <time>2022-04-10T14:13:29Z</time>
      </trkpt>
      <trkpt lat="42.93393" lon="0.84578">
        <ele>1223.9</ele>
        <time>2022-04-10T14:13:42Z</time>
      </trkpt>
      <trkpt lat="42.93397" lon="0.84587">
        <ele>1223.9</ele>
        <time>2022-04-10T14:13:48Z</time>
      </trkpt>
      <trkpt lat="42.934" lon="0.84592">
        <ele>1223.9</ele>
        <time>2022-04-10T14:13:53Z</time>
      </trkpt>
      <trkpt lat="42.93412" lon="0.84599">
        <ele>1223.9</ele>
        <time>2022-04-10T14:14:06Z</time>
      </trkpt>
      <trkpt lat="42.93413" lon="0.846">
        <ele>1222.45</ele>
        <time>2022-04-10T14:14:08Z</time>
      </trkpt>
      <trkpt lat="42.93424" lon="0.84602">
        <ele>1221.97</ele>
        <time>2022-04-10T14:14:19Z</time>
      </trkpt>
      <trkpt lat="42.93435" lon="0.84605">
        <ele>1221.49</ele>
        <time>2022-04-10T14:14:31Z</time>
      </trkpt>
      <trkpt lat="42.93446" lon="0.84612">
        <ele>1221.01</ele>
        <time>2022-04-10T14:14:43Z</time>
      </trkpt>
      <trkpt lat="42.93458" lon="0.84624">
        <ele>1220.53</ele>
        <time>2022-04-10T14:14:56Z</time>
      </trkpt>
      <trkpt lat="42.93464" lon="0.8463">
        <ele>1219.57</ele>
        <time>2022-04-10T14:15:09Z</time>
      </trkpt>
      <trkpt lat="42.93473" lon="0.84643">
        <ele>1218.13</ele>
        <time>2022-04-10T14:15:21Z</time>
      </trkpt>
      <trkpt lat="42.93482" lon="0.84653">
        <ele>1215.72</ele>
        <time>2022-04-10T14:15:35Z</time>
      </trkpt>
      <trkpt lat="42.93485" lon="0.84658">
        <ele>1215.24</ele>
        <time>2022-04-10T14:15:40Z</time>
      </trkpt>
      <trkpt lat="42.9349" lon="0.84678">
        <ele>1214.76</ele>
        <time>2022-04-10T14:15:53Z</time>
      </trkpt>
      <trkpt lat="42.93498" lon="0.8469">
        <ele>1213.8</ele>
        <time>2022-04-10T14:16:04Z</time>
      </trkpt>
      <trkpt lat="42.93506" lon="0.84707">
        <ele>1212.84</ele>
        <time>2022-04-10T14:16:18Z</time>
      </trkpt>
      <trkpt lat="42.93512" lon="0.84725">
        <ele>1211.4</ele>
        <time>2022-04-10T14:16:32Z</time>
      </trkpt>
      <trkpt lat="42.93516" lon="0.84735">
        <ele>1209.96</ele>
        <time>2022-04-10T14:16:43Z</time>
      </trkpt>
      <trkpt lat="42.93521" lon="0.8475">
        <ele>1209.48</ele>
        <time>2022-04-10T14:16:54Z</time>
      </trkpt>
      <trkpt lat="42.93526" lon="0.84767">
        <ele>1209.48</ele>
        <time>2022-04-10T14:17:06Z</time>
      </trkpt>
      <trkpt lat="42.93531" lon="0.84783">
        <ele>1209</ele>
        <time>2022-04-10T14:17:18Z</time>
      </trkpt>
      <trkpt lat="42.93534" lon="0.84801">
        <ele>1208.03</ele>
        <time>2022-04-10T14:17:31Z</time>
      </trkpt>
      <trkpt lat="42.93539" lon="0.84812">
        <ele>1206.59</ele>
        <time>2022-04-10T14:17:42Z</time>
      </trkpt>
      <trkpt lat="42.93547" lon="0.84827">
        <ele>1205.15</ele>
        <time>2022-04-10T14:17:55Z</time>
      </trkpt>
      <trkpt lat="42.93552" lon="0.84839">
        <ele>1203.71</ele>
        <time>2022-04-10T14:18:08Z</time>
      </trkpt>
      <trkpt lat="42.9356" lon="0.84852">
        <ele>1200.34</ele>
        <time>2022-04-10T14:18:22Z</time>
      </trkpt>
      <trkpt lat="42.93565" lon="0.84868">
        <ele>1198.9</ele>
        <time>2022-04-10T14:18:34Z</time>
      </trkpt>
      <trkpt lat="42.93569" lon="0.8488">
        <ele>1196.98</ele>
        <time>2022-04-10T14:18:46Z</time>
      </trkpt>
      <trkpt lat="42.93576" lon="0.8489">
        <ele>1194.58</ele>
        <time>2022-04-10T14:18:57Z</time>
      </trkpt>
      <trkpt lat="42.93582" lon="0.84903">
        <ele>1192.65</ele>
        <time>2022-04-10T14:19:10Z</time>
      </trkpt>
      <trkpt lat="42.93581" lon="0.8491">
        <ele>1192.65</ele>
        <time>2022-04-10T14:19:26Z</time>
      </trkpt>
      <trkpt lat="42.93585" lon="0.8492">
        <ele>1191.69</ele>
        <time>2022-04-10T14:19:41Z</time>
      </trkpt>
      <trkpt lat="42.93592" lon="0.84931">
        <ele>1190.25</ele>
        <time>2022-04-10T14:19:54Z</time>
      </trkpt>
      <trkpt lat="42.936" lon="0.84946">
        <ele>1188.33</ele>
        <time>2022-04-10T14:20:07Z</time>
      </trkpt>
      <trkpt lat="42.93605" lon="0.84958">
        <ele>1186.4</ele>
        <time>2022-04-10T14:20:19Z</time>
      </trkpt>
      <trkpt lat="42.9361" lon="0.84965">
        <ele>1184.48</ele>
        <time>2022-04-10T14:20:31Z</time>
      </trkpt>
      <trkpt lat="42.93617" lon="0.84971">
        <ele>1181.6</ele>
        <time>2022-04-10T14:20:42Z</time>
      </trkpt>
      <trkpt lat="42.93624" lon="0.84977">
        <ele>1179.19</ele>
        <time>2022-04-10T14:20:53Z</time>
      </trkpt>
      <trkpt lat="42.93633" lon="0.84981">
        <ele>1177.27</ele>
        <time>2022-04-10T14:21:06Z</time>
      </trkpt>
      <trkpt lat="42.93643" lon="0.84987">
        <ele>1174.39</ele>
        <time>2022-04-10T14:21:19Z</time>
      </trkpt>
      <trkpt lat="42.93652" lon="0.84991">
        <ele>1171.5</ele>
        <time>2022-04-10T14:21:32Z</time>
      </trkpt>
      <trkpt lat="42.93659" lon="0.84998">
        <ele>1169.1</ele>
        <time>2022-04-10T14:21:45Z</time>
      </trkpt>
      <trkpt lat="42.93665" lon="0.85">
        <ele>1166.7</ele>
        <time>2022-04-10T14:21:57Z</time>
      </trkpt>
      <trkpt lat="42.9367" lon="0.85005">
        <ele>1165.26</ele>
        <time>2022-04-10T14:22:06Z</time>
      </trkpt>
      <trkpt lat="42.93678" lon="0.85008">
        <ele>1162.85</ele>
        <time>2022-04-10T14:22:18Z</time>
      </trkpt>
      <trkpt lat="42.93685" lon="0.8501">
        <ele>1160.45</ele>
        <time>2022-04-10T14:22:31Z</time>
      </trkpt>
      <trkpt lat="42.93691" lon="0.85012">
        <ele>1158.05</ele>
        <time>2022-04-10T14:22:43Z</time>
      </trkpt>
      <trkpt lat="42.93697" lon="0.85012">
        <ele>1156.12</ele>
        <time>2022-04-10T14:22:55Z</time>
      </trkpt>
      <trkpt lat="42.93704" lon="0.85021">
        <ele>1153.24</ele>
        <time>2022-04-10T14:23:08Z</time>
      </trkpt>
      <trkpt lat="42.93707" lon="0.85026">
        <ele>1151.8</ele>
        <time>2022-04-10T14:23:18Z</time>
      </trkpt>
      <trkpt lat="42.93714" lon="0.85037">
        <ele>1149.87</ele>
        <time>2022-04-10T14:23:32Z</time>
      </trkpt>
      <trkpt lat="42.9372" lon="0.85048">
        <ele>1148.43</ele>
        <time>2022-04-10T14:23:44Z</time>
      </trkpt>
      <trkpt lat="42.93729" lon="0.85058">
        <ele>1146.51</ele>
        <time>2022-04-10T14:23:57Z</time>
      </trkpt>
      <trkpt lat="42.9374" lon="0.85064">
        <ele>1143.63</ele>
        <time>2022-04-10T14:24:10Z</time>
      </trkpt>
      <trkpt lat="42.93751" lon="0.85069">
        <ele>1141.22</ele>
        <time>2022-04-10T14:24:22Z</time>
      </trkpt>
      <trkpt lat="42.93761" lon="0.85073">
        <ele>1139.78</ele>
        <time>2022-04-10T14:24:33Z</time>
      </trkpt>
      <trkpt lat="42.93773" lon="0.85081">
        <ele>1138.34</ele>
        <time>2022-04-10T14:24:47Z</time>
      </trkpt>
      <trkpt lat="42.93779" lon="0.85085">
        <ele>1137.38</ele>
        <time>2022-04-10T14:24:56Z</time>
      </trkpt>
      <trkpt lat="42.93788" lon="0.85088">
        <ele>1136.42</ele>
        <time>2022-04-10T14:25:07Z</time>
      </trkpt>
      <trkpt lat="42.93797" lon="0.85091">
        <ele>1135.45</ele>
        <time>2022-04-10T14:25:18Z</time>
      </trkpt>
      <trkpt lat="42.93806" lon="0.85094">
        <ele>1134.49</ele>
        <time>2022-04-10T14:25:28Z</time>
      </trkpt>
      <trkpt lat="42.93815" lon="0.85094">
        <ele>1134.01</ele>
        <time>2022-04-10T14:25:44Z</time>
      </trkpt>
      <trkpt lat="42.93818" lon="0.85095">
        <ele>1134.01</ele>
        <time>2022-04-10T14:26:01Z</time>
      </trkpt>
      <trkpt lat="42.93817" lon="0.85087">
        <ele>1134.01</ele>
        <time>2022-04-10T14:26:20Z</time>
      </trkpt>
      <trkpt lat="42.93822" lon="0.85091">
        <ele>1133.05</ele>
        <time>2022-04-10T14:26:32Z</time>
      </trkpt>
      <trkpt lat="42.93823" lon="0.85092">
        <ele>1132.57</ele>
        <time>2022-04-10T14:26:34Z</time>
      </trkpt>
      <trkpt lat="42.93826" lon="0.851">
        <ele>1131.61</ele>
        <time>2022-04-10T14:26:43Z</time>
      </trkpt>
      <trkpt lat="42.93833" lon="0.85119">
        <ele>1130.17</ele>
        <time>2022-04-10T14:26:54Z</time>
      </trkpt>
      <trkpt lat="42.9384" lon="0.85128">
        <ele>1128.73</ele>
        <time>2022-04-10T14:27:05Z</time>
      </trkpt>
      <trkpt lat="42.93847" lon="0.85133">
        <ele>1127.28</ele>
        <time>2022-04-10T14:27:16Z</time>
      </trkpt>
      <trkpt lat="42.93857" lon="0.85143">
        <ele>1125.36</ele>
        <time>2022-04-10T14:27:28Z</time>
      </trkpt>
      <trkpt lat="42.93866" lon="0.85152">
        <ele>1123.44</ele>
        <time>2022-04-10T14:27:41Z</time>
      </trkpt>
      <trkpt lat="42.93874" lon="0.85164">
        <ele>1121.03</ele>
        <time>2022-04-10T14:27:54Z</time>
      </trkpt>
      <trkpt lat="42.93881" lon="0.85172">
        <ele>1118.15</ele>
        <time>2022-04-10T14:28:08Z</time>
      </trkpt>
      <trkpt lat="42.93891" lon="0.85179">
        <ele>1115.27</ele>
        <time>2022-04-10T14:28:25Z</time>
      </trkpt>
      <trkpt lat="42.93898" lon="0.85185">
        <ele>1112.86</ele>
        <time>2022-04-10T14:28:38Z</time>
      </trkpt>
      <trkpt lat="42.93904" lon="0.85191">
        <ele>1111.9</ele>
        <time>2022-04-10T14:28:46Z</time>
      </trkpt>
      <trkpt lat="42.93914" lon="0.85199">
        <ele>1109.98</ele>
        <time>2022-04-10T14:28:57Z</time>
      </trkpt>
      <trkpt lat="42.93923" lon="0.85206">
        <ele>1108.54</ele>
        <time>2022-04-10T14:29:08Z</time>
      </trkpt>
      <trkpt lat="42.93936" lon="0.85212">
        <ele>1107.1</ele>
        <time>2022-04-10T14:29:21Z</time>
      </trkpt>
      <trkpt lat="42.9395" lon="0.85219">
        <ele>1104.69</ele>
        <time>2022-04-10T14:29:36Z</time>
      </trkpt>
      <trkpt lat="42.9397" lon="0.85216">
        <ele>1102.77</ele>
        <time>2022-04-10T14:29:52Z</time>
      </trkpt>
      <trkpt lat="42.93986" lon="0.85213">
        <ele>1101.33</ele>
        <time>2022-04-10T14:30:07Z</time>
      </trkpt>
      <trkpt lat="42.94001" lon="0.85211">
        <ele>1100.37</ele>
        <time>2022-04-10T14:30:21Z</time>
      </trkpt>
      <trkpt lat="42.94016" lon="0.85207">
        <ele>1098.92</ele>
        <time>2022-04-10T14:30:35Z</time>
      </trkpt>
      <trkpt lat="42.94027" lon="0.85208">
        <ele>1097.96</ele>
        <time>2022-04-10T14:30:48Z</time>
      </trkpt>
      <trkpt lat="42.94034" lon="0.8521">
        <ele>1095.56</ele>
        <time>2022-04-10T14:31:00Z</time>
      </trkpt>
      <trkpt lat="42.94043" lon="0.85219">
        <ele>1093.64</ele>
        <time>2022-04-10T14:31:13Z</time>
      </trkpt>
      <trkpt lat="42.94052" lon="0.85222">
        <ele>1092.2</ele>
        <time>2022-04-10T14:31:26Z</time>
      </trkpt>
      <trkpt lat="42.94063" lon="0.85224">
        <ele>1091.23</ele>
        <time>2022-04-10T14:31:37Z</time>
      </trkpt>
      <trkpt lat="42.94071" lon="0.85222">
        <ele>1090.75</ele>
        <time>2022-04-10T14:31:47Z</time>
      </trkpt>
      <trkpt lat="42.9408" lon="0.8522">
        <ele>1089.31</ele>
        <time>2022-04-10T14:31:57Z</time>
      </trkpt>
      <trkpt lat="42.94095" lon="0.85221">
        <ele>1087.87</ele>
        <time>2022-04-10T14:32:09Z</time>
      </trkpt>
      <trkpt lat="42.94107" lon="0.85223">
        <ele>1087.87</ele>
        <time>2022-04-10T14:32:20Z</time>
      </trkpt>
      <trkpt lat="42.94118" lon="0.85229">
        <ele>1087.39</ele>
        <time>2022-04-10T14:32:32Z</time>
      </trkpt>
      <trkpt lat="42.94121" lon="0.85232">
        <ele>1087.39</ele>
        <time>2022-04-10T14:32:35Z</time>
      </trkpt>
      <trkpt lat="42.94133" lon="0.85238">
        <ele>1087.39</ele>
        <time>2022-04-10T14:32:47Z</time>
      </trkpt>
      <trkpt lat="42.9414" lon="0.85242">
        <ele>1087.39</ele>
        <time>2022-04-10T14:32:57Z</time>
      </trkpt>
      <trkpt lat="42.94149" lon="0.85248">
        <ele>1087.39</ele>
        <time>2022-04-10T14:33:08Z</time>
      </trkpt>
      <trkpt lat="42.94159" lon="0.85253">
        <ele>1087.39</ele>
        <time>2022-04-10T14:33:18Z</time>
      </trkpt>
      <trkpt lat="42.94171" lon="0.85261">
        <ele>1086.91</ele>
        <time>2022-04-10T14:33:30Z</time>
      </trkpt>
      <trkpt lat="42.94183" lon="0.85268">
        <ele>1086.43</ele>
        <time>2022-04-10T14:33:42Z</time>
      </trkpt>
      <trkpt lat="42.94189" lon="0.8527">
        <ele>1085.95</ele>
        <time>2022-04-10T14:33:52Z</time>
      </trkpt>
      <trkpt lat="42.94192" lon="0.85268">
        <ele>1085.47</ele>
        <time>2022-04-10T14:34:13Z</time>
      </trkpt>
      <trkpt lat="42.94201" lon="0.85274">
        <ele>1085.47</ele>
        <time>2022-04-10T14:34:29Z</time>
      </trkpt>
      <trkpt lat="42.94211" lon="0.85284">
        <ele>1084.99</ele>
        <time>2022-04-10T14:34:41Z</time>
      </trkpt>
      <trkpt lat="42.94219" lon="0.85295">
        <ele>1084.5</ele>
        <time>2022-04-10T14:34:53Z</time>
      </trkpt>
      <trkpt lat="42.94228" lon="0.85308">
        <ele>1084.5</ele>
        <time>2022-04-10T14:35:04Z</time>
      </trkpt>
      <trkpt lat="42.94235" lon="0.85318">
        <ele>1084.02</ele>
        <time>2022-04-10T14:35:15Z</time>
      </trkpt>
      <trkpt lat="42.94242" lon="0.8533">
        <ele>1084.02</ele>
        <time>2022-04-10T14:35:29Z</time>
      </trkpt>
      <trkpt lat="42.94243" lon="0.85335">
        <ele>1085.47</ele>
        <time>2022-04-10T14:35:35Z</time>
      </trkpt>
      <trkpt lat="42.94246" lon="0.8535">
        <ele>1086.43</ele>
        <time>2022-04-10T14:35:47Z</time>
      </trkpt>
      <trkpt lat="42.94249" lon="0.85365">
        <ele>1087.39</ele>
        <time>2022-04-10T14:35:59Z</time>
      </trkpt>
      <trkpt lat="42.94255" lon="0.85378">
        <ele>1087.87</ele>
        <time>2022-04-10T14:36:12Z</time>
      </trkpt>
      <trkpt lat="42.94255" lon="0.85394">
        <ele>1087.39</ele>
        <time>2022-04-10T14:36:24Z</time>
      </trkpt>
      <trkpt lat="42.94258" lon="0.854">
        <ele>1086.43</ele>
        <time>2022-04-10T14:36:29Z</time>
      </trkpt>
      <trkpt lat="42.94268" lon="0.8542">
        <ele>1084.5</ele>
        <time>2022-04-10T14:36:42Z</time>
      </trkpt>
      <trkpt lat="42.94276" lon="0.85432">
        <ele>1082.58</ele>
        <time>2022-04-10T14:36:54Z</time>
      </trkpt>
      <trkpt lat="42.94286" lon="0.85443">
        <ele>1081.14</ele>
        <time>2022-04-10T14:37:07Z</time>
      </trkpt>
      <trkpt lat="42.94293" lon="0.85447">
        <ele>1079.22</ele>
        <time>2022-04-10T14:37:18Z</time>
      </trkpt>
      <trkpt lat="42.94302" lon="0.8545">
        <ele>1077.78</ele>
        <time>2022-04-10T14:37:31Z</time>
      </trkpt>
      <trkpt lat="42.94313" lon="0.85454">
        <ele>1075.85</ele>
        <time>2022-04-10T14:37:44Z</time>
      </trkpt>
      <trkpt lat="42.94325" lon="0.85457">
        <ele>1074.89</ele>
        <time>2022-04-10T14:37:56Z</time>
      </trkpt>
      <trkpt lat="42.94342" lon="0.85459">
        <ele>1074.41</ele>
        <time>2022-04-10T14:38:09Z</time>
      </trkpt>
      <trkpt lat="42.94351" lon="0.85462">
        <ele>1075.85</ele>
        <time>2022-04-10T14:38:22Z</time>
      </trkpt>
      <trkpt lat="42.94351" lon="0.85461">
        <ele>1075.85</ele>
        <time>2022-04-10T14:38:23Z</time>
      </trkpt>
      <trkpt lat="42.94353" lon="0.85465">
        <ele>1075.37</ele>
        <time>2022-04-10T14:38:37Z</time>
      </trkpt>
      <trkpt lat="42.94354" lon="0.85467">
        <ele>1074.41</ele>
        <time>2022-04-10T14:38:39Z</time>
      </trkpt>
      <trkpt lat="42.94355" lon="0.85468">
        <ele>1077.29</ele>
        <time>2022-04-10T14:38:40Z</time>
      </trkpt>
      <trkpt lat="42.94357" lon="0.85471">
        <ele>1075.37</ele>
        <time>2022-04-10T14:38:41Z</time>
      </trkpt>
      <trkpt lat="42.94366" lon="0.8548">
        <ele>1075.37</ele>
        <time>2022-04-10T14:38:51Z</time>
      </trkpt>
      <trkpt lat="42.94374" lon="0.85488">
        <ele>1077.78</ele>
        <time>2022-04-10T14:39:03Z</time>
      </trkpt>
      <trkpt lat="42.94382" lon="0.85492">
        <ele>1077.78</ele>
        <time>2022-04-10T14:39:12Z</time>
      </trkpt>
      <trkpt lat="42.94398" lon="0.85489">
        <ele>1078.26</ele>
        <time>2022-04-10T14:39:26Z</time>
      </trkpt>
      <trkpt lat="42.94414" lon="0.85482">
        <ele>1077.78</ele>
        <time>2022-04-10T14:39:39Z</time>
      </trkpt>
      <trkpt lat="42.94424" lon="0.85475">
        <ele>1076.81</ele>
        <time>2022-04-10T14:39:51Z</time>
      </trkpt>
      <trkpt lat="42.94436" lon="0.85461">
        <ele>1074.89</ele>
        <time>2022-04-10T14:40:08Z</time>
      </trkpt>
      <trkpt lat="42.94443" lon="0.85455">
        <ele>1074.41</ele>
        <time>2022-04-10T14:40:19Z</time>
      </trkpt>
      <trkpt lat="42.9445" lon="0.85445">
        <ele>1073.45</ele>
        <time>2022-04-10T14:40:31Z</time>
      </trkpt>
      <trkpt lat="42.94461" lon="0.85432">
        <ele>1072.01</ele>
        <time>2022-04-10T14:40:45Z</time>
      </trkpt>
      <trkpt lat="42.94469" lon="0.85423">
        <ele>1071.05</ele>
        <time>2022-04-10T14:40:56Z</time>
      </trkpt>
      <trkpt lat="42.94479" lon="0.85414">
        <ele>1070.08</ele>
        <time>2022-04-10T14:41:08Z</time>
      </trkpt>
      <trkpt lat="42.94484" lon="0.85411">
        <ele>1070.08</ele>
        <time>2022-04-10T14:41:18Z</time>
      </trkpt>
      <trkpt lat="42.94486" lon="0.85409">
        <ele>1069.6</ele>
        <time>2022-04-10T14:41:26Z</time>
      </trkpt>
      <trkpt lat="42.9448" lon="0.85406">
        <ele>1069.6</ele>
        <time>2022-04-10T14:41:35Z</time>
      </trkpt>
      <trkpt lat="42.94473" lon="0.85405">
        <ele>1071.05</ele>
        <time>2022-04-10T14:41:48Z</time>
      </trkpt>
      <trkpt lat="42.9447" lon="0.85405">
        <ele>1070.57</ele>
        <time>2022-04-10T14:42:00Z</time>
      </trkpt>
      <trkpt lat="42.94469" lon="0.85405">
        <ele>1070.57</ele>
        <time>2022-04-10T14:42:16Z</time>
      </trkpt>
      <trkpt lat="42.94468" lon="0.85409">
        <ele>1070.57</ele>
        <time>2022-04-10T14:42:29Z</time>
      </trkpt>
      <trkpt lat="42.94468" lon="0.85417">
        <ele>1070.57</ele>
        <time>2022-04-10T14:42:47Z</time>
      </trkpt>
      <trkpt lat="42.94466" lon="0.85415">
        <ele>1070.57</ele>
        <time>2022-04-10T14:43:12Z</time>
      </trkpt>
      <trkpt lat="42.94467" lon="0.85418">
        <ele>1070.57</ele>
        <time>2022-04-10T14:43:26Z</time>
      </trkpt>
      <trkpt lat="42.94466" lon="0.85416">
        <ele>1070.57</ele>
        <time>2022-04-10T14:43:47Z</time>
      </trkpt>
      <trkpt lat="42.94466" lon="0.85419">
        <ele>1070.57</ele>
        <time>2022-04-10T14:44:00Z</time>
      </trkpt>
      <trkpt lat="42.94465" lon="0.85422">
        <ele>1071.05</ele>
        <time>2022-04-10T14:44:26Z</time>
      </trkpt>
      <trkpt lat="42.94465" lon="0.85425">
        <ele>1071.05</ele>
        <time>2022-04-10T14:44:54Z</time>
      </trkpt>
      <trkpt lat="42.94469" lon="0.8542">
        <ele>1071.53</ele>
        <time>2022-04-10T14:45:10Z</time>
      </trkpt>
      <trkpt lat="42.9448" lon="0.85415">
        <ele>1071.53</ele>
        <time>2022-04-10T14:45:21Z</time>
      </trkpt>
      <trkpt lat="42.94484" lon="0.85415">
        <ele>1070.08</ele>
        <time>2022-04-10T14:45:26Z</time>
      </trkpt>
      <trkpt lat="42.94491" lon="0.85423">
        <ele>1069.6</ele>
        <time>2022-04-10T14:45:36Z</time>
      </trkpt>
      <trkpt lat="42.94497" lon="0.85442">
        <ele>1068.64</ele>
        <time>2022-04-10T14:45:52Z</time>
      </trkpt>
      <trkpt lat="42.94497" lon="0.85444">
        <ele>1068.64</ele>
        <time>2022-04-10T14:45:54Z</time>
      </trkpt>
      <trkpt lat="42.94484" lon="0.85458">
        <ele>1056.1</ele>
        <time>2022-04-10T14:46:08Z</time>
      </trkpt>
    </trkseg>
  </trk>
</gpx>